U28374 / G-EZWP 7700 Squawk Report (10th of August, 2019)

Aircraft A320 Reg No. G-EZWP Age 5 years old
Model A320 Jet engines 2 First flight 06-01-14
Registered 17-01-14 Rollout 01-14 Delivered 17-01-14
Construction No. 5927 Line No. N/A Series 214(SL)
ADSHEX 406A91 Airline name easyJet Owner N/A
Airfield based Luton~Beds~G First tracked 2017-07-13 07:51:00

Flight history for G-EZWP

Route Flight No Date Playback
Falconara (AOI) - Gatwick (LGW) U28976 2019-09-21 18:25:00
Gatwick (LGW) - Falconara (AOI) U28975 2019-09-21 16:20:00
???? N/A 2019-09-21 13:11:00
Gatwick (LGW) - Almeria (LEI) U28163 2019-09-21 08:00:00
Zurich (ZRH) - Gatwick (LGW) U28118 2019-09-20 21:51:00
Gatwick (LGW) - Zurich (ZRH) U28117 2019-09-20 19:36:00
Edinburgh (EDI) - Gatwick (LGW) U2808 2019-09-20 17:44:00
Gatwick (LGW) - Edinburgh (EDI) U2807 2019-09-20 15:44:00
Ioannis Kapodistrias Intl (CFU) - Gatwick (LGW) U28752 2019-09-20 12:51:00
Gatwick (LGW) - Ioannis Kapodistrias Intl (CFU) U28751 2019-09-20 08:07:00
Malaga (AGP) - Gatwick (LGW) U28616 2019-09-20 00:29:00
Gatwick (LGW) - Malaga (AGP) U28615 2019-09-19 21:18:00
Split (SPU) - Gatwick (LGW) U28396 2019-09-19 17:41:00
Gatwick (LGW) - Split (SPU) U28395 2019-09-19 15:27:00
Palermo (PMO) - Gatwick (LGW) U28244 2019-09-19 12:15:00
Gatwick (LGW) - Palermo (PMO) U28243 2019-09-19 08:34:00
Edinburgh (EDI) - Gatwick (LGW) U2814 2019-09-19 04:50:00
Gatwick (LGW) - Edinburgh (EDI) U2811 2019-09-18 22:19:00
Dusseldorf (DUS) - Gatwick (LGW) U28008 2019-09-18 21:03:00
Gatwick (LGW) - Dusseldorf (DUS) U28007 2019-09-18 18:28:00
Time Lat Lon Altitude Heading Speed Vertical Rate
2019-08-10 16:09:55 GMT 51.152115 -0.187083 0 348 11 0
2019-08-10 16:09:49 GMT 51.151852 -0.187009 0 348 10 0
2019-08-10 16:09:38 GMT 51.151356 -0.187187 0 61 13 0
2019-08-10 16:09:25 GMT 51.151073 -0.188828 0 78 25 0
2019-08-10 16:09:15 GMT 51.150829 -0.190601 0 78 28 0
2019-08-10 16:09:06 GMT 51.150585 -0.192375 0 75 27 0
2019-08-10 16:08:55 GMT 51.150295 -0.194473 0 78 25 0
2019-08-10 16:08:44 GMT 51.150055 -0.196288 0 78 24 0
2019-08-10 16:08:30 GMT 51.149757 -0.198459 0 78 22 0
2019-08-10 16:08:23 GMT 51.149620 -0.199498 0 75 21 0
2019-08-10 16:05:47 GMT 51.150574 -0.172577 325 259 130 -704
2019-08-10 16:05:44 GMT 51.150902 -0.170364 375 259 130 -704
2019-08-10 16:05:37 GMT 51.151833 -0.163193 450 258 131 -704
2019-08-10 16:05:34 GMT 51.152298 -0.159821 475 258 131 -512
2019-08-10 16:05:29 GMT 51.152939 -0.155219 550 258 129 -576
2019-08-10 16:05:22 GMT 51.153763 -0.149280 625 258 128 -640
2019-08-10 16:05:18 GMT 51.154312 -0.145569 650 258 126 -896
2019-08-10 16:05:13 GMT 51.154907 -0.141263 725 258 125 -768
2019-08-10 16:05:07 GMT 51.156372 -0.130722 800 258 128 -704
2019-08-10 16:05:01 GMT 51.156372 -0.130722 875 258 125 -704
2019-08-10 16:04:55 GMT 51.157650 -0.121231 1,250 258 128 -704
2019-08-10 16:04:52 GMT 51.157650 -0.121231 975 258 129 -704
2019-08-10 16:04:46 GMT 51.158348 -0.116272 1,000 258 127 -704
2019-08-10 16:04:40 GMT 51.158955 -0.111694 1,075 258 129 -704
2019-08-10 16:04:35 GMT 51.159622 -0.106894 1,125 258 129 -640
2019-08-10 16:04:30 GMT 51.160217 -0.102514 1,200 259 129 -576
2019-08-10 16:04:24 GMT 51.161179 -0.095388 1,275 258 129 -896
2019-08-10 16:04:19 GMT 51.161610 -0.092163 1,325 258 129 -896
2019-08-10 16:04:14 GMT 51.162445 -0.086136 1,400 258 129 -704
2019-08-10 16:04:09 GMT 51.162964 -0.082472 2,525 258 142 -960
2019-08-10 16:04:04 GMT 51.163696 -0.077201 1,525 258 125 -640
2019-08-10 16:03:58 GMT 51.164474 -0.071708 1,575 258 127 -704
2019-08-10 16:03:54 GMT 51.164886 -0.068887 1,650 258 129 -832
2019-08-10 16:03:50 GMT 51.165611 -0.063324 1,675 259 133 -832
2019-08-10 16:03:47 GMT 51.165665 -0.062874 1,675 259 133 -832
2019-08-10 16:03:44 GMT 51.166077 -0.059757 1,750 259 136 -704
2019-08-10 16:03:41 GMT 51.166588 -0.056000 1,925 258 146 -1024
2019-08-10 16:03:37 GMT 51.167038 -0.052779 1,825 258 143 -704
2019-08-10 16:03:33 GMT 51.167862 -0.046989 1,875 258 144 -768
2019-08-10 16:03:30 GMT 51.168137 -0.044985 1,900 258 145 -896
2019-08-10 16:03:27 GMT 51.168545 -0.041809 1,925 258 145 -1024
2019-08-10 16:03:22 GMT 51.169327 -0.036225 2,025 258 142 -640
2019-08-10 16:03:19 GMT 51.169556 -0.034518 2,050 258 142 -640
2019-08-10 16:03:16 GMT 51.170105 -0.030361 2,100 259 141 -448
2019-08-10 16:03:13 GMT 51.170517 -0.027095 2,125 258 141 -704
2019-08-10 16:03:10 GMT 51.170792 -0.025165 2,150 258 130 -832
2019-08-10 16:03:07 GMT 51.171337 -0.021286 2,175 258 141 -768
2019-08-10 16:03:04 GMT 51.171661 -0.018921 2,250 258 141 -640
2019-08-10 16:03:00 GMT 51.172256 -0.014549 2,275 258 142 -960
2019-08-10 16:02:56 GMT 51.172897 -0.010170 2,350 258 142 -896
2019-08-10 16:02:52 GMT 51.173431 -0.006256 2,475 259 127 -704
2019-08-10 16:02:49 GMT 51.173759 -0.003738 2,425 258 138 -768
2019-08-10 16:02:46 GMT 51.174179 -0.000742 2,525 258 131 -704
2019-08-10 16:02:43 GMT 51.175060 0.005798 2,550 258 131 -704
2019-08-10 16:02:40 GMT 51.175060 0.005798 2,550 258 130 -704
2019-08-10 16:02:35 GMT 51.175644 0.010170 2,600 258 127 -704
2019-08-10 16:02:32 GMT 51.175964 0.012323 2,625 258 125 -512
2019-08-10 16:02:29 GMT 51.176502 0.016327 2,650 258 125 -512
2019-08-10 16:02:26 GMT 51.176697 0.017741 2,675 258 126 -832
2019-08-10 16:02:23 GMT 51.177528 0.023804 2,775 258 130 -832
2019-08-10 16:02:20 GMT 51.177528 0.023804 2,800 258 129 -832
2019-08-10 16:02:17 GMT 51.177853 0.026169 2,800 258 129 -896
2019-08-10 16:02:11 GMT 51.178600 0.031815 2,925 258 129 -704
2019-08-10 16:02:08 GMT 51.179016 0.034790 2,925 258 129 -704
2019-08-10 16:02:05 GMT 51.179443 0.037933 2,975 258 128 -640
2019-08-10 16:02:02 GMT 51.179718 0.040085 3,000 259 127 -704
2019-08-10 16:01:59 GMT 51.180508 0.045853 3,050 258 127 -640
2019-08-10 16:01:55 GMT 51.180634 0.046692 3,075 258 125 -576
2019-08-10 16:01:52 GMT 51.180954 0.049216 3,100 258 125 -576
2019-08-10 16:01:49 GMT 51.181438 0.052719 3,175 258 125 -512
2019-08-10 16:01:45 GMT 51.181858 0.055771 3,175 258 125 -512
2019-08-10 16:01:41 GMT 51.182785 0.062503 3,225 258 124 -320
2019-08-10 16:01:38 GMT 51.182785 0.062503 3,250 258 123 -256
2019-08-10 16:01:35 GMT 51.183113 0.064850 3,250 259 122 -192
2019-08-10 16:01:32 GMT 51.183472 0.067477 3,275 258 123 -384
2019-08-10 16:01:28 GMT 51.184113 0.072228 3,275 258 123 -256
2019-08-10 16:01:25 GMT 51.184372 0.074158 3,300 258 122 -384
2019-08-10 16:01:22 GMT 51.184696 0.076599 3,325 259 123 -320
2019-08-10 16:01:18 GMT 51.185257 0.081024 3,325 259 123 -320
2019-08-10 16:01:15 GMT 51.185722 0.084381 3,425 260 122 -256
2019-08-10 16:01:12 GMT 51.185860 0.085526 3,400 264 122 -320
2019-08-10 16:01:08 GMT 51.186813 0.092493 3,400 259 122 -192
2019-08-10 16:01:05 GMT 51.187119 0.095139 3,425 259 122 -256
2019-08-10 16:01:02 GMT 51.187119 0.095139 3,525 264 122 -320
2019-08-10 16:00:58 GMT 51.187500 0.098135 3,450 266 122 -256
2019-08-10 16:00:55 GMT 51.187771 0.100403 3,475 261 122 -320
2019-08-10 16:00:51 GMT 51.188141 0.103776 3,525 264 122 -320
2019-08-10 16:00:47 GMT 51.188553 0.107933 3,500 263 122 -320
2019-08-10 16:00:43 GMT 51.188934 0.112152 3,525 264 121 -320
2019-08-10 16:00:40 GMT 51.189121 0.114594 3,525 266 122 -256
2019-08-10 16:00:37 GMT 51.189259 0.117264 3,550 266 122 -256
2019-08-10 16:00:34 GMT 51.189400 0.119629 3,550 266 123 -320
2019-08-10 16:00:31 GMT 51.189491 0.121689 3,575 266 123 -384
2019-08-10 16:00:28 GMT 51.189587 0.124588 3,600 268 124 -320
2019-08-10 16:00:25 GMT 51.189697 0.127308 3,600 269 125 -320
2019-08-10 16:00:22 GMT 51.189724 0.129852 3,625 270 127 -256
2019-08-10 16:00:19 GMT 51.189789 0.132875 3,725 292 156 -384
2019-08-10 16:00:16 GMT 51.189774 0.135880 3,725 292 156 -384
2019-08-10 16:00:12 GMT 51.189606 0.139779 3,675 277 131 -256
2019-08-10 16:00:09 GMT 51.189400 0.142593 3,675 281 136 320
2019-08-10 16:00:06 GMT 51.189102 0.145569 3,675 281 136 320
2019-08-10 16:00:03 GMT 51.188793 0.148239 3,650 286 142 320
2019-08-10 15:59:59 GMT 51.187820 0.153660 3,625 289 148 576
2019-08-10 15:59:53 GMT 51.186722 0.159153 3,625 289 154 -256
2019-08-10 15:59:50 GMT 51.185490 0.165100 3,650 289 154 -256
2019-08-10 15:59:42 GMT 51.184139 0.171661 3,675 289 154 -256
2019-08-10 15:59:39 GMT 51.183380 0.175187 3,675 289 154 -192
2019-08-10 15:59:31 GMT 51.181767 0.182571 3,800 291 155 -256
2019-08-10 15:59:28 GMT 51.181019 0.185699 3,725 292 156 -384
2019-08-10 15:59:25 GMT 51.179951 0.189819 3,750 295 157 -256
2019-08-10 15:59:22 GMT 51.179398 0.191815 3,775 308 162 -128
2019-08-10 15:59:18 GMT 51.177933 0.196269 3,775 308 162 -128
2019-08-10 15:59:15 GMT 51.176922 0.198517 3,775 310 164 -192
2019-08-10 15:59:11 GMT 51.174591 0.202579 3,800 325 176 -384
2019-08-10 15:59:08 GMT 51.172127 0.205612 3,825 327 178 -384
2019-08-10 15:59:05 GMT 51.170975 0.206884 3,825 344 194 -256
2019-08-10 15:59:02 GMT 51.167336 0.210648 3,850 330 182 -256
2019-08-10 15:58:59 GMT 51.166355 0.211563 3,850 332 184 -256
2019-08-10 15:58:56 GMT 51.163937 0.213623 3,875 337 189 -320
2019-08-10 15:58:53 GMT 51.160812 0.215644 3,875 340 192 -320
2019-08-10 15:58:50 GMT 51.159142 0.216446 3,900 345 196 -320
2019-08-10 15:58:47 GMT 51.156555 0.217574 3,925 349 198 -320
2019-08-10 15:58:44 GMT 51.153030 0.218539 3,950 354 201 -320
2019-08-10 15:58:41 GMT 51.150284 0.219058 3,950 354 201 -320
2019-08-10 15:58:38 GMT 51.147583 0.219578 4,025 354 201 -384
2019-08-10 15:58:35 GMT 51.144745 0.220098 3,975 353 200 -320
2019-08-10 15:58:30 GMT 51.141174 0.220766 4,000 354 201 -320
2019-08-10 15:58:27 GMT 51.138004 0.221405 4,025 353 201 -320
2019-08-10 15:58:23 GMT 51.132324 0.222473 4,050 353 200 -320
2019-08-10 15:58:20 GMT 51.132324 0.222473 4,075 353 200 -384
2019-08-10 15:58:17 GMT 51.126461 0.223694 4,100 354 198 -256
2019-08-10 15:58:11 GMT 51.122971 0.224304 4,100 354 198 -320
2019-08-10 15:58:08 GMT 51.120804 0.224774 4,125 354 199 -384
2019-08-10 15:58:05 GMT 51.117325 0.225368 4,150 49 241 -960
2019-08-10 15:58:02 GMT 51.114777 0.225754 4,175 356 199 -512
2019-08-10 15:57:59 GMT 51.112793 0.225962 4,175 358 201 -448
2019-08-10 15:57:56 GMT 51.109818 0.226185 4,200 4 206 -512
2019-08-10 15:57:52 GMT 51.104965 0.225962 4,250 8 210 -640
2019-08-10 15:57:49 GMT 51.102951 0.225517 4,275 12 214 -768
2019-08-10 15:57:46 GMT 51.094482 0.220692 4,475 27 226 -768
2019-08-10 15:57:42 GMT 51.094482 0.220692 4,375 29 227 -768
2019-08-10 15:57:39 GMT 51.093037 0.219345 4,375 31 228 -768
2019-08-10 15:57:36 GMT 51.090801 0.216904 4,425 39 234 -768
2019-08-10 15:57:33 GMT 51.088623 0.214159 4,475 48 240 -768
2019-08-10 15:57:30 GMT 51.085281 0.208889 4,525 48 240 -768
2019-08-10 15:57:26 GMT 51.083260 0.205231 4,550 49 240 -768
2019-08-10 15:57:23 GMT 51.080933 0.200958 4,600 49 241 -832
2019-08-10 15:57:20 GMT 51.078598 0.196566 4,650 49 241 -832
2019-08-10 15:57:17 GMT 51.076263 0.192261 4,700 49 241 -960
2019-08-10 15:57:14 GMT 51.074276 0.188522 4,750 49 241 -960
2019-08-10 15:57:10 GMT 51.068390 0.177711 4,825 49 241 -960
2019-08-10 15:57:07 GMT 51.068390 0.177711 4,875 48 248 -1024
2019-08-10 15:57:04 GMT 51.067154 0.175410 4,875 49 240 -1024
2019-08-10 15:57:01 GMT 51.064964 0.171356 4,925 49 241 -960
2019-08-10 15:56:58 GMT 51.062637 0.167084 5,050 49 241 -1024
2019-08-10 15:56:55 GMT 51.060516 0.163088 5,100 49 241 -1024
2019-08-10 15:56:51 GMT 51.057678 0.157891 5,150 49 242 -1024
2019-08-10 15:56:48 GMT 51.055374 0.153656 5,175 49 242 -1024
2019-08-10 15:56:45 GMT 51.052212 0.147934 5,200 49 242 -1024
2019-08-10 15:56:42 GMT 51.051132 0.145940 5,275 49 246 -1024
2019-08-10 15:56:39 GMT 51.048580 0.141296 5,850 47 259 -512
2019-08-10 15:56:35 GMT 51.045738 0.136108 5,375 49 244 -960
2019-08-10 15:56:32 GMT 51.041153 0.127679 5,450 49 246 -1024
2019-08-10 15:56:29 GMT 51.041153 0.127679 5,550 49 247 -960
2019-08-10 15:56:26 GMT 51.038498 0.122705 5,525 49 247 -960
2019-08-10 15:56:23 GMT 51.036709 0.119476 5,575 48 250 -768
2019-08-10 15:56:20 GMT 51.034615 0.115738 5,600 48 248 -896
2019-08-10 15:56:17 GMT 51.032043 0.111051 5,625 48 250 -832
2019-08-10 15:56:12 GMT 51.028152 0.103999 5,700 48 251 -640
2019-08-10 15:56:09 GMT 51.026367 0.100733 5,775 48 252 -576
2019-08-10 15:56:06 GMT 51.024399 0.097170 5,750 48 252 -576
2019-08-10 15:56:03 GMT 51.021252 0.091476 5,775 48 253 -576
2019-08-10 15:56:00 GMT 51.018906 0.087297 5,825 48 255 -576
2019-08-10 15:55:56 GMT 51.016273 0.082550 5,875 48 257 -576
2019-08-10 15:55:52 GMT 51.012268 0.075271 5,900 48 257 -512
2019-08-10 15:55:49 GMT 51.007507 0.066809 5,950 48 258 -448
2019-08-10 15:55:46 GMT 51.007507 0.066809 5,950 47 258 -512
2019-08-10 15:55:43 GMT 51.005798 0.063858 5,975 47 259 -512
2019-08-10 15:55:40 GMT 51.002701 0.058421 6,000 46 259 -512
2019-08-10 15:55:37 GMT 51.000210 0.054321 6,025 41 261 -384
2019-08-10 15:55:34 GMT 50.998444 0.051369 6,050 42 261 -384
2019-08-10 15:55:31 GMT 50.995090 0.046310 6,050 42 261 -384
2019-08-10 15:55:28 GMT 50.992481 0.043030 6,100 32 261 -512
2019-08-10 15:55:25 GMT 50.988853 0.039063 6,125 30 261 -512
2019-08-10 15:55:21 GMT 50.984756 0.035706 6,150 21 259 -512
2019-08-10 15:55:17 GMT 50.980682 0.033256 6,200 10 255 -576
2019-08-10 15:55:14 GMT 50.975075 0.031357 6,200 10 255 -576
2019-08-10 15:55:11 GMT 50.975075 0.031357 6,225 6 253 -576
2019-08-10 15:55:07 GMT 50.967159 0.031052 6,275 329 230 -704
2019-08-10 15:55:04 GMT 50.967159 0.031052 6,300 352 243 -704
2019-08-10 15:55:01 GMT 50.962280 0.032439 6,375 344 239 -896
2019-08-10 15:54:58 GMT 50.959293 0.033875 6,375 339 236 -896
2019-08-10 15:54:55 GMT 50.956871 0.035324 6,425 334 232 -768
2019-08-10 15:54:51 GMT 50.952164 0.039640 6,500 312 220 -640
2019-08-10 15:54:48 GMT 50.951099 0.040894 6,475 316 222 -640
2019-08-10 15:54:45 GMT 50.947372 0.046387 6,550 303 216 -704
2019-08-10 15:54:42 GMT 50.945930 0.049286 6,550 303 216 -704
2019-08-10 15:54:38 GMT 50.943882 0.054398 6,575 299 214 -832
2019-08-10 15:54:34 GMT 50.942299 0.060272 6,725 286 208 -1344
2019-08-10 15:54:30 GMT 50.941177 0.067403 6,775 282 206 -1152
2019-08-10 15:54:27 GMT 50.940903 0.069407 6,825 282 205 -1152
2019-08-10 15:54:24 GMT 50.940392 0.073547 6,925 281 205 0
2019-08-10 15:54:20 GMT 50.939648 0.079803 6,925 281 205 -1088
2019-08-10 15:54:17 GMT 50.938995 0.085220 7,075 281 205 -896
2019-08-10 15:54:14 GMT 50.938251 0.091400 7,050 281 205 -896
2019-08-10 15:54:11 GMT 50.937515 0.097467 7,600 281 204 -1344
2019-08-10 15:54:05 GMT 50.936947 0.102539 7,250 281 205 -1024
2019-08-10 15:54:02 GMT 50.936436 0.106659 7,250 281 205 -1024
2019-08-10 15:53:59 GMT 50.936062 0.110016 7,275 281 205 -1088
2019-08-10 15:53:55 GMT 50.935223 0.117035 7,375 281 205 -1472
2019-08-10 15:53:52 GMT 50.934723 0.121443 7,450 281 204 -1536
2019-08-10 15:53:49 GMT 50.934219 0.125823 7,475 281 204 -1472
2019-08-10 15:53:45 GMT 50.933487 0.132652 7,625 281 206 -576
2019-08-10 15:53:41 GMT 50.932800 0.138665 7,700 281 205 -1152
2019-08-10 15:53:35 GMT 50.931919 0.146561 7,825 281 205 -1024
2019-08-10 15:53:32 GMT 50.931454 0.150604 7,875 281 205 -832
2019-08-10 15:53:29 GMT 50.930710 0.157242 7,925 281 206 -640
2019-08-10 15:53:26 GMT 50.930477 0.159454 7,950 281 206 -576
2019-08-10 15:53:23 GMT 50.929962 0.163879 8,000 281 207 -128
2019-08-10 15:53:20 GMT 50.929405 0.168610 8,000 281 207 -64
2019-08-10 15:53:17 GMT 50.928894 0.173416 8,000 281 207 0
2019-08-10 15:53:13 GMT 50.928268 0.178825 8,000 281 207 0
2019-08-10 15:53:10 GMT 50.927685 0.183945 8,000 281 207 0
2019-08-10 15:53:07 GMT 50.926483 0.194488 8,000 280 209 0
2019-08-10 15:53:02 GMT 50.926483 0.194488 8,000 268 205 0
2019-08-10 15:52:58 GMT 50.924984 0.207901 8,000 281 208 0
2019-08-10 15:52:54 GMT 50.924984 0.207901 8,000 280 209 0
2019-08-10 15:52:49 GMT 50.924103 0.215570 8,000 280 208 0
2019-08-10 15:52:44 GMT 50.923401 0.222321 8,000 279 208 0
2019-08-10 15:52:40 GMT 50.922775 0.228783 8,000 274 206 128
2019-08-10 15:52:37 GMT 50.922421 0.233917 8,000 274 206 128
2019-08-10 15:52:34 GMT 50.922237 0.238113 8,000 270 205 64
2019-08-10 15:52:28 GMT 50.922470 0.247040 8,000 260 204 -64
2019-08-10 15:52:25 GMT 50.922794 0.250168 8,000 256 203 64
2019-08-10 15:52:22 GMT 50.924377 0.260703 8,000 256 204 0
2019-08-10 15:52:18 GMT 50.924377 0.260703 8,000 256 204 0
2019-08-10 15:52:15 GMT 50.925156 0.265305 8,000 256 204 0
2019-08-10 15:52:12 GMT 50.926704 0.274887 8,000 256 204 0
2019-08-10 15:52:09 GMT 50.926704 0.274887 8,000 256 203 64
2019-08-10 15:52:06 GMT 50.927307 0.278592 8,000 256 203 0
2019-08-10 15:52:03 GMT 50.928040 0.283195 8,000 256 203 0
2019-08-10 15:52:00 GMT 50.928844 0.288086 8,000 256 203 0
2019-08-10 15:51:56 GMT 50.930523 0.298615 8,000 256 204 0
2019-08-10 15:51:53 GMT 50.930523 0.298615 8,000 256 204 0
2019-08-10 15:51:50 GMT 50.930897 0.301056 8,000 256 204 0
2019-08-10 15:51:47 GMT 50.931747 0.306281 8,000 257 204 0
2019-08-10 15:51:44 GMT 50.932289 0.309677 8,000 256 204 0
2019-08-10 15:51:41 GMT 50.933258 0.315560 8,000 256 204 0
2019-08-10 15:51:38 GMT 50.933689 0.318375 8,000 257 204 0
2019-08-10 15:51:34 GMT 50.934666 0.324554 8,000 257 203 0
2019-08-10 15:51:31 GMT 50.935596 0.330429 8,000 257 204 0
2019-08-10 15:51:28 GMT 50.936325 0.335380 8,000 257 204 0
2019-08-10 15:51:24 GMT 50.936874 0.338795 8,000 257 204 0
2019-08-10 15:51:21 GMT 50.937607 0.343471 8,000 257 204 0
2019-08-10 15:51:18 GMT 50.938251 0.347443 8,000 257 204 0
2019-08-10 15:51:15 GMT 50.938889 0.351785 8,000 257 204 0
2019-08-10 15:51:12 GMT 50.939667 0.356833 8,000 257 204 -64
2019-08-10 15:51:09 GMT 50.940437 0.361710 8,000 257 204 -64
2019-08-10 15:51:05 GMT 50.941315 0.367300 8,000 257 204 -128
2019-08-10 15:51:02 GMT 50.941772 0.370417 8,025 256 205 -256
2019-08-10 15:50:59 GMT 50.942719 0.376282 8,025 256 204 -256
2019-08-10 15:50:56 GMT 50.943604 0.381546 8,025 254 201 -64
2019-08-10 15:50:53 GMT 50.943878 0.383111 8,050 254 202 -128
2019-08-10 15:50:50 GMT 50.944839 0.388233 8,050 246 198 -192
2019-08-10 15:50:46 GMT 50.946762 0.395953 8,050 246 198 -192
2019-08-10 15:50:43 GMT 50.947220 0.397364 9,000 128 263 0
2019-08-10 15:50:39 GMT 50.952164 0.406791 8,125 222 204 -1024
2019-08-10 15:50:36 GMT 50.952164 0.406791 8,225 214 207 -1216
2019-08-10 15:50:32 GMT 50.954449 0.409470 8,225 207 211 -1472
2019-08-10 15:50:28 GMT 50.958755 0.412804 8,350 193 216 -1792
2019-08-10 15:50:24 GMT 50.962036 0.414276 8,425 186 221 -1856
2019-08-10 15:50:21 GMT 50.964340 0.414882 8,500 176 225 -1728
2019-08-10 15:50:17 GMT 50.973999 0.414066 8,775 127 264 -64
2019-08-10 15:50:14 GMT 50.973999 0.414066 8,750 166 231 -1216
2019-08-10 15:50:11 GMT 50.974960 0.413769 8,875 159 237 -832
2019-08-10 15:50:07 GMT 50.979172 0.411616 8,850 147 247 -768
2019-08-10 15:50:04 GMT 50.981918 0.409463 8,850 153 242 -832
2019-08-10 15:50:01 GMT 50.987877 0.403290 9,000 139 253 -512
2019-08-10 15:49:58 GMT 50.990437 0.399551 9,000 133 258 -192
2019-08-10 15:49:55 GMT 50.990437 0.399551 9,000 128 262 0
2019-08-10 15:49:52 GMT 50.993927 0.393600 9,000 129 262 -64
2019-08-10 15:49:48 GMT 50.996906 0.387421 9,000 127 264 0
2019-08-10 15:49:45 GMT 50.998169 0.384818 9,000 127 263 64
2019-08-10 15:49:42 GMT 51.000549 0.379845 9,000 127 264 -64
2019-08-10 15:49:39 GMT 51.003052 0.374603 9,000 127 264 0
2019-08-10 15:49:36 GMT 51.005100 0.370331 9,000 127 263 64
2019-08-10 15:49:33 GMT 51.006683 0.367050 9,000 127 264 64
2019-08-10 15:49:30 GMT 51.010220 0.359955 9,000 128 264 0
2019-08-10 15:49:27 GMT 51.011848 0.356674 9,000 128 264 0
2019-08-10 15:49:24 GMT 51.014603 0.351117 9,000 127 266 64
2019-08-10 15:49:17 GMT 51.019901 0.340424 9,000 127 266 64
2019-08-10 15:49:14 GMT 51.021530 0.337143 9,000 116 277 64
2019-08-10 15:49:11 GMT 51.023712 0.332336 9,000 119 274 0
2019-08-10 15:49:08 GMT 51.025627 0.327225 9,000 116 277 64
2019-08-10 15:49:05 GMT 51.027210 0.322189 9,000 113 279 64
2019-08-10 15:49:02 GMT 51.029068 0.314447 9,025 87 291 -192
2019-08-10 15:48:59 GMT 51.029819 0.310516 9,000 99 287 -64
2019-08-10 15:48:56 GMT 51.030807 0.301753 9,000 87 291 -192
2019-08-10 15:48:53 GMT 51.031082 0.295517 10,175 75 291 -128
2019-08-10 15:48:50 GMT 51.031082 0.289950 9,025 84 291 -192
2019-08-10 15:48:46 GMT 51.030376 0.279999 9,025 70 290 -192
2019-08-10 15:48:43 GMT 51.028564 0.268942 9,050 72 290 -192
2019-08-10 15:48:40 GMT 51.028564 0.268942 9,050 67 289 -320
2019-08-10 15:48:36 GMT 51.026234 0.260696 9,075 61 289 -512
2019-08-10 15:48:33 GMT 51.024418 0.255508 9,075 54 288 -896
2019-08-10 15:48:30 GMT 51.022385 0.251127 9,525 52 288 -960
2019-08-10 15:48:27 GMT 51.019638 0.246005 9,275 36 283 -1536
2019-08-10 15:48:24 GMT 51.017204 0.242233 9,200 42 285 -1344
2019-08-10 15:48:21 GMT 51.013432 0.237732 9,375 27 278 -1472
2019-08-10 15:48:18 GMT 51.005264 0.230861 9,425 27 278 -1472
2019-08-10 15:48:15 GMT 51.005264 0.230861 9,575 0 257 -1472
2019-08-10 15:48:12 GMT 51.002911 0.229492 9,550 15 270 -1344
2019-08-10 15:48:09 GMT 51.000320 0.228337 9,650 7 264 -1408
2019-08-10 15:48:06 GMT 50.994370 0.226704 9,700 4 261 -1472
2019-08-10 15:48:02 GMT 50.988060 0.226593 9,775 348 246 -1216
2019-08-10 15:47:59 GMT 50.988060 0.226593 9,875 354 251 -1408
2019-08-10 15:47:56 GMT 50.984337 0.227203 9,875 352 250 -1344
2019-08-10 15:47:53 GMT 50.981873 0.227818 9,925 348 246 -1216
2019-08-10 15:47:50 GMT 50.978378 0.229263 10,025 344 244 -1216
2019-08-10 15:47:47 GMT 50.974701 0.231171 10,075 337 240 -1216
2019-08-10 15:47:44 GMT 50.971619 0.233163 10,150 333 236 -1152
2019-08-10 15:47:40 GMT 50.968048 0.235909 10,225 332 236 -1088
2019-08-10 15:47:37 GMT 50.965202 0.238419 10,250 329 234 -1088
2019-08-10 15:47:34 GMT 50.960815 0.242887 10,325 325 233 -832
2019-08-10 15:47:31 GMT 50.956467 0.247860 10,375 324 233 -768
2019-08-10 15:47:28 GMT 50.956467 0.247860 10,425 322 232 -896
2019-08-10 15:47:22 GMT 50.952168 0.253220 10,475 320 233 -1344
2019-08-10 15:47:19 GMT 50.948822 0.257659 10,575 320 233 -1024
2019-08-10 15:47:16 GMT 50.947083 0.260035 11,175 320 232 -1472
2019-08-10 15:47:13 GMT 50.943741 0.264488 10,675 320 234 -1344
2019-08-10 15:47:10 GMT 50.941132 0.267977 10,700 320 234 -1216
2019-08-10 15:47:07 GMT 50.939693 0.269928 10,750 320 234 -1344
2019-08-10 15:47:04 GMT 50.936760 0.273895 10,800 320 233 -1344
2019-08-10 15:47:01 GMT 50.933735 0.277939 11,075 320 233 -1472
2019-08-10 15:46:55 GMT 50.929546 0.283585 11,050 320 233 -1472
2019-08-10 15:46:52 GMT 50.927078 0.286906 11,175 320 233 -1472
2019-08-10 15:46:48 GMT 50.923214 0.292053 11,450 320 232 -1408
2019-08-10 15:46:45 GMT 50.918327 0.298615 11,300 320 232 -1344
2019-08-10 15:46:42 GMT 50.918327 0.298615 11,350 321 232 -1216
2019-08-10 15:46:36 GMT 50.913895 0.304425 11,475 321 233 -896
2019-08-10 15:46:33 GMT 50.911606 0.307469 11,525 321 235 -704
2019-08-10 15:46:30 GMT 50.909294 0.310516 11,575 320 236 -704
2019-08-10 15:46:27 GMT 50.903427 0.318298 11,700 320 238 -576
2019-08-10 15:46:21 GMT 50.901443 0.320905 11,675 320 239 -576
2019-08-10 15:46:18 GMT 50.896168 0.327911 11,975 320 240 -832
2019-08-10 15:46:15 GMT 50.896168 0.327911 11,700 320 241 -960
2019-08-10 15:46:12 GMT 50.894211 0.330582 11,725 320 241 -1024
2019-08-10 15:46:09 GMT 50.891281 0.334563 11,900 320 243 -1088
2019-08-10 15:46:05 GMT 50.888020 0.338974 11,875 320 243 -1152
2019-08-10 15:46:02 GMT 50.884918 0.343174 11,900 320 243 -1280
2019-08-10 15:45:59 GMT 50.883087 0.345624 12,100 320 243 -1536
2019-08-10 15:45:56 GMT 50.879654 0.350226 12,400 320 242 -1472
2019-08-10 15:45:53 GMT 50.878006 0.352453 12,150 320 243 -1536
2019-08-10 15:45:50 GMT 50.874390 0.357278 12,175 320 242 -1472
2019-08-10 15:45:47 GMT 50.872334 0.360031 12,225 320 243 -1280
2019-08-10 15:45:44 GMT 50.868515 0.365219 12,350 320 242 -1344
2019-08-10 15:45:41 GMT 50.866653 0.367671 12,425 320 243 -1344
2019-08-10 15:45:37 GMT 50.864140 0.371094 12,550 320 243 -1344
2019-08-10 15:45:33 GMT 50.859764 0.376892 12,600 320 243 -1280
2019-08-10 15:45:30 GMT 50.855347 0.382814 12,675 320 243 -1280
2019-08-10 15:45:27 GMT 50.855347 0.382814 12,725 320 243 -1280
2019-08-10 15:45:24 GMT 50.852600 0.386452 12,875 320 243 -1408
2019-08-10 15:45:21 GMT 50.849289 0.390854 12,850 320 243 -1472
2019-08-10 15:45:18 GMT 50.846867 0.394058 12,925 320 243 -1600
2019-08-10 15:45:15 GMT 50.844868 0.396729 12,925 320 243 -1600
2019-08-10 15:45:12 GMT 50.842300 0.400184 13,575 320 244 -960
2019-08-10 15:45:09 GMT 50.838116 0.405807 13,175 320 241 -1344
2019-08-10 15:45:05 GMT 50.836441 0.407979 13,225 320 241 -1344
2019-08-10 15:45:02 GMT 50.833740 0.411616 13,775 320 248 -1280
2019-08-10 15:44:59 GMT 50.830261 0.416219 13,375 320 242 -1280
2019-08-10 15:44:56 GMT 50.825409 0.422751 13,425 320 244 -1024
2019-08-10 15:44:50 GMT 50.822941 0.425949 13,550 320 244 -960
2019-08-10 15:44:44 GMT 50.818680 0.431659 13,600 320 245 -960
2019-08-10 15:44:40 GMT 50.815353 0.436096 13,675 320 246 -1088
2019-08-10 15:44:37 GMT 50.811443 0.441284 13,825 320 246 -1280
2019-08-10 15:44:34 GMT 50.808472 0.445243 13,800 320 248 -1344
2019-08-10 15:44:31 GMT 50.807144 0.446951 13,850 320 248 -1344
2019-08-10 15:44:26 GMT 50.802841 0.452666 13,950 320 248 -1280
2019-08-10 15:44:23 GMT 50.799850 0.456696 14,025 320 248 -1216
2019-08-10 15:44:20 GMT 50.793091 0.465657 14,150 320 249 -1216
2019-08-10 15:44:16 GMT 50.793091 0.465657 14,200 320 249 -1216
2019-08-10 15:44:13 GMT 50.791260 0.468107 14,225 320 248 -1344
2019-08-10 15:44:10 GMT 50.788631 0.471649 14,325 320 248 -1408
2019-08-10 15:44:06 GMT 50.783649 0.478287 14,400 320 248 -1472
2019-08-10 15:44:03 GMT 50.782654 0.479687 14,425 320 247 -1408
2019-08-10 15:43:59 GMT 50.777458 0.486603 14,625 320 247 -1152
2019-08-10 15:43:56 GMT 50.775455 0.489349 14,625 320 247 -1024
2019-08-10 15:43:53 GMT 50.773224 0.492306 14,700 320 252 -1024
2019-08-10 15:43:49 GMT 50.770195 0.496368 14,775 320 268 -512
2019-08-10 15:43:43 GMT 50.763565 0.505297 14,825 320 251 -960
2019-08-10 15:43:40 GMT 50.762741 0.506336 14,850 320 250 -960
2019-08-10 15:43:34 GMT 50.757477 0.513462 14,925 320 251 -1088
2019-08-10 15:43:30 GMT 50.753345 0.519028 15,000 320 251 -1152
2019-08-10 15:43:27 GMT 50.751801 0.521108 15,125 320 251 -1088
2019-08-10 15:43:24 GMT 50.748459 0.525589 15,100 320 251 -1088
2019-08-10 15:43:20 GMT 50.745392 0.529719 15,200 320 252 -960
2019-08-10 15:43:17 GMT 50.741409 0.535064 15,250 320 253 -896
2019-08-10 15:43:14 GMT 50.738354 0.539093 15,300 320 254 -832
2019-08-10 15:43:10 GMT 50.735275 0.543155 15,325 320 256 -640
2019-08-10 15:43:07 GMT 50.733536 0.545456 15,350 320 256 -640
2019-08-10 15:43:04 GMT 50.729279 0.551147 15,400 320 259 -448
2019-08-10 15:43:01 GMT 50.725739 0.555801 15,550 320 264 -448
2019-08-10 15:42:58 GMT 50.724575 0.557404 15,425 320 261 -448
2019-08-10 15:42:52 GMT 50.719620 0.563940 15,475 320 266 -512
2019-08-10 15:42:49 GMT 50.716232 0.568542 15,525 320 268 -512
2019-08-10 15:42:46 GMT 50.714218 0.571141 15,500 320 268 -512
2019-08-10 15:42:43 GMT 50.709778 0.577079 15,625 320 278 -576
2019-08-10 15:42:40 GMT 50.707901 0.579603 15,575 320 274 -576
2019-08-10 15:42:33 GMT 50.701721 0.587769 15,650 320 276 -576
2019-08-10 15:42:30 GMT 50.695435 0.596008 15,675 321 278 -640
2019-08-10 15:42:27 GMT 50.695435 0.596008 15,700 321 281 -576
2019-08-10 15:42:24 GMT 50.691376 0.601427 15,700 321 281 -576
2019-08-10 15:42:20 GMT 50.688450 0.605316 15,875 321 285 -704
2019-08-10 15:42:16 GMT 50.684555 0.610409 15,800 321 287 -704
2019-08-10 15:42:13 GMT 50.680630 0.615540 15,825 321 288 -768
2019-08-10 15:42:10 GMT 50.677139 0.620208 15,900 321 290 -704
2019-08-10 15:42:07 GMT 50.675369 0.622482 15,900 321 293 -704
2019-08-10 15:42:04 GMT 50.670959 0.628317 15,950 321 293 -704
2019-08-10 15:42:01 GMT 50.668076 0.632075 15,975 321 296 -704
2019-08-10 15:41:58 GMT 50.664047 0.637352 16,000 321 296 -704
2019-08-10 15:41:54 GMT 50.660610 0.641809 16,100 321 300 -704
2019-08-10 15:41:51 GMT 50.658325 0.644796 16,300 321 306 -768
2019-08-10 15:41:48 GMT 50.655350 0.648699 16,100 321 303 -704
2019-08-10 15:41:45 GMT 50.650543 0.655060 16,125 321 304 -768
2019-08-10 15:41:41 GMT 50.646469 0.660408 16,175 321 307 -768
2019-08-10 15:41:37 GMT 50.642166 0.665974 16,250 321 310 -768
2019-08-10 15:41:34 GMT 50.638733 0.670537 16,275 321 311 -768
2019-08-10 15:41:31 GMT 50.636993 0.672768 16,300 321 313 -768
2019-08-10 15:41:28 GMT 50.633194 0.677812 16,325 321 315 -768
2019-08-10 15:41:25 GMT 50.629349 0.682815 16,375 321 319 -832
2019-08-10 15:41:22 GMT 50.625977 0.687239 16,450 321 320 -832
2019-08-10 15:41:19 GMT 50.622860 0.691322 16,450 321 321 -832
2019-08-10 15:41:16 GMT 50.618958 0.696475 16,500 321 324 -832
2019-08-10 15:41:13 GMT 50.616714 0.699367 16,550 321 325 -896
2019-08-10 15:41:09 GMT 50.610847 0.707134 16,600 321 330 -832
2019-08-10 15:41:06 GMT 50.607124 0.711959 16,675 321 341 -768
2019-08-10 15:41:03 GMT 50.604584 0.715268 16,675 321 331 -832
2019-08-10 15:40:59 GMT 50.600327 0.720833 16,725 321 334 -768
2019-08-10 15:40:56 GMT 50.596024 0.726543 16,750 321 337 -768
2019-08-10 15:40:53 GMT 50.591389 0.732521 16,875 321 339 -768
2019-08-10 15:40:46 GMT 50.583435 0.743023 16,900 321 344 -896
2019-08-10 15:40:43 GMT 50.579498 0.748154 16,925 321 345 -1024
2019-08-10 15:40:39 GMT 50.574490 0.754716 17,575 321 347 -1664
2019-08-10 15:40:35 GMT 50.570297 0.760225 17,100 321 347 -1664
2019-08-10 15:40:31 GMT 50.566113 0.765703 17,325 321 349 -1728
2019-08-10 15:40:27 GMT 50.560822 0.772657 17,375 321 349 -1728
2019-08-10 15:40:22 GMT 50.554752 0.780623 17,700 321 350 -1792
2019-08-10 15:40:19 GMT 50.551025 0.785522 17,950 321 353 -1792
2019-08-10 15:40:16 GMT 50.547585 0.790051 17,675 321 351 -1792
2019-08-10 15:40:13 GMT 50.538784 0.801482 17,850 321 352 -1792
2019-08-10 15:40:10 GMT 50.538784 0.801482 17,850 321 352 -1792
2019-08-10 15:40:07 GMT 50.535622 0.805714 17,975 321 352 -1792
2019-08-10 15:40:03 GMT 50.529755 0.813359 18,050 321 353 -1792
2019-08-10 15:40:00 GMT 50.522507 0.822818 18,200 321 354 -1792
2019-08-10 15:39:57 GMT 50.518982 0.827444 18,425 321 355 -1792
2019-08-10 15:39:54 GMT 50.518982 0.827444 18,350 321 355 -1792
2019-08-10 15:39:51 GMT 50.512390 0.836074 18,425 321 355 -1792
2019-08-10 15:39:47 GMT 50.510925 0.837997 18,525 321 356 -1792
2019-08-10 15:39:44 GMT 50.506618 0.843572 18,575 321 356 -1792
2019-08-10 15:39:41 GMT 50.500122 0.852091 18,700 321 357 -1792
2019-08-10 15:39:35 GMT 50.494171 0.859825 19,400 321 360 -1792
2019-08-10 15:39:28 GMT 50.487110 0.869033 19,250 321 360 -1792
2019-08-10 15:39:25 GMT 50.481949 0.875798 19,125 321 360 -1792
2019-08-10 15:39:21 GMT 50.477875 0.881147 19,425 321 361 -1728
2019-08-10 15:39:17 GMT 50.471703 0.889224 19,425 321 361 -1728
2019-08-10 15:39:13 GMT 50.466385 0.896109 19,475 321 362 -1728
2019-08-10 15:39:10 GMT 50.464767 0.898281 19,675 321 364 -960
2019-08-10 15:39:07 GMT 50.459793 0.904710 19,625 321 362 -1728
2019-08-10 15:39:03 GMT 50.453735 0.912533 19,775 321 363 -1408
2019-08-10 15:39:00 GMT 50.449860 0.917648 19,950 321 363 -1728
2019-08-10 15:38:57 GMT 50.446007 0.922629 19,950 321 363 -1408
2019-08-10 15:38:54 GMT 50.442238 0.927528 20,075 321 363 -832
2019-08-10 15:38:51 GMT 50.438278 0.932650 20,075 321 363 -832
2019-08-10 15:38:48 GMT 50.435253 0.936584 20,125 321 363 -960
2019-08-10 15:38:45 GMT 50.432228 0.940519 20,125 321 363 -896
2019-08-10 15:38:42 GMT 50.426147 0.948438 20,200 321 364 -1024
2019-08-10 15:38:36 GMT 50.418961 0.957690 20,325 321 363 -1024
2019-08-10 15:38:33 GMT 50.414536 0.963531 20,350 321 363 -1024
2019-08-10 15:38:30 GMT 50.412025 0.966723 20,425 321 363 -1024
2019-08-10 15:38:27 GMT 50.407059 0.973157 20,500 321 364 -1024
2019-08-10 15:38:24 GMT 50.404037 0.977133 20,475 321 363 -1024
2019-08-10 15:38:20 GMT 50.399128 0.983573 20,600 321 364 -1024
2019-08-10 15:38:17 GMT 50.391354 0.993595 20,650 321 364 -1024
2019-08-10 15:38:14 GMT 50.391354 0.993595 20,650 321 364 -1024
2019-08-10 15:38:10 GMT 50.382557 1.005026 20,750 321 364 -1024
2019-08-10 15:38:04 GMT 50.377853 1.011188 20,900 321 364 -1024
2019-08-10 15:37:58 GMT 50.371262 1.019777 20,900 321 364 -1024
2019-08-10 15:37:55 GMT 50.358955 1.035758 21,075 321 364 -1024
2019-08-10 15:37:51 GMT 50.358955 1.035758 21,050 321 364 -1024
2019-08-10 15:37:48 GMT 50.356934 1.038425 21,100 321 364 -1088
2019-08-10 15:37:43 GMT 50.351669 1.045219 21,150 321 364 -1088
2019-08-10 15:37:40 GMT 50.346199 1.052386 21,250 321 364 -1024
2019-08-10 15:37:33 GMT 50.338425 1.062408 21,325 321 364 -1024
2019-08-10 15:37:30 GMT 50.335445 1.066342 21,400 321 364 -1024
2019-08-10 15:37:27 GMT 50.324387 1.080708 21,650 321 364 -1024
2019-08-10 15:37:23 GMT 50.324387 1.080708 21,525 321 364 -1024
2019-08-10 15:37:20 GMT 50.319717 1.086779 21,600 321 364 -960
2019-08-10 15:37:17 GMT 50.317474 1.089598 21,575 321 365 -960
2019-08-10 15:37:13 GMT 50.312485 1.096103 21,725 321 365 -960
2019-08-10 15:37:10 GMT 50.304703 1.106150 21,700 321 365 -1024
2019-08-10 15:37:07 GMT 50.304703 1.106150 21,725 321 366 -1024
2019-08-10 15:37:04 GMT 50.299438 1.112944 21,875 321 369 0
2019-08-10 15:37:01 GMT 50.295597 1.118007 21,875 321 367 -896
2019-08-10 15:36:58 GMT 50.293076 1.121184 21,925 321 367 -576
2019-08-10 15:36:55 GMT 50.288864 1.126605 21,975 321 367 -512
2019-08-10 15:36:51 GMT 50.282421 1.134932 21,975 321 367 -448
2019-08-10 15:36:48 GMT 50.279350 1.138941 22,000 321 367 0
2019-08-10 15:36:45 GMT 50.275726 1.143590 22,000 321 367 0
2019-08-10 15:36:42 GMT 50.270969 1.149704 22,000 321 369 0
2019-08-10 15:36:39 GMT 50.266479 1.155516 22,000 321 369 0
2019-08-10 15:36:36 GMT 50.262871 1.160171 22,000 321 369 0
2019-08-10 15:36:30 GMT 50.255035 1.170189 22,000 321 371 0
2019-08-10 15:36:26 GMT 50.250137 1.176549 22,000 321 370 0
2019-08-10 15:36:18 GMT 50.238876 1.191077 22,000 321 370 0
2019-08-10 15:36:15 GMT 50.236359 1.194330 22,000 321 370 0
2019-08-10 15:36:12 GMT 50.225349 1.208422 22,000 321 370 0
2019-08-10 15:36:07 GMT 50.225349 1.208422 22,000 321 370 0
2019-08-10 15:36:04 GMT 50.221718 1.213098 22,000 321 370 0
2019-08-10 15:36:01 GMT 50.212547 1.224901 22,000 321 371 0
2019-08-10 15:35:58 GMT 50.212547 1.224901 22,000 321 371 0
2019-08-10 15:35:55 GMT 50.208206 1.230469 22,000 321 370 0
2019-08-10 15:35:52 GMT 50.206493 1.232696 22,000 321 370 0
2019-08-10 15:35:49 GMT 50.201702 1.238857 22,000 321 371 0
2019-08-10 15:35:46 GMT 50.196953 1.244944 22,000 321 370 0
2019-08-10 15:35:43 GMT 50.194107 1.248611 22,000 321 370 0
2019-08-10 15:35:36 GMT 50.184803 1.260607 22,000 321 371 0
2019-08-10 15:35:33 GMT 50.179733 1.267114 22,000 321 370 0
2019-08-10 15:35:28 GMT 50.169067 1.280872 22,000 321 370 0
2019-08-10 15:35:24 GMT 50.169067 1.280872 22,000 321 370 -64
2019-08-10 15:35:21 GMT 50.165668 1.285252 22,000 321 370 0
2019-08-10 15:35:18 GMT 50.161697 1.290315 22,000 321 370 0
2019-08-10 15:35:14 GMT 50.155518 1.298266 22,000 321 370 0
2019-08-10 15:35:11 GMT 50.151516 1.303365 22,000 321 371 0
2019-08-10 15:35:08 GMT 50.147839 1.308115 22,000 321 371 0
2019-08-10 15:35:05 GMT 50.143890 1.313083 22,000 321 371 0
2019-08-10 15:35:01 GMT 50.137135 1.321774 22,000 321 371 -64
2019-08-10 15:34:54 GMT 50.127544 1.334022 22,000 321 371 0
2019-08-10 15:34:51 GMT 50.121002 1.342428 22,000 321 371 0
2019-08-10 15:34:45 GMT 50.116013 1.348789 22,000 321 371 0
2019-08-10 15:34:42 GMT 50.113342 1.352135 22,000 321 371 0
2019-08-10 15:34:38 GMT 50.108871 1.357896 22,000 321 371 0
2019-08-10 15:34:35 GMT 50.103195 1.365200 22,000 321 370 -64
2019-08-10 15:34:31 GMT 50.099213 1.370255 22,000 321 370 -64
2019-08-10 15:34:27 GMT 50.093262 1.377772 22,000 321 370 0
2019-08-10 15:34:24 GMT 50.088776 1.383555 22,000 321 370 -64
2019-08-10 15:34:21 GMT 50.084793 1.388614 22,000 321 371 0
2019-08-10 15:34:17 GMT 50.078850 1.396154 22,000 321 371 0
2019-08-10 15:34:13 GMT 50.073868 1.402538 22,000 321 371 0
2019-08-10 15:34:10 GMT 50.071518 1.405527 22,000 321 371 0
2019-08-10 15:34:06 GMT 50.060741 1.419241 22,000 321 372 0
2019-08-10 15:34:03 GMT 50.060741 1.419241 22,000 321 371 0
2019-08-10 15:33:59 GMT 50.056458 1.424660 22,000 321 372 0
2019-08-10 15:33:55 GMT 50.051105 1.431563 22,000 321 372 0
2019-08-10 15:33:52 GMT 50.046524 1.437330 22,000 321 371 0
2019-08-10 15:33:44 GMT 50.035492 1.451424 22,000 321 371 0
2019-08-10 15:33:41 GMT 50.031551 1.456505 22,000 321 370 0
2019-08-10 15:33:38 GMT 50.028435 1.460439 22,000 321 371 0
2019-08-10 15:33:35 GMT 50.018845 1.472762 22,000 321 371 0
2019-08-10 15:33:31 GMT 50.018845 1.472762 22,000 321 370 -64
2019-08-10 15:33:23 GMT 50.008942 1.485395 22,000 321 373 0
2019-08-10 15:33:20 GMT 50.004135 1.491539 22,000 321 371 0
2019-08-10 15:33:17 GMT 50.000732 1.495848 22,000 321 370 0
2019-08-10 15:33:13 GMT 49.993744 1.504766 22,000 321 370 0
2019-08-10 15:33:10 GMT 49.988754 1.511126 22,000 321 370 0
2019-08-10 15:33:05 GMT 49.985001 1.515891 22,000 321 372 0
2019-08-10 15:33:01 GMT 49.978775 1.523847 22,000 321 371 0
2019-08-10 15:32:54 GMT 49.970535 1.534327 22,000 321 372 0
2019-08-10 15:32:51 GMT 49.965446 1.540833 22,000 321 372 0
2019-08-10 15:32:47 GMT 49.959183 1.548711 22,000 321 371 0
2019-08-10 15:32:42 GMT 49.953232 1.556300 22,000 321 372 0
2019-08-10 15:32:38 GMT 49.948967 1.561692 22,000 321 371 0
2019-08-10 15:32:33 GMT 49.942154 1.570322 22,000 321 371 0
2019-08-10 15:32:28 GMT 49.935932 1.578245 22,000 321 371 0
2019-08-10 15:32:23 GMT 49.922882 1.594680 22,000 321 371 0
2019-08-10 15:32:18 GMT 49.922882 1.594680 22,000 321 370 -64
2019-08-10 15:32:15 GMT 49.911255 1.609353 22,000 321 370 0
2019-08-10 15:32:11 GMT 49.911255 1.609353 22,000 321 368 0
2019-08-10 15:32:08 GMT 49.905907 1.616104 22,000 321 370 0
2019-08-10 15:32:05 GMT 49.905907 1.616104 22,000 321 370 -64
2019-08-10 15:31:59 GMT 49.897713 1.626422 22,000 321 368 0
2019-08-10 15:31:56 GMT 49.892349 1.633204 22,000 321 368 0
2019-08-10 15:31:52 GMT 49.888138 1.638553 22,000 321 368 0
2019-08-10 15:31:49 GMT 49.883564 1.644238 22,000 321 368 0
2019-08-10 15:31:45 GMT 49.877651 1.651735 22,000 321 368 0
2019-08-10 15:31:40 GMT 49.872017 1.658861 22,000 321 368 0
2019-08-10 15:31:37 GMT 49.864426 1.668404 22,000 321 366 0
2019-08-10 15:31:34 GMT 49.864426 1.668404 22,000 321 368 0
2019-08-10 15:31:28 GMT 49.852661 1.683293 22,000 321 368 0
2019-08-10 15:31:22 GMT 49.847626 1.689668 22,000 329 374 0
2019-08-10 15:31:17 GMT 49.840576 1.698616 22,000 324 369 -64
2019-08-10 15:31:14 GMT 49.835312 1.705338 22,000 321 367 0
2019-08-10 15:31:09 GMT 49.831696 1.709892 22,000 321 366 0
2019-08-10 15:31:06 GMT 49.826340 1.716686 22,000 321 366 0
2019-08-10 15:31:03 GMT 49.821899 1.722324 22,000 321 366 0
2019-08-10 15:30:59 GMT 49.813751 1.732515 22,000 329 380 2816
2019-08-10 15:30:53 GMT 49.810089 1.737069 22,000 329 380 2816
2019-08-10 15:30:48 GMT 49.797501 1.751452 22,000 325 370 -64
2019-08-10 15:30:44 GMT 49.797501 1.751452 22,000 329 376 -64
2019-08-10 15:30:41 GMT 49.791000 1.757885 22,000 329 374 -64
2019-08-10 15:30:35 GMT 49.785618 1.763009 22,000 329 374 -64
2019-08-10 15:30:30 GMT 49.769554 1.778152 22,000 329 375 0
2019-08-10 15:30:25 GMT 49.769554 1.778152 22,000 329 376 -64
2019-08-10 15:30:22 GMT 49.764809 1.782606 22,000 329 375 0
2019-08-10 15:30:17 GMT 49.757858 1.789037 22,000 329 375 0
2019-08-10 15:30:14 GMT 49.754055 1.792627 22,000 329 375 0
2019-08-10 15:30:10 GMT 49.746468 1.799754 22,000 329 375 0
2019-08-10 15:30:06 GMT 49.740509 1.805299 22,000 329 375 0
2019-08-10 15:30:03 GMT 49.738228 1.807474 22,000 329 375 0
2019-08-10 15:29:59 GMT 49.730312 1.814823 22,000 329 376 -64
2019-08-10 15:29:55 GMT 49.716797 1.827489 22,000 329 375 0
2019-08-10 15:29:51 GMT 49.716797 1.827489 22,000 329 375 0
2019-08-10 15:29:48 GMT 49.714783 1.829368 22,000 329 376 -64
2019-08-10 15:29:44 GMT 49.709736 1.834049 22,000 329 376 -64
2019-08-10 15:29:40 GMT 49.702103 1.841222 21,150 329 375 0
2019-08-10 15:29:35 GMT 49.696049 1.846817 22,000 329 374 0
2019-08-10 15:29:32 GMT 49.691986 1.850690 22,000 329 374 0
2019-08-10 15:29:29 GMT 49.686600 1.855724 21,975 329 374 0
2019-08-10 15:29:25 GMT 49.679802 1.862034 22,000 329 375 0
2019-08-10 15:29:21 GMT 49.674911 1.866592 22,000 329 376 448
2019-08-10 15:29:18 GMT 49.669235 1.871907 22,000 329 375 128
2019-08-10 15:29:14 GMT 49.664200 1.876638 22,000 329 376 256
2019-08-10 15:29:10 GMT 49.658810 1.881706 20,575 329 376 448
2019-08-10 15:29:07 GMT 49.653442 1.886685 21,950 329 376 640
2019-08-10 15:29:03 GMT 49.645569 1.893985 21,875 329 376 1152
2019-08-10 15:28:59 GMT 49.642609 1.896775 21,650 329 379 1856
2019-08-10 15:28:56 GMT 49.637859 1.901229 21,650 329 379 1856
2019-08-10 15:28:53 GMT 49.633064 1.905683 21,175 329 380 2304
2019-08-10 15:28:46 GMT 49.621674 1.916319 21,525 329 380 2240
2019-08-10 15:28:42 GMT 49.617737 1.920005 21,250 329 380 2368
2019-08-10 15:28:37 GMT 49.608536 1.928607 21,150 329 380 2240
2019-08-10 15:28:34 GMT 49.605553 1.931367 21,125 329 380 2240
2019-08-10 15:28:31 GMT 49.600800 1.935834 21,000 330 383 2816
2019-08-10 15:28:28 GMT 49.594055 1.942056 20,375 329 380 2624
2019-08-10 15:28:25 GMT 49.589584 1.946315 20,725 329 379 2496
2019-08-10 15:28:21 GMT 49.585072 1.950444 19,975 330 383 2816
2019-08-10 15:28:14 GMT 49.570358 1.964168 20,200 329 380 2624
2019-08-10 15:28:11 GMT 49.570358 1.964168 20,150 329 380 2688
2019-08-10 15:28:08 GMT 49.565552 1.968649 20,025 330 382 2816
2019-08-10 15:28:05 GMT 49.559875 1.973925 19,900 329 381 2496
2019-08-10 15:28:01 GMT 49.554657 1.978840 19,750 329 381 2496
2019-08-10 15:27:57 GMT 49.549805 1.983321 19,575 330 382 2816
2019-08-10 15:27:52 GMT 49.540741 1.991706 19,300 330 382 2816
2019-08-10 15:27:49 GMT 49.536575 1.995536 19,200 330 382 2816
2019-08-10 15:27:45 GMT 49.528790 2.002704 19,025 330 382 2816
2019-08-10 15:27:42 GMT 49.525063 2.006193 18,825 330 384 3008
2019-08-10 15:27:39 GMT 49.522316 2.008716 18,575 330 383 2816
2019-08-10 15:27:33 GMT 49.511284 2.018812 18,425 330 384 3008
2019-08-10 15:27:29 GMT 49.506443 2.023340 18,150 330 386 3456
2019-08-10 15:27:23 GMT 49.495697 2.033193 18,000 330 385 3392
2019-08-10 15:27:19 GMT 49.491440 2.037097 17,350 330 387 3712
2019-08-10 15:27:16 GMT 49.478931 2.048579 17,000 330 392 2944
2019-08-10 15:27:12 GMT 49.478931 2.048579 17,275 330 391 3456
2019-08-10 15:27:07 GMT 49.473633 2.053431 16,800 330 392 3200
2019-08-10 15:27:02 GMT 49.465988 2.060442 16,825 329 393 2688
2019-08-10 15:26:59 GMT 49.459007 2.066914 16,625 330 392 2304
2019-08-10 15:26:55 GMT 49.455002 2.070552 16,550 330 392 2176
2019-08-10 15:26:52 GMT 49.448345 2.076713 16,400 329 381 1920
2019-08-10 15:26:48 GMT 49.443413 2.081241 16,300 330 388 1792
2019-08-10 15:26:45 GMT 49.437469 2.086752 16,175 329 387 1856
2019-08-10 15:26:40 GMT 49.427116 2.096293 16,025 329 385 2048
2019-08-10 15:26:36 GMT 49.425072 2.098172 15,950 330 384 2048
2019-08-10 15:26:32 GMT 49.418610 2.104164 15,025 329 383 2112
2019-08-10 15:26:26 GMT 49.410507 2.111629 15,625 329 381 1920
2019-08-10 15:26:19 GMT 49.399513 2.121735 15,450 329 380 1984
2019-08-10 15:26:15 GMT 49.393753 2.127052 15,250 329 378 2496
2019-08-10 15:26:10 GMT 49.385468 2.134728 15,050 329 378 2688
2019-08-10 15:26:05 GMT 49.378098 2.141489 14,675 329 376 2240
2019-08-10 15:25:59 GMT 49.368881 2.150068 14,325 329 373 2752
2019-08-10 15:25:54 GMT 49.362213 2.156208 14,075 329 371 2496
2019-08-10 15:25:49 GMT 49.348724 2.168788 14,075 329 373 2752
2019-08-10 15:25:45 GMT 49.348724 2.168788 14,025 329 372 2688
2019-08-10 15:25:42 GMT 49.344627 2.172546 13,900 329 371 2624
2019-08-10 15:25:38 GMT 49.338947 2.177823 13,725 329 371 2496
2019-08-10 15:25:34 GMT 49.330856 2.185364 13,500 329 369 2496
2019-08-10 15:25:31 GMT 49.328018 2.187970 13,425 329 369 2624
2019-08-10 15:25:28 GMT 49.318085 2.197195 13,125 329 367 2624
2019-08-10 15:25:21 GMT 49.313416 2.201491 11,750 330 364 2368
2019-08-10 15:25:17 GMT 49.307293 2.207240 12,825 329 365 2368
2019-08-10 15:25:14 GMT 49.301743 2.212337 12,700 330 364 2368
2019-08-10 15:25:06 GMT 49.292130 2.220999 12,425 332 363 2176
2019-08-10 15:25:02 GMT 49.285133 2.226611 12,300 334 363 2176
2019-08-10 15:24:59 GMT 49.281548 2.229213 12,175 336 363 2240
2019-08-10 15:24:56 GMT 49.276337 2.232619 12,050 339 363 2496
2019-08-10 15:24:52 GMT 49.271301 2.235577 11,900 340 364 2432
2019-08-10 15:24:49 GMT 49.265209 2.238753 11,775 342 364 2240
2019-08-10 15:24:46 GMT 49.254314 2.244247 11,325 342 359 1600
2019-08-10 15:24:43 GMT 49.254314 2.244247 11,550 342 359 1600
2019-08-10 15:24:39 GMT 49.249241 2.246704 11,475 342 355 1408
2019-08-10 15:24:35 GMT 49.243610 2.249523 11,375 342 353 1280
2019-08-10 15:24:32 GMT 49.238674 2.252053 11,325 342 349 960
2019-08-10 15:24:29 GMT 49.231842 2.255507 11,250 342 344 896
2019-08-10 15:24:24 GMT 49.227318 2.257835 11,200 342 340 1024
2019-08-10 15:24:20 GMT 49.220947 2.261071 11,125 342 320 1152
2019-08-10 15:24:17 GMT 49.216232 2.263465 11,050 342 331 1152
2019-08-10 15:24:12 GMT 49.209114 2.267087 10,975 342 326 1216
2019-08-10 15:24:09 GMT 49.205528 2.268966 10,925 342 322 1280
2019-08-10 15:24:05 GMT 49.198013 2.272832 10,825 342 315 960
2019-08-10 15:24:02 GMT 49.193333 2.275182 10,775 342 309 1024
2019-08-10 15:23:59 GMT 49.190727 2.276555 10,750 342 307 1152
2019-08-10 15:23:55 GMT 49.186111 2.278818 10,675 342 304 1152
2019-08-10 15:23:52 GMT 49.182358 2.280719 10,625 342 301 1216
2019-08-10 15:23:49 GMT 49.175949 2.283959 10,550 342 295 1408
2019-08-10 15:23:45 GMT 49.172665 2.285590 10,475 343 291 1856
2019-08-10 15:23:41 GMT 49.166939 2.288481 10,350 343 284 3904
2019-08-10 15:23:38 GMT 49.163132 2.290297 10,225 343 284 3008
2019-08-10 15:23:33 GMT 49.155991 2.293819 10,000 343 284 3264
2019-08-10 15:23:29 GMT 49.151901 2.295781 9,850 343 284 3712
2019-08-10 15:23:26 GMT 49.148922 2.297227 9,625 343 284 3904
2019-08-10 15:23:23 GMT 49.144684 2.299312 9,400 341 285 3904
2019-08-10 15:23:19 GMT 49.140152 2.301706 9,175 339 285 3648
2019-08-10 15:23:16 GMT 49.136215 2.304101 8,925 337 284 3392
2019-08-10 15:23:10 GMT 49.128487 2.309948 8,125 330 279 3264
2019-08-10 15:23:05 GMT 49.123924 2.313923 8,475 330 279 3264
2019-08-10 15:23:02 GMT 49.120152 2.317392 8,200 329 277 3520
2019-08-10 15:22:59 GMT 49.116669 2.320721 7,950 329 279 3904
2019-08-10 15:22:55 GMT 49.112457 2.324594 7,825 329 279 3840
2019-08-10 15:22:52 GMT 49.108234 2.328523 7,575 329 279 3840
2019-08-10 15:22:49 GMT 49.100464 2.335862 7,025 329 280 3200
2019-08-10 15:22:44 GMT 49.100464 2.335862 7,150 329 279 2688
2019-08-10 15:22:41 GMT 49.097397 2.338679 7,025 329 279 2688
2019-08-10 15:22:38 GMT 49.094082 2.341750 6,925 329 278 2560
2019-08-10 15:22:35 GMT 49.090851 2.344736 6,850 330 274 3008
2019-08-10 15:22:32 GMT 49.087101 2.348183 6,600 330 275 3008
2019-08-10 15:22:28 GMT 49.082428 2.352342 6,450 330 274 3072
2019-08-10 15:22:23 GMT 49.077045 2.357073 6,150 331 274 3456
2019-08-10 15:22:20 GMT 49.072311 2.361215 6,000 331 274 3520
2019-08-10 15:22:17 GMT 49.069969 2.363217 5,825 331 274 3584
2019-08-10 15:22:13 GMT 49.065125 2.367413 5,575 331 274 3200
2019-08-10 15:22:10 GMT 49.063110 2.369103 5,450 332 274 2816
2019-08-10 15:22:06 GMT 49.059128 2.372483 5,275 331 272 2432
2019-08-10 15:22:02 GMT 49.054184 2.376639 5,025 331 266 2048
2019-08-10 15:21:58 GMT 49.047764 2.382082 4,925 331 264 1920
2019-08-10 15:21:55 GMT 49.047020 2.382732 4,875 331 263 1792
2019-08-10 15:21:52 GMT 49.043201 2.385985 4,775 331 257 1600
2019-08-10 15:21:47 GMT 49.037941 2.390538 4,625 330 249 1664
2019-08-10 15:21:44 GMT 49.035149 2.393068 4,575 329 245 1664
2019-08-10 15:21:40 GMT 49.029922 2.398118 4,425 325 235 1536
2019-08-10 15:21:34 GMT 49.025803 2.402766 4,300 314 222 704
2019-08-10 15:21:31 GMT 49.023743 2.405865 4,275 309 216 512
2019-08-10 15:21:27 GMT 49.021416 2.410487 4,225 299 202 1024
2019-08-10 15:21:24 GMT 49.019669 2.415232 4,175 295 198 896
2019-08-10 15:21:19 GMT 49.017925 2.422052 4,100 284 186 960
2019-08-10 15:21:15 GMT 49.017426 2.425302 4,025 283 185 1024
2019-08-10 15:21:12 GMT 49.017014 2.428824 4,025 277 178 960
2019-08-10 15:21:09 GMT 49.016762 2.432460 3,975 274 174 832
2019-08-10 15:21:05 GMT 49.016785 2.438613 3,900 268 167 1088
2019-08-10 15:21:02 GMT 49.016876 2.440866 3,850 265 161 1216
2019-08-10 15:20:57 GMT 49.017242 2.446852 3,725 265 153 1408
2019-08-10 15:20:54 GMT 49.017471 2.450585 3,650 265 150 1600
2019-08-10 15:20:51 GMT 49.017643 2.453999 3,600 265 150 1600
2019-08-10 15:20:48 GMT 49.017830 2.456456 3,525 265 147 2112
2019-08-10 15:20:45 GMT 49.018250 2.463684 3,350 265 145 2752
2019-08-10 15:20:41 GMT 49.018250 2.463684 3,200 265 145 2752
2019-08-10 15:20:38 GMT 49.018391 2.466286 3,075 265 145 2624
2019-08-10 15:20:35 GMT 49.018902 2.473948 2,875 266 145 1984
2019-08-10 15:20:31 GMT 49.018902 2.473948 2,700 266 145 1984
2019-08-10 15:20:28 GMT 49.019073 2.477135 2,700 266 145 1984
2019-08-10 15:20:24 GMT 49.019302 2.481079 2,600 266 144 1792
2019-08-10 15:20:18 GMT 49.019691 2.487681 2,400 266 142 1920
2019-08-10 15:20:15 GMT 49.019806 2.490023 2,325 266 142 1856
2019-08-10 15:20:12 GMT 49.019989 2.493826 2,225 267 140 2112
2019-08-10 15:20:08 GMT 49.020126 2.497418 2,100 267 140 2304
2019-08-10 15:20:05 GMT 49.020264 2.501009 1,975 267 140 2944
2019-08-10 15:19:57 GMT 49.020576 2.508424 1,650 267 144 3456
2019-08-10 15:19:54 GMT 49.020672 2.510810 1,450 267 146 3392
2019-08-10 15:19:46 GMT 49.021042 2.519743 1,000 266 152 2880
2019-08-10 15:19:36 GMT 49.021603 2.531192 525 266 156 2560
2019-08-10 15:19:02 GMT 49.023056 2.558513 0 264 53
2019-08-10 15:18:52 GMT 49.023136 2.561079 0 284 20
2019-08-10 15:15:43 GMT 49.022278 2.562886 0 340 0
We lost coverage of the aircraft here for a total of 210 minutes
2019-08-10 11:45:53 GMT 49.017986 2.521345 0 174 7 -512
2019-08-10 11:45:45 GMT 49.018108 2.521326 0 174 4 -512
2019-08-10 11:45:17 GMT 49.018131 2.521326 0 174 2 -512
2019-08-10 11:45:04 GMT 49.018124 2.521327 0 174 2 -512
2019-08-10 11:43:58 GMT 49.018101 2.524901 0 264 19 -512
2019-08-10 11:43:36 GMT 49.018345 2.527217 0 225 15 -512
2019-08-10 11:43:28 GMT 49.018867 2.527436 375 174 18 -512
2019-08-10 11:43:22 GMT 49.019260 2.527398 375 177 18 -512
2019-08-10 11:43:11 GMT 49.020172 2.527278 375 174 17 -512
2019-08-10 11:41:31 GMT 49.023239 2.562068 375 265 125 -512
2019-08-10 11:41:28 GMT 49.023418 2.564802 425 265 124 -576
2019-08-10 11:41:17 GMT 49.023926 2.574322 525 266 125 -640
2019-08-10 11:41:07 GMT 49.024429 2.583970 625 266 125 -704
2019-08-10 11:40:59 GMT 49.024860 2.592484 750 265 124 -576
2019-08-10 11:40:48 GMT 49.025280 2.600074 850 266 123 -640
2019-08-10 11:40:45 GMT 49.025391 2.602703 875 265 122 -768
2019-08-10 11:40:39 GMT 49.025745 2.608386 950 266 122 -640
2019-08-10 11:40:35 GMT 49.025894 2.611788 1,000 266 123 -576
2019-08-10 11:40:28 GMT 49.026215 2.617845 1,225 267 130 -768
2019-08-10 11:40:25 GMT 49.026352 2.620098 1,100 266 128 -704
2019-08-10 11:40:17 GMT 49.026722 2.628262 1,225 265 127 -768
2019-08-10 11:40:13 GMT 49.026855 2.631014 1,225 265 129 -704
2019-08-10 11:40:08 GMT 49.027176 2.636296 1,325 265 125 -704
2019-08-10 11:40:04 GMT 49.027313 2.638761 1,350 265 125 -640
2019-08-10 11:39:53 GMT 49.027794 2.648500 1,425 265 125 -768
2019-08-10 11:39:45 GMT 49.028214 2.655873 1,525 266 128 -832
2019-08-10 11:39:42 GMT 49.028305 2.657824 1,550 266 129 -960
2019-08-10 11:39:39 GMT 49.028503 2.661931 1,625 266 130 -832
2019-08-10 11:39:35 GMT 49.028687 2.664818 1,700 266 130 -704
2019-08-10 11:39:31 GMT 49.028912 2.669244 1,725 266 130 -640
2019-08-10 11:39:28 GMT 49.029003 2.671268 1,825 266 142 -768
2019-08-10 11:39:24 GMT 49.029190 2.674304 1,825 266 142 -768
2019-08-10 11:39:21 GMT 49.029419 2.677917 1,825 266 136 -640
2019-08-10 11:39:17 GMT 49.029602 2.682073 1,875 266 141 -896
2019-08-10 11:39:14 GMT 49.029980 2.688976 1,975 266 143 -640
2019-08-10 11:39:09 GMT 49.029980 2.688976 1,975 266 143 -640
2019-08-10 11:39:03 GMT 49.030258 2.695047 2,025 266 148 -768
2019-08-10 11:38:59 GMT 49.030563 2.700594 2,075 266 152 -768
2019-08-10 11:38:53 GMT 49.030865 2.706612 2,175 266 157 -960
2019-08-10 11:38:50 GMT 49.031006 2.708708 2,175 266 156 -1024
2019-08-10 11:38:46 GMT 49.031250 2.714327 2,250 266 157 -832
2019-08-10 11:38:42 GMT 49.031425 2.717598 2,350 266 157 -1024
2019-08-10 11:38:39 GMT 49.031609 2.721140 2,350 266 155 -832
2019-08-10 11:38:36 GMT 49.031841 2.725549 2,400 266 154 -768
2019-08-10 11:38:29 GMT 49.032215 2.732415 2,500 266 153 -896
2019-08-10 11:38:25 GMT 49.032440 2.736793 2,550 266 152 -896
2019-08-10 11:38:20 GMT 49.032726 2.742679 2,625 266 152 -704
2019-08-10 11:38:15 GMT 49.033035 2.747991 2,675 266 153 -768
2019-08-10 11:38:12 GMT 49.033264 2.751864 2,725 266 155 -768
2019-08-10 11:38:09 GMT 49.033356 2.753977 2,775 266 155 -832
2019-08-10 11:38:04 GMT 49.033676 2.759752 2,825 266 156 -896
2019-08-10 11:37:59 GMT 49.033985 2.766097 2,925 267 158 -896
2019-08-10 11:37:53 GMT 49.034218 2.771301 3,000 266 158 -960
2019-08-10 11:37:50 GMT 49.034451 2.775349 3,050 266 159 -1024
2019-08-10 11:37:43 GMT 49.034821 2.782710 3,175 266 160 -1088
2019-08-10 11:37:38 GMT 49.035149 2.788504 3,250 267 159 -960
2019-08-10 11:37:32 GMT 49.035507 2.796021 3,400 266 159 -704
2019-08-10 11:37:27 GMT 49.035706 2.800429 3,400 266 160 -896
2019-08-10 11:37:20 GMT 49.036102 2.807852 3,475 266 159 -640
2019-08-10 11:37:16 GMT 49.036469 2.813909 3,525 266 157 -576
2019-08-10 11:37:12 GMT 49.036591 2.817343 3,575 266 157 -640
2019-08-10 11:37:08 GMT 49.036835 2.821585 3,600 266 157 -704
2019-08-10 11:37:05 GMT 49.037010 2.824860 3,625 266 158 -704
2019-08-10 11:37:01 GMT 49.037338 2.831233 3,700 266 159 -768
2019-08-10 11:36:57 GMT 49.037430 2.833698 3,700 266 160 -832
2019-08-10 11:36:54 GMT 49.037567 2.836797 3,775 266 162 -1024
2019-08-10 11:36:51 GMT 49.037800 2.841195 3,825 266 163 -1088
2019-08-10 11:36:47 GMT 49.038033 2.845387 3,900 266 164 -1152
2019-08-10 11:36:41 GMT 49.038406 2.853265 4,025 266 165 -1408
2019-08-10 11:36:35 GMT 49.038780 2.860348 4,150 266 166 -1280
2019-08-10 11:36:30 GMT 49.038986 2.864896 4,225 266 165 -1280
2019-08-10 11:36:26 GMT 49.039261 2.870108 4,350 266 166 -1280
2019-08-10 11:36:23 GMT 49.039433 2.873142 4,400 266 166 -1344
2019-08-10 11:36:19 GMT 49.039627 2.877080 4,475 266 166 -1088
2019-08-10 11:36:13 GMT 49.040035 2.884851 4,600 266 166 -1088
2019-08-10 11:36:09 GMT 49.040314 2.889621 4,650 266 169 -768
2019-08-10 11:36:03 GMT 49.040680 2.897714 4,700 266 176 -256
2019-08-10 11:35:58 GMT 49.040966 2.902559 4,900 266 185 -576
2019-08-10 11:35:55 GMT 49.041153 2.906679 4,750 266 184 -448
2019-08-10 11:35:51 GMT 49.041386 2.911305 4,800 266 184 -384
2019-08-10 11:35:47 GMT 49.041733 2.918208 4,825 266 185 -576
2019-08-10 11:35:43 GMT 49.041962 2.922715 4,900 266 209 -256
2019-08-10 11:35:36 GMT 49.042419 2.931448 4,925 266 192 -384
2019-08-10 11:35:32 GMT 49.042694 2.936307 4,925 266 209 -256
2019-08-10 11:35:29 GMT 49.042969 2.942434 4,950 266 197 -192
2019-08-10 11:35:25 GMT 49.043201 2.946577 4,950 266 210 -128
2019-08-10 11:35:19 GMT 49.043713 2.957491 4,950 266 204 0
2019-08-10 11:35:16 GMT 49.043808 2.959587 4,950 266 204 0
2019-08-10 11:35:12 GMT 49.044228 2.967248 4,950 266 209 -256
2019-08-10 11:35:09 GMT 49.044617 2.975675 4,950 266 210 -128
2019-08-10 11:35:06 GMT 49.044617 2.975675 4,950 266 211 -448
2019-08-10 11:35:02 GMT 49.044800 2.979196 5,000 266 214 -512
2019-08-10 11:34:59 GMT 49.045341 2.991028 5,025 267 215 -640
2019-08-10 11:34:55 GMT 49.045341 2.991028 5,050 267 215 -960
2019-08-10 11:34:51 GMT 49.045670 2.997859 5,125 266 216 -1024
2019-08-10 11:34:45 GMT 49.046082 3.006240 5,300 265 216 -1088
2019-08-10 11:34:40 GMT 49.046509 3.013362 5,300 265 217 -1408
2019-08-10 11:34:37 GMT 49.046925 3.020445 5,375 265 217 -1280
2019-08-10 11:34:33 GMT 49.047298 3.026806 5,550 266 218 -1280
2019-08-10 11:34:29 GMT 49.047485 3.030058 5,525 267 219 -896
2019-08-10 11:34:25 GMT 49.047718 3.035985 5,600 267 219 -832
2019-08-10 11:34:22 GMT 49.048088 3.044225 5,650 266 219 -896
2019-08-10 11:34:18 GMT 49.048229 3.046465 5,675 266 219 -704
2019-08-10 11:34:15 GMT 49.048508 3.051380 5,725 265 228 -1024
2019-08-10 11:34:10 GMT 49.049011 3.060397 5,850 265 232 -960
2019-08-10 11:34:07 GMT 49.049240 3.063707 5,800 265 228 -1024
2019-08-10 11:34:04 GMT 49.049606 3.069834 5,850 265 232 -960
2019-08-10 11:34:01 GMT 49.049835 3.073355 5,925 264 236 -1024
2019-08-10 11:33:56 GMT 49.050465 3.082171 5,975 263 240 -1088
2019-08-10 11:33:51 GMT 49.052032 3.097018 6,125 260 241 -1024
2019-08-10 11:33:45 GMT 49.052792 3.101686 6,175 255 241 -1152
2019-08-10 11:33:42 GMT 49.053406 3.105257 6,225 253 240 -1024
2019-08-10 11:33:37 GMT 49.055695 3.114694 6,325 244 240 -960
2019-08-10 11:33:32 GMT 49.058762 3.123638 6,375 241 240 -896
2019-08-10 11:33:28 GMT 49.060005 3.126767 6,450 235 240 -960
2019-08-10 11:33:20 GMT 49.066429 3.140572 6,600 235 242 -832
2019-08-10 11:33:17 GMT 49.067139 3.142090 6,625 235 241 -832
2019-08-10 11:33:14 GMT 49.068970 3.145893 6,650 235 241 -832
2019-08-10 11:33:08 GMT 49.073685 3.155893 6,725 235 240 -704
2019-08-10 11:33:05 GMT 49.074966 3.158499 6,775 234 239 -576
2019-08-10 11:32:59 GMT 49.078857 3.166668 6,850 234 240 -832
2019-08-10 11:32:53 GMT 49.082493 3.174326 6,925 234 241 -832
2019-08-10 11:32:48 GMT 49.086273 3.182162 6,975 234 241 -832
2019-08-10 11:32:42 GMT 49.089752 3.189505 7,025 235 242 -896
2019-08-10 11:32:37 GMT 49.093826 3.198078 7,150 235 242 -896
2019-08-10 11:32:33 GMT 49.095760 3.202153 7,225 235 243 -704
2019-08-10 11:32:29 GMT 49.099411 3.209909 7,225 235 243 -704
2019-08-10 11:32:26 GMT 49.100555 3.212272 7,275 235 243 -832
2019-08-10 11:32:22 GMT 49.103161 3.217910 7,375 235 243 -896
2019-08-10 11:32:19 GMT 49.105255 3.222391 7,375 235 243 -896
2019-08-10 11:32:15 GMT 49.107468 3.227163 7,425 235 243 -704
2019-08-10 11:32:11 GMT 49.110935 3.234679 7,500 235 243 -704
2019-08-10 11:32:08 GMT 49.112091 3.237023 7,525 235 243 -704
2019-08-10 11:32:05 GMT 49.114567 3.242340 7,550 235 241 -768
2019-08-10 11:32:01 GMT 49.116615 3.246749 7,625 235 240 -768
2019-08-10 11:31:58 GMT 49.118431 3.250652 7,625 235 240 -768
2019-08-10 11:31:54 GMT 49.121475 3.257094 7,700 235 240 -768
2019-08-10 11:31:50 GMT 49.123692 3.261783 7,725 235 240 -768
2019-08-10 11:31:47 GMT 49.126389 3.267638 7,875 235 242 -832
2019-08-10 11:31:43 GMT 49.128525 3.272165 7,825 235 243 -896
2019-08-10 11:31:37 GMT 49.132584 3.280792 7,900 235 245 -512
2019-08-10 11:31:32 GMT 49.135376 3.286791 7,950 235 245 -512
2019-08-10 11:31:27 GMT 49.139694 3.296110 8,000 235 245 0
2019-08-10 11:31:22 GMT 49.142349 3.301814 8,000 235 245 64
2019-08-10 11:31:18 GMT 49.144592 3.306596 8,000 235 245 64
2019-08-10 11:31:14 GMT 49.147526 3.312884 7,975 235 245 64
2019-08-10 11:31:11 GMT 49.149216 3.316463 7,975 235 245 0
2019-08-10 11:31:07 GMT 49.151760 3.321846 7,975 235 245 -64
2019-08-10 11:31:04 GMT 49.154205 3.326956 7,975 235 245 -64
2019-08-10 11:30:58 GMT 49.157860 3.334712 8,000 235 244 -64
2019-08-10 11:30:53 GMT 49.162582 3.344703 8,000 235 241 -320
2019-08-10 11:30:48 GMT 49.164192 3.348083 8,000 235 241 -384
2019-08-10 11:30:41 GMT 49.169312 3.358925 8,100 235 242 -1024
2019-08-10 11:30:36 GMT 49.172943 3.366587 8,175 235 243 -1280
2019-08-10 11:30:31 GMT 49.175812 3.372521 8,250 234 243 -1728
2019-08-10 11:30:28 GMT 49.179043 3.379236 8,425 234 243 -2112
2019-08-10 11:30:21 GMT 49.182541 3.386395 8,725 234 243 -2368
2019-08-10 11:30:16 GMT 49.186069 3.393691 8,850 234 243 -2048
2019-08-10 11:30:13 GMT 49.189545 3.400832 8,975 234 245 -2048
2019-08-10 11:30:10 GMT 49.189545 3.400832 9,225 234 246 -2048
2019-08-10 11:30:05 GMT 49.193146 3.408291 9,200 234 247 -2048
2019-08-10 11:30:01 GMT 49.195999 3.414213 9,350 234 249 -2048
2019-08-10 11:29:58 GMT 49.197647 3.417523 9,600 234 251 -1600
2019-08-10 11:29:55 GMT 49.200485 3.423509 9,650 234 251 -1728
2019-08-10 11:29:44 GMT 49.211861 3.447177 9,825 235 275 -896
2019-08-10 11:29:38 GMT 49.211861 3.447177 10,025 235 278 -896
2019-08-10 11:29:34 GMT 49.214977 3.453755 9,925 235 275 -896
2019-08-10 11:29:31 GMT 49.216888 3.457730 9,950 235 275 -896
2019-08-10 11:29:27 GMT 49.221176 3.466820 10,025 235 278 -896
2019-08-10 11:29:23 GMT 49.223454 3.471607 10,075 235 280 -896
2019-08-10 11:29:15 GMT 49.229130 3.483678 10,175 235 291 -1216
2019-08-10 11:29:12 GMT 49.231133 3.487942 10,225 235 286 -1088
2019-08-10 11:29:09 GMT 49.233925 3.493869 10,300 235 299 -1152
2019-08-10 11:29:04 GMT 49.238800 3.504287 10,450 235 297 -1152
2019-08-10 11:29:01 GMT 49.244308 3.516203 10,450 235 319 -1152
2019-08-10 11:28:51 GMT 49.250839 3.530344 11,925 235 319 -1152
2019-08-10 11:28:41 GMT 49.257523 3.544711 11,075 235 317 -1920
2019-08-10 11:28:31 GMT 49.265350 3.561377 11,425 235 317 -1920
2019-08-10 11:28:24 GMT 49.272308 3.576120 11,900 235 319 -960
2019-08-10 11:28:20 GMT 49.281830 3.596505 11,925 235 319 -1152
2019-08-10 11:28:12 GMT 49.284576 3.602431 11,975 235 319 -448
2019-08-10 11:28:09 GMT 49.284576 3.602431 11,975 235 321 -256
2019-08-10 11:27:59 GMT 49.295883 3.626826 12,000 235 321 -128
2019-08-10 11:27:51 GMT 49.304077 3.643588 12,050 234 322 -320
2019-08-10 11:27:48 GMT 49.304077 3.643588 12,050 232 322 -448
2019-08-10 11:27:36 GMT 49.315067 3.662712 12,300 224 326 -576
2019-08-10 11:27:28 GMT 49.323578 3.675279 12,225 224 326 -576
2019-08-10 11:27:23 GMT 49.327774 3.681432 12,275 224 326 -576
2019-08-10 11:27:15 GMT 49.339279 3.698097 12,375 224 327 -576
2019-08-10 11:27:06 GMT 49.348114 3.710914 12,450 224 325 -512
2019-08-10 11:27:02 GMT 49.357986 3.725160 12,550 224 326 -704
2019-08-10 11:26:56 GMT 49.357986 3.725160 12,550 224 326 -704
2019-08-10 11:26:53 GMT 49.362946 3.732323 12,600 224 326 -704
2019-08-10 11:26:45 GMT 49.369720 3.742042 12,650 224 325 -512
2019-08-10 11:26:39 GMT 49.380478 3.757606 12,750 224 325 -512
2019-08-10 11:26:35 GMT 49.380478 3.757606 12,750 224 325 -448
2019-08-10 11:26:25 GMT 49.392159 3.774454 12,825 223 326 -384
2019-08-10 11:26:20 GMT 49.398972 3.784156 12,850 223 326 -320
2019-08-10 11:26:15 GMT 49.403748 3.790717 12,875 222 326 -320
2019-08-10 11:26:07 GMT 49.414261 3.803805 12,925 213 330 -384
2019-08-10 11:26:04 GMT 49.417191 3.806763 12,925 207 334 -384
2019-08-10 11:25:57 GMT 49.425156 3.813171 12,975 196 340 0
2019-08-10 11:25:51 GMT 49.433945 3.817966 13,000 196 339 64
2019-08-10 11:25:47 GMT 49.439438 3.820279 13,000 196 340 0
2019-08-10 11:25:43 GMT 49.445553 3.822871 13,000 196 340 0
2019-08-10 11:25:34 GMT 49.459808 3.828880 12,975 196 342 64
2019-08-10 11:25:26 GMT 49.472809 3.834301 12,975 196 343 0
2019-08-10 11:25:22 GMT 49.478699 3.836752 12,975 196 343 0
2019-08-10 11:25:14 GMT 49.492058 3.842320 13,000 195 342 -192
2019-08-10 11:25:11 GMT 49.495037 3.843508 13,000 195 342 -256
2019-08-10 11:25:08 GMT 49.499634 3.845359 13,025 195 341 -256
2019-08-10 11:25:04 GMT 49.505127 3.847528 13,025 192 339 -256
2019-08-10 11:25:01 GMT 49.509701 3.849223 13,050 192 339 -256
2019-08-10 11:24:58 GMT 49.514923 3.850997 13,050 192 339 -256
2019-08-10 11:24:54 GMT 49.520554 3.852515 13,075 184 342 -768
2019-08-10 11:24:48 GMT 49.530373 3.853380 13,125 175 348 -1856
2019-08-10 11:24:45 GMT 49.535538 3.852712 13,175 169 356 -1344
2019-08-10 11:24:42 GMT 49.539261 3.851896 13,300 169 356 -1344
2019-08-10 11:24:37 GMT 49.548618 3.848555 13,400 161 367 -1024
2019-08-10 11:24:31 GMT 49.558914 3.842468 13,675 157 372 -1088
2019-08-10 11:24:26 GMT 49.565140 3.837264 13,700 145 389 -1280
2019-08-10 11:24:23 GMT 49.570587 3.831916 13,675 134 406 -1472
2019-08-10 11:24:16 GMT 49.582031 3.817171 14,050 133 408 -1472
2019-08-10 11:24:11 GMT 49.586197 3.810521 14,175 87 464 -5056
2019-08-10 11:24:06 GMT 49.592834 3.797656 14,075 122 423 -1472
2019-08-10 11:24:02 GMT 49.597546 3.786275 14,400 119 428 -1472
2019-08-10 11:23:59 GMT 49.599747 3.780092 14,325 113 436 -1792
2019-08-10 11:23:55 GMT 49.603409 3.768166 14,350 111 439 -1984
2019-08-10 11:23:51 GMT 49.606903 3.753019 14,525 105 447 -2624
2019-08-10 11:23:47 GMT 49.608856 3.741364 14,800 101 452 -3520
2019-08-10 11:23:44 GMT 49.609863 3.733689 14,900 94 457 -4672
2019-08-10 11:23:41 GMT 49.610954 3.721396 15,100 94 457 -4672
2019-08-10 11:23:33 GMT 49.611511 3.696249 15,700 87 464 -4992
2019-08-10 11:23:28 GMT 49.611046 3.678044 16,125 87 464 -5184
2019-08-10 11:23:22 GMT 49.610489 3.661120 16,600 87 464 -5760
2019-08-10 11:23:18 GMT 49.610092 3.649774 16,925 86 464 -6016
2019-08-10 11:23:13 GMT 49.609604 3.635064 17,600 86 460 -6336
2019-08-10 11:23:10 GMT 49.609138 3.623261 17,750 86 459 -6208
2019-08-10 11:23:03 GMT 49.608307 3.600263 18,225 86 459 -4992
2019-08-10 11:23:00 GMT 49.607758 3.585085 18,650 86 461 -4224
2019-08-10 11:22:55 GMT 49.607323 3.573006 18,950 86 463 -4160
2019-08-10 11:22:51 GMT 49.606842 3.561016 27,275 86 466 -4032
2019-08-10 11:22:47 GMT 49.606339 3.546199 27,275 84 485 -4416
2019-08-10 11:22:42 GMT 49.605412 3.521341 19,950 86 470 -4224
2019-08-10 11:22:39 GMT 49.604996 3.509315 27,275 86 470 -4224
2019-08-10 11:22:36 GMT 49.604996 3.509315 27,275 84 485 -4416
2019-08-10 11:22:32 GMT 49.604279 3.489966 21,700 87 482 -4224
2019-08-10 11:22:26 GMT 49.603867 3.477679 20,950 86 476 -4032
2019-08-10 11:22:21 GMT 49.603317 3.462549 21,150 87 477 -4160
2019-08-10 11:22:18 GMT 49.602859 3.446671 21,450 87 481 -4224
2019-08-10 11:22:14 GMT 49.602448 3.434239 21,700 87 482 -4224
2019-08-10 11:22:09 GMT 49.602036 3.421157 22,275 87 484 -4416
2019-08-10 11:22:02 GMT 49.601166 3.394703 22,475 74 494 -3136
2019-08-10 11:21:59 GMT 49.600891 3.385235 22,750 87 485 -4800
2019-08-10 11:21:56 GMT 49.600525 3.374881 23,550 87 486 -4992
2019-08-10 11:21:51 GMT 49.599884 3.354950 23,475 87 485 -5888
2019-08-10 11:21:48 GMT 49.599518 3.344180 24,075 86 483 -6016
2019-08-10 11:21:45 GMT 49.599220 3.334425 24,075 86 484 -6144
2019-08-10 11:21:41 GMT 49.598709 3.321212 27,175 74 494 -3136
2019-08-10 11:21:38 GMT 49.598476 3.313863 24,500 86 482 -5568
2019-08-10 11:21:34 GMT 49.597824 3.298500 25,075 85 482 -5056
2019-08-10 11:21:30 GMT 49.597267 3.286842 25,350 85 483 -4672
2019-08-10 11:21:27 GMT 49.596817 3.278118 25,600 84 484 -4416
2019-08-10 11:21:23 GMT 49.595776 3.260564 25,900 83 485 -4416
2019-08-10 11:21:20 GMT 49.594940 3.249578 26,200 47 504 -2752
2019-08-10 11:21:16 GMT 49.593521 3.234462 26,300 82 487 -4608
2019-08-10 11:21:13 GMT 49.592098 3.222557 26,750 78 490 -4352
2019-08-10 11:21:08 GMT 49.590424 3.211719 26,950 73 496 -2944
2019-08-10 11:21:05 GMT 49.588234 3.199323 27,775 18 503 -2048
2019-08-10 11:21:02 GMT 49.586327 3.190044 27,300 66 503 -2240
2019-08-10 11:20:56 GMT 49.581020 3.168813 27,475 65 504 -2240
2019-08-10 11:20:53 GMT 49.577682 3.157557 27,625 62 506 -2624
2019-08-10 11:20:50 GMT 49.575165 3.150040 27,700 58 507 -3136
2019-08-10 11:20:47 GMT 49.571289 3.139269 29,475 34 505 -2048
2019-08-10 11:20:44 GMT 49.567657 3.130381 28,075 57 507 -3392
2019-08-10 11:20:41 GMT 49.562256 3.118093 28,725 29 505 -1792
2019-08-10 11:20:37 GMT 49.558022 3.109650 29,675 49 504 -3136
2019-08-10 11:20:34 GMT 49.554253 3.102524 28,550 49 504 -3136
2019-08-10 11:20:30 GMT 49.546600 3.089399 28,675 46 505 -2560
2019-08-10 11:20:27 GMT 49.543777 3.085005 28,900 42 506 -2240
2019-08-10 11:20:24 GMT 49.538795 3.077657 28,975 358 483 -1344
2019-08-10 11:20:20 GMT 49.532047 3.068526 29,150 37 505 -2112
2019-08-10 11:20:17 GMT 49.524216 3.058970 29,275 35 506 -2048
2019-08-10 11:20:14 GMT 49.518547 3.052640 29,350 32 505 -1984
2019-08-10 11:20:10 GMT 49.511032 3.045092 29,475 30 505 -1856
2019-08-10 11:20:05 GMT 49.503277 3.038165 29,625 25 505 -1728
2019-08-10 11:20:02 GMT 49.497162 3.033166 29,650 22 504 -1856
2019-08-10 11:19:58 GMT 49.489014 3.027095 30,550 0 485 -1536
2019-08-10 11:19:55 GMT 49.480316 3.021602 29,950 18 503 -2048
2019-08-10 11:19:52 GMT 49.474743 3.018345 30,000 5 490 -2048
2019-08-10 11:19:48 GMT 49.465801 3.013891 30,125 15 500 -2304
2019-08-10 11:19:44 GMT 49.457245 3.010326 30,300 11 497 -2240
2019-08-10 11:19:38 GMT 49.441864 3.005484 30,500 8 492 -2240
2019-08-10 11:19:33 GMT 49.431335 3.003315 30,675 4 489 -1920
2019-08-10 11:19:30 GMT 49.424557 3.002448 30,800 3 488 -1792
2019-08-10 11:19:26 GMT 49.417831 3.001803 30,800 0 486 -1600
2019-08-10 11:19:22 GMT 49.407852 3.001732 31,450 340 458 -2752
2019-08-10 11:19:18 GMT 49.396439 3.002520 31,100 355 481 -1024
2019-08-10 11:19:12 GMT 49.386520 3.004056 31,175 352 478 -1472
2019-08-10 11:19:09 GMT 49.380386 3.005324 31,450 349 473 -1728
2019-08-10 11:19:05 GMT 49.370728 3.008071 31,375 349 473 -1728
2019-08-10 11:19:02 GMT 49.361759 3.011410 31,450 345 466 -2240
2019-08-10 11:18:59 GMT 49.355755 3.014085 31,625 339 455 -2944
2019-08-10 11:18:56 GMT 49.349468 3.017193 31,700 340 458 -2752
2019-08-10 11:18:51 GMT 49.341835 3.021457 32,500 316 405 -384
2019-08-10 11:18:48 GMT 49.333740 3.026804 32,175 334 442 -2880
2019-08-10 11:18:44 GMT 49.329346 3.030043 32,675 329 431 -2304
2019-08-10 11:18:41 GMT 49.322067 3.035818 32,725 323 418 -1408
2019-08-10 11:18:38 GMT 49.316044 3.041045 32,650 328 428 -2112
2019-08-10 11:18:33 GMT 49.309296 3.047622 32,650 325 422 -1728
2019-08-10 11:18:30 GMT 49.303116 3.054199 32,950 319 410 -704
2019-08-10 11:18:27 GMT 49.298904 3.059129 32,900 312 397 0
2019-08-10 11:18:23 GMT 49.294739 3.064340 32,925 319 410 -704
2019-08-10 11:18:20 GMT 49.289276 3.071691 33,000 313 398 -64
2019-08-10 11:18:12 GMT 49.279964 3.085857 33,000 312 397 0
2019-08-10 11:18:09 GMT 49.268284 3.106023 33,000 312 396 0
2019-08-10 11:18:03 GMT 49.268284 3.106023 33,000 312 396 -64
2019-08-10 11:18:00 GMT 49.263393 3.114479 33,000 312 396 0
2019-08-10 11:17:53 GMT 49.256645 3.126189 33,000 312 396 0
2019-08-10 11:17:50 GMT 49.252316 3.133706 33,000 312 396 0
2019-08-10 11:17:47 GMT 49.247379 3.142307 33,000 312 396 0
2019-08-10 11:17:43 GMT 49.242493 3.150763 33,000 312 396 0
2019-08-10 11:17:39 GMT 49.238342 3.157865 33,000 312 396 0
2019-08-10 11:17:36 GMT 49.235275 3.163267 33,000 312 396 -64
2019-08-10 11:17:32 GMT 49.230343 3.171796 33,000 312 396 -64
2019-08-10 11:17:28 GMT 49.225433 3.180260 33,000 312 396 0
2019-08-10 11:17:25 GMT 49.221821 3.186541 33,000 312 395 0
2019-08-10 11:17:22 GMT 49.217194 3.194557 33,000 312 393 -64
2019-08-10 11:17:18 GMT 49.213070 3.201720 33,000 312 395 0
2019-08-10 11:17:14 GMT 49.209766 3.207502 33,000 312 395 0
2019-08-10 11:17:11 GMT 49.199524 3.225192 33,000 312 395 0
2019-08-10 11:17:07 GMT 49.199524 3.225192 33,000 312 393 0
2019-08-10 11:17:04 GMT 49.196869 3.229769 33,000 312 394 0
2019-08-10 11:17:00 GMT 49.190826 3.240333 33,000 312 393 -64
2019-08-10 11:16:56 GMT 49.183277 3.253399 33,000 312 393 -64
2019-08-10 11:16:50 GMT 49.178947 3.260916 33,000 312 392 -64
2019-08-10 11:16:46 GMT 49.174850 3.268080 33,000 312 393 -64
2019-08-10 11:16:40 GMT 49.166378 3.282671 33,000 312 393 -64
2019-08-10 11:16:37 GMT 49.164051 3.286647 33,000 312 393 -64
2019-08-10 11:16:34 GMT 49.160751 3.292377 33,000 312 393 -64
2019-08-10 11:16:25 GMT 49.149944 3.310932 33,000 312 394 -64
2019-08-10 11:16:22 GMT 49.145828 3.318012 33,000 312 394 -64
2019-08-10 11:16:19 GMT 49.141113 3.326040 33,000 312 394 -64
2019-08-10 11:16:15 GMT 49.137543 3.332167 33,000 312 395 -128
2019-08-10 11:16:12 GMT 49.133469 3.339139 33,025 312 397 -128
2019-08-10 11:16:07 GMT 49.125870 3.352168 33,000 312 396 -128
2019-08-10 11:16:04 GMT 49.122574 3.357841 33,025 312 405 -640
2019-08-10 11:15:55 GMT 49.113914 3.372658 33,025 312 398 -256
2019-08-10 11:15:52 GMT 49.109726 3.379814 33,050 312 401 -704
2019-08-10 11:15:48 GMT 49.104492 3.388719 33,125 312 403 -704
2019-08-10 11:15:43 GMT 49.098179 3.399546 33,075 312 403 -704
2019-08-10 11:15:39 GMT 49.093689 3.407241 33,675 312 405 -640
2019-08-10 11:15:36 GMT 49.089706 3.414072 33,200 312 405 -640
2019-08-10 11:15:32 GMT 49.084717 3.422664 33,200 312 405 -640
2019-08-10 11:15:28 GMT 49.079636 3.431326 33,250 312 405 -576
2019-08-10 11:15:25 GMT 49.074371 3.440270 33,275 312 406 -576
2019-08-10 11:15:21 GMT 49.071411 3.445370 33,300 312 407 -576
2019-08-10 11:15:17 GMT 49.067139 3.452665 33,350 312 407 -640
2019-08-10 11:15:14 GMT 49.058331 3.467704 33,400 312 408 -640
2019-08-10 11:15:10 GMT 49.058331 3.467704 33,400 312 408 -640
2019-08-10 11:15:03 GMT 49.046787 3.487436 33,550 312 408 -576
2019-08-10 11:15:00 GMT 49.044926 3.490617 33,550 312 408 -576
2019-08-10 11:14:55 GMT 49.038265 3.502037 33,550 312 408 -576
2019-08-10 11:14:51 GMT 49.032913 3.511216 33,600 312 408 -512
2019-08-10 11:14:47 GMT 49.028687 3.518512 33,625 312 407 -512
2019-08-10 11:14:42 GMT 49.022301 3.529430 33,675 312 407 -512
2019-08-10 11:14:38 GMT 49.017746 3.537175 33,975 312 407 -640
2019-08-10 11:14:33 GMT 49.011314 3.548150 33,725 312 407 -576
2019-08-10 11:14:28 GMT 49.004654 3.559500 33,800 312 407 -704
2019-08-10 11:14:24 GMT 48.999023 3.569007 33,825 312 408 -704
2019-08-10 11:14:19 GMT 48.993668 3.578163 33,975 312 409 -640
2019-08-10 11:14:16 GMT 48.989090 3.585980 33,900 312 409 -512
2019-08-10 11:14:13 GMT 48.986435 3.590487 33,925 312 409 -512
2019-08-10 11:14:09 GMT 48.977749 3.605250 33,975 312 409 -64
2019-08-10 11:14:06 GMT 48.977749 3.605250 33,975 312 408 -64
2019-08-10 11:14:00 GMT 48.969742 3.618839 33,975 312 409 -64
2019-08-10 11:13:56 GMT 48.962852 3.630620 34,000 312 410 -64
2019-08-10 11:13:52 GMT 48.958237 3.638447 33,975 312 409 -64
2019-08-10 11:13:48 GMT 48.953476 3.646545 34,000 312 409 -64
2019-08-10 11:13:44 GMT 48.942184 3.665675 34,000 312 410 -64
2019-08-10 11:13:40 GMT 48.939651 3.669997 34,000 312 410 -64
2019-08-10 11:13:32 GMT 48.933289 3.680772 34,000 312 410 -64
2019-08-10 11:13:28 GMT 48.929382 3.687359 34,000 312 410 0
2019-08-10 11:13:22 GMT 48.922119 3.699718 34,000 312 410 0
2019-08-10 11:13:17 GMT 48.913322 3.714608 34,000 312 410 -64
2019-08-10 11:13:12 GMT 48.909714 3.720703 34,000 312 410 0
2019-08-10 11:13:08 GMT 48.904057 3.730364 34,000 312 410 0
2019-08-10 11:13:05 GMT 48.900005 3.737231 34,000 312 410 0
2019-08-10 11:13:02 GMT 48.896515 3.743158 34,000 312 412 -64
2019-08-10 11:12:56 GMT 48.889206 3.755517 34,000 312 412 -64
2019-08-10 11:12:53 GMT 48.884583 3.763310 34,000 312 412 -64
2019-08-10 11:12:50 GMT 48.875427 3.778874 34,000 312 412 -64
2019-08-10 11:12:45 GMT 48.875427 3.778874 34,000 312 412 -64
2019-08-10 11:12:41 GMT 48.863464 3.799029 34,000 312 412 -64
2019-08-10 11:12:36 GMT 48.863464 3.799029 34,000 312 412 -64
2019-08-10 11:12:33 GMT 48.852173 3.818172 34,000 312 413 -64
2019-08-10 11:12:29 GMT 48.852173 3.818172 34,000 312 413 -64
2019-08-10 11:12:25 GMT 48.848511 3.824369 34,000 313 415 -64
2019-08-10 11:12:22 GMT 48.846611 3.827579 34,000 312 413 0
2019-08-10 11:12:19 GMT 48.841259 3.836614 34,000 313 416 0
2019-08-10 11:12:16 GMT 48.832741 3.850997 34,000 313 415 -64
2019-08-10 11:12:12 GMT 48.832741 3.850997 34,000 313 416 -64
2019-08-10 11:12:08 GMT 48.827805 3.859237 34,000 313 414 0
2019-08-10 11:12:02 GMT 48.820724 3.871131 34,000 313 415 -64
2019-08-10 11:11:57 GMT 48.814396 3.881788 34,000 313 416 0
2019-08-10 11:11:54 GMT 48.810059 3.889090 34,000 312 415 0
2019-08-10 11:11:51 GMT 48.806206 3.895593 34,000 312 415 0
2019-08-10 11:11:48 GMT 48.802917 3.901132 34,000 312 415 -64
2019-08-10 11:11:44 GMT 48.796894 3.911205 34,000 313 416 -64
2019-08-10 11:11:41 GMT 48.791199 3.920781 34,000 313 416 -64
2019-08-10 11:11:34 GMT 48.785023 3.931082 34,000 313 416 0
2019-08-10 11:11:31 GMT 48.779110 3.940984 34,000 313 416 0
2019-08-10 11:11:28 GMT 48.776550 3.945289 34,000 313 416 0
2019-08-10 11:11:23 GMT 48.770782 3.955008 34,000 313 416 0
2019-08-10 11:11:20 GMT 48.766354 3.962378 34,000 313 416 0
2019-08-10 11:11:17 GMT 48.757004 3.978107 34,000 312 415 0
2019-08-10 11:11:13 GMT 48.757004 3.978107 34,000 313 416 0
2019-08-10 11:11:10 GMT 48.754021 3.983122 34,000 313 416 -64
2019-08-10 11:11:07 GMT 48.740479 4.005714 34,000 312 415 0
2019-08-10 11:11:01 GMT 48.740479 4.005714 34,000 313 416 -64
2019-08-10 11:10:57 GMT 48.727615 4.027194 34,000 312 415 0
2019-08-10 11:10:51 GMT 48.727615 4.027194 34,000 312 415 -64
2019-08-10 11:10:47 GMT 48.724319 4.032705 34,000 313 415 -64
2019-08-10 11:10:44 GMT 48.720222 4.039572 34,000 313 415 0
2019-08-10 11:10:40 GMT 48.715519 4.047378 34,000 313 415 -64
2019-08-10 11:10:37 GMT 48.710587 4.055645 34,000 313 415 0
2019-08-10 11:10:33 GMT 48.705368 4.064308 34,000 312 415 0
2019-08-10 11:10:28 GMT 48.696667 4.078891 34,000 313 415 0
2019-08-10 11:10:23 GMT 48.692711 4.085468 34,000 313 415 0
2019-08-10 11:10:19 GMT 48.686703 4.095515 34,000 313 415 64
2019-08-10 11:10:16 GMT 48.683956 4.100069 34,000 313 415 0
2019-08-10 11:10:12 GMT 48.676090 4.113223 34,000 313 415 64
2019-08-10 11:10:08 GMT 48.674057 4.116633 34,000 313 415 64
2019-08-10 11:10:04 GMT 48.667294 4.127968 33,975 313 416 0
2019-08-10 11:09:58 GMT 48.661148 4.138184 33,975 312 415 -64
2019-08-10 11:09:54 GMT 48.655144 4.148278 34,000 312 415 -64
2019-08-10 11:09:51 GMT 48.650986 4.155297 34,000 313 414 -640
2019-08-10 11:09:48 GMT 48.648579 4.159337 34,000 313 414 -64
2019-08-10 11:09:45 GMT 48.642792 4.169030 34,000 313 414 -128
2019-08-10 11:09:41 GMT 48.639542 4.174453 34,000 313 414 -640
2019-08-10 11:09:38 GMT 48.634613 4.182683 34,025 313 412 -256
2019-08-10 11:09:35 GMT 48.631027 4.188682 34,025 313 413 -256
2019-08-10 11:09:32 GMT 48.625992 4.197129 34,025 313 414 -576
2019-08-10 11:09:28 GMT 48.622284 4.203256 34,050 313 416 -1024
2019-08-10 11:09:25 GMT 48.618225 4.210004 34,050 304 409 -1024
2019-08-10 11:09:21 GMT 48.613293 4.218244 34,075 313 421 -1024
2019-08-10 11:09:16 GMT 48.605392 4.231356 34,100 313 416 -1024
2019-08-10 11:09:10 GMT 48.598434 4.242906 34,250 313 417 -1024
2019-08-10 11:09:06 GMT 48.593971 4.250336 34,300 313 417 -1024
2019-08-10 11:09:01 GMT 48.587036 4.261780 34,375 313 419 -1024
2019-08-10 11:08:55 GMT 48.573395 4.284316 34,575 312 416 -1024
2019-08-10 11:08:51 GMT 48.573395 4.284316 34,575 313 421 -1024
2019-08-10 11:08:45 GMT 48.565807 4.296811 34,675 313 423 -1024
2019-08-10 11:08:40 GMT 48.558197 4.309317 34,750 313 424 -1024
2019-08-10 11:08:34 GMT 48.552292 4.319106 35,150 313 426 -960
2019-08-10 11:08:26 GMT 48.540901 4.337793 34,950 313 426 -960
2019-08-10 11:08:22 GMT 48.536060 4.345671 35,325 313 425 -896
2019-08-10 11:08:18 GMT 48.530102 4.355429 35,075 313 426 -960
2019-08-10 11:08:12 GMT 48.521351 4.369740 35,150 313 426 -960
2019-08-10 11:08:07 GMT 48.515858 4.378702 35,250 313 425 -896
2019-08-10 11:08:01 GMT 48.507896 4.391640 35,325 313 425 -960
2019-08-10 11:07:57 GMT 48.494797 4.412983 35,700 309 417 -1024
2019-08-10 11:07:51 GMT 48.494797 4.412983 35,700 309 417 -1024
2019-08-10 11:07:44 GMT 48.486282 4.428124 35,650 309 418 -1024
2019-08-10 11:07:41 GMT 48.482483 4.435448 35,950 304 408 0
2019-08-10 11:07:38 GMT 48.478821 4.442843 35,825 305 410 -1024
2019-08-10 11:07:34 GMT 48.473682 4.453872 35,800 305 410 -1024
2019-08-10 11:07:30 GMT 48.469910 4.462473 35,825 304 410 -704
2019-08-10 11:07:24 GMT 48.464603 4.474616 35,900 304 410 -704
2019-08-10 11:07:20 GMT 48.460190 4.484816 35,975 304 408 -64
2019-08-10 11:07:17 GMT 48.457062 4.491963 36,000 304 409 -256
2019-08-10 11:07:13 GMT 48.453060 4.501142 36,000 304 408 0
2019-08-10 11:07:07 GMT 48.446449 4.516320 36,000 304 408 0
2019-08-10 11:07:04 GMT 48.442722 4.524849 36,000 304 408 0
2019-08-10 11:07:00 GMT 48.432999 4.547143 36,000 304 408 0
2019-08-10 11:06:54 GMT 48.432999 4.547143 36,000 304 407 0
2019-08-10 11:06:50 GMT 48.429504 4.555206 36,000 304 407 0
2019-08-10 11:06:45 GMT 48.424164 4.567284 36,000 304 409 -64
2019-08-10 11:06:42 GMT 48.415771 4.586575 36,000 304 409 -64
2019-08-10 11:06:36 GMT 48.413589 4.591440 36,000 304 409 -64
2019-08-10 11:06:32 GMT 48.409115 4.601681 36,000 304 409 0
2019-08-10 11:06:27 GMT 48.403900 4.613607 36,000 304 409 -64
2019-08-10 11:06:23 GMT 48.397018 4.629399 36,000 304 408 0
2019-08-10 11:06:20 GMT 48.393585 4.637146 36,000 304 409 -64
2019-08-10 11:06:16 GMT 48.393585 4.637146 36,000 304 409 0
2019-08-10 11:06:12 GMT 48.389877 4.645667 36,000 304 409 0
2019-08-10 11:06:09 GMT 48.385883 4.654734 36,000 304 409 -64
2019-08-10 11:06:06 GMT 48.380112 4.667888 35,975 304 408 0
2019-08-10 11:06:00 GMT 48.376099 4.677007 36,000 304 408 0
2019-08-10 11:05:56 GMT 48.372803 4.684542 35,975 304 409 -64
2019-08-10 11:05:52 GMT 48.369267 4.692608 35,975 304 408 0
2019-08-10 11:05:49 GMT 48.361725 4.709738 35,975 304 409 -64
2019-08-10 11:05:45 GMT 48.361725 4.709738 35,975 304 409 -64
2019-08-10 11:05:41 GMT 48.357056 4.720459 35,975 304 409 -64
2019-08-10 11:05:37 GMT 48.353764 4.727952 36,000 304 409 -64
2019-08-10 11:05:34 GMT 48.350006 4.736516 36,000 304 409 -64
2019-08-10 11:05:31 GMT 48.346874 4.743636 35,975 304 408 -64
2019-08-10 11:05:27 GMT 48.342216 4.754189 36,000 304 408 -64
2019-08-10 11:05:21 GMT 48.336227 4.767855 36,000 304 408 -64
2019-08-10 11:05:17 GMT 48.332016 4.777433 36,000 304 409 -64
2019-08-10 11:05:14 GMT 48.329369 4.783462 36,000 304 409 -64
2019-08-10 11:05:11 GMT 48.326019 4.791051 36,000 304 409 -64
2019-08-10 11:05:06 GMT 48.321167 4.802082 36,000 304 409 -64
2019-08-10 11:05:03 GMT 48.317547 4.810205 36,000 304 409 -64
2019-08-10 11:05:00 GMT 48.311142 4.824759 36,000 304 409 -64
2019-08-10 11:04:54 GMT 48.306885 4.834418 36,000 304 409 -64
2019-08-10 11:04:50 GMT 48.304230 4.840489 36,000 304 409 -64
2019-08-10 11:04:45 GMT 48.294174 4.863113 36,000 304 409 0
2019-08-10 11:04:41 GMT 48.294174 4.863113 36,000 304 409 0
2019-08-10 11:04:38 GMT 48.292175 4.867666 36,000 304 409 0
2019-08-10 11:04:35 GMT 48.288162 4.876732 36,000 304 410 0
2019-08-10 11:04:30 GMT 48.282349 4.889832 36,000 304 410 -64
2019-08-10 11:04:27 GMT 48.280350 4.894337 36,025 304 410 -64
2019-08-10 11:04:23 GMT 48.270493 4.916593 36,000 304 410 -64
2019-08-10 11:04:19 GMT 48.265312 4.928236 36,000 304 410 -64
2019-08-10 11:04:13 GMT 48.265312 4.928236 36,000 304 411 -64
2019-08-10 11:04:10 GMT 48.262428 4.934741 36,000 304 411 -64
2019-08-10 11:04:06 GMT 48.257725 4.945366 36,025 304 411 -64
2019-08-10 11:03:59 GMT 48.250977 4.960544 36,025 304 411 -64
2019-08-10 11:03:56 GMT 48.248043 4.967049 36,000 304 411 -64
2019-08-10 11:03:51 GMT 48.242176 4.980204 36,025 304 411 -64
2019-08-10 11:03:48 GMT 48.238632 4.988286 36,025 304 411 -64
2019-08-10 11:03:41 GMT 48.229889 5.007935 36,025 304 412 -64
2019-08-10 11:03:36 GMT 48.226685 5.015118 36,025 304 412 0
2019-08-10 11:03:33 GMT 48.223091 5.023209 36,025 304 412 0
2019-08-10 11:03:26 GMT 48.212494 5.047021 36,025 304 412 0
2019-08-10 11:03:23 GMT 48.212494 5.047021 36,025 304 412 64
2019-08-10 11:03:19 GMT 48.207542 5.058048 36,025 304 412 0
2019-08-10 11:03:16 GMT 48.205029 5.063685 36,000 304 412 0
2019-08-10 11:03:12 GMT 48.200790 5.073226 36,025 304 412 0
2019-08-10 11:03:06 GMT 48.194416 5.087465 36,025 304 413 0
2019-08-10 11:03:01 GMT 48.189667 5.098090 36,000 304 413 64
2019-08-10 11:02:58 GMT 48.186035 5.106178 36,025 304 413 0
2019-08-10 11:02:53 GMT 48.180634 5.118291 36,000 304 413 0
2019-08-10 11:02:49 GMT 48.176537 5.127435 36,000 304 413 64
2019-08-10 11:02:46 GMT 48.173141 5.135024 36,000 304 414 64
2019-08-10 11:02:42 GMT 48.169052 5.144137 36,000 304 414 64
2019-08-10 11:02:39 GMT 48.166077 5.150686 35,975 304 414 64
2019-08-10 11:02:36 GMT 48.161636 5.160687 35,975 304 415 0
2019-08-10 11:02:32 GMT 48.158337 5.168011 35,975 304 415 0
2019-08-10 11:02:28 GMT 48.154007 5.177589 35,975 304 415 0
2019-08-10 11:02:25 GMT 48.150833 5.184723 35,975 304 415 0
2019-08-10 11:02:21 GMT 48.147209 5.192871 35,975 304 415 0
2019-08-10 11:02:16 GMT 48.140835 5.207027 35,975 304 415 0
2019-08-10 11:02:10 GMT 48.135620 5.218717 35,975 304 413 -64
2019-08-10 11:02:07 GMT 48.131290 5.228365 35,975 304 414 0
2019-08-10 11:02:03 GMT 48.122444 5.248155 35,975 304 414 0
2019-08-10 11:01:58 GMT 48.122444 5.248155 35,975 304 413 0
2019-08-10 11:01:53 GMT 48.110714 5.274353 35,950 304 413 0
2019-08-10 11:01:48 GMT 48.110714 5.274353 35,975 304 413 0
2019-08-10 11:01:43 GMT 48.105194 5.286690 35,950 304 413 0
2019-08-10 11:01:39 GMT 48.098877 5.300766 35,950 304 413 0
2019-08-10 11:01:33 GMT 48.095490 5.308368 35,975 304 413 -64
2019-08-10 11:01:29 GMT 48.092102 5.315941 35,950 304 413 -64
2019-08-10 11:01:26 GMT 48.088669 5.323563 35,950 304 413 -64
2019-08-10 11:01:21 GMT 48.083435 5.335200 35,975 304 413 -64
2019-08-10 11:01:18 GMT 48.079834 5.343269 35,975 304 412 -128
2019-08-10 11:01:15 GMT 48.076447 5.350822 35,975 304 413 -128
2019-08-10 11:01:12 GMT 48.072540 5.359427 35,975 305 414 0
2019-08-10 11:01:08 GMT 48.068954 5.367455 36,000 304 413 -128
2019-08-10 11:01:05 GMT 48.066025 5.374005 36,000 304 413 -128
2019-08-10 11:01:02 GMT 48.061649 5.383653 36,000 304 413 -64
2019-08-10 11:00:57 GMT 48.057129 5.393669 36,025 304 413 -64
2019-08-10 11:00:54 GMT 48.049164 5.411316 36,000 305 414 0
2019-08-10 11:00:49 GMT 48.049164 5.411316 36,000 304 413 -64
2019-08-10 11:00:46 GMT 48.045540 5.419358 36,000 304 413 -64
2019-08-10 11:00:43 GMT 48.042343 5.426422 36,025 305 414 -64
2019-08-10 11:00:39 GMT 48.038040 5.435966 36,025 304 409 -64
2019-08-10 11:00:36 GMT 48.035717 5.441120 36,025 305 414 -64
2019-08-10 11:00:33 GMT 48.032501 5.448189 36,025 305 414 -64
2019-08-10 11:00:30 GMT 48.025223 5.464256 36,025 305 414 0
2019-08-10 11:00:27 GMT 48.025223 5.464256 36,025 305 414 0
2019-08-10 11:00:24 GMT 48.022522 5.470299 36,025 305 415 0
2019-08-10 11:00:21 GMT 48.018814 5.478401 36,025 304 414 0
2019-08-10 11:00:17 GMT 48.014725 5.487389 36,025 304 414 0
2019-08-10 11:00:14 GMT 48.011326 5.494995 36,025 305 415 0
2019-08-10 11:00:10 GMT 48.006901 5.504643 36,025 305 415 0
2019-08-10 11:00:05 GMT 48.001648 5.516304 36,025 305 415 0
2019-08-10 11:00:00 GMT 47.996147 5.528306 36,025 305 416 0
2019-08-10 10:59:55 GMT 47.989956 5.541969 35,975 305 419 0
2019-08-10 10:59:52 GMT 47.987869 5.546654 36,000 304 417 0
2019-08-10 10:59:48 GMT 47.983765 5.555702 36,000 304 417 0
2019-08-10 10:59:44 GMT 47.978458 5.567392 36,000 305 419 0
2019-08-10 10:59:41 GMT 47.975739 5.573502 36,000 305 419 0
2019-08-10 10:59:38 GMT 47.973175 5.579063 36,000 305 417 0
2019-08-10 10:59:33 GMT 47.966263 5.594307 36,025 304 418 0
2019-08-10 10:59:27 GMT 47.961456 5.605019 36,000 304 418 0
2019-08-10 10:59:24 GMT 47.956577 5.615704 36,000 305 419 0
2019-08-10 10:59:19 GMT 47.951736 5.626338 36,000 305 419 0
2019-08-10 10:59:15 GMT 47.947586 5.635506 36,000 305 419 0
2019-08-10 10:59:11 GMT 47.942986 5.645635 36,000 305 419 0
2019-08-10 10:59:08 GMT 47.933716 5.666061 36,000 305 419 0
2019-08-10 10:59:03 GMT 47.931610 5.670593 36,000 305 419 0
2019-08-10 10:58:57 GMT 47.928833 5.676692 36,000 305 419 0
2019-08-10 10:58:52 GMT 47.921677 5.692291 35,975 305 421 0
2019-08-10 10:58:49 GMT 47.918594 5.699087 35,975 305 421 0
2019-08-10 10:58:46 GMT 47.911610 5.714370 35,975 305 421 0
2019-08-10 10:58:42 GMT 47.911610 5.714370 36,025 305 421 -64
2019-08-10 10:58:39 GMT 47.908539 5.721060 35,975 305 421 -64
2019-08-10 10:58:36 GMT 47.904831 5.729164 35,975 305 421 -64
2019-08-10 10:58:33 GMT 47.902725 5.733765 35,975 305 421 -64
2019-08-10 10:58:30 GMT 47.899246 5.741386 36,000 305 421 -64
2019-08-10 10:58:26 GMT 47.894073 5.752647 36,000 305 421 -64
2019-08-10 10:58:23 GMT 47.890335 5.760780 36,000 305 421 -64
2019-08-10 10:58:20 GMT 47.887543 5.766907 36,000 305 421 -64
2019-08-10 10:58:17 GMT 47.884323 5.774002 36,000 305 421 -64
2019-08-10 10:58:14 GMT 47.881256 5.780640 36,000 305 421 -64
2019-08-10 10:58:11 GMT 47.876926 5.790077 36,000 305 421 -64
2019-08-10 10:58:04 GMT 47.871017 5.802964 36,000 305 421 -64
2019-08-10 10:58:01 GMT 47.866791 5.812111 36,025 305 420 -64
2019-08-10 10:57:58 GMT 47.862579 5.821381 36,025 305 420 -64
2019-08-10 10:57:54 GMT 47.858643 5.829964 36,025 305 420 -64
2019-08-10 10:57:50 GMT 47.855118 5.837585 36,025 305 420 -64
2019-08-10 10:57:46 GMT 47.850677 5.847198 36,025 305 420 0
2019-08-10 10:57:43 GMT 47.848114 5.852829 36,025 305 420 0
2019-08-10 10:57:40 GMT 47.844387 5.860924 36,025 305 420 0
2019-08-10 10:57:37 GMT 47.840385 5.869587 36,025 305 421 0
2019-08-10 10:57:34 GMT 47.836670 5.877754 36,025 305 421 -64
2019-08-10 10:57:31 GMT 47.834106 5.883385 36,025 305 421 -64
2019-08-10 10:57:28 GMT 47.829865 5.892545 36,025 305 421 -64
2019-08-10 10:57:25 GMT 47.827538 5.897545 36,025 305 421 -64
2019-08-10 10:57:21 GMT 47.823765 5.905785 36,025 305 422 -64
2019-08-10 10:57:18 GMT 47.816483 5.921494 36,025 305 422 -64
2019-08-10 10:57:15 GMT 47.816483 5.921494 36,025 305 422 -64
2019-08-10 10:57:12 GMT 47.813198 5.928673 36,025 305 423 -64
2019-08-10 10:57:07 GMT 47.807285 5.941420 36,025 305 422 -64
2019-08-10 10:57:04 GMT 47.804726 5.946984 36,050 305 423 -64
2019-08-10 10:56:59 GMT 47.798813 5.959671 36,050 305 423 -64
2019-08-10 10:56:55 GMT 47.793320 5.971344 36,050 306 423 0
2019-08-10 10:56:49 GMT 47.787407 5.984028 36,050 306 423 0
2019-08-10 10:56:44 GMT 47.781868 5.995789 36,025 306 424 0
2019-08-10 10:56:40 GMT 47.777538 6.004873 36,025 306 425 64
2019-08-10 10:56:36 GMT 47.773178 6.014053 36,025 306 425 64
2019-08-10 10:56:33 GMT 47.769104 6.022568 36,025 306 425 0
2019-08-10 10:56:30 GMT 47.765900 6.029228 36,025 306 426 0
2019-08-10 10:56:26 GMT 47.762085 6.037339 36,025 306 425 0
2019-08-10 10:56:23 GMT 47.758453 6.045016 36,025 303 422 0
2019-08-10 10:56:20 GMT 47.755692 6.051201 36,025 303 422 0
2019-08-10 10:56:17 GMT 47.752586 6.058537 36,025 301 418 -64
2019-08-10 10:56:11 GMT 47.746582 6.075096 36,025 295 411 0
2019-08-10 10:56:07 GMT 47.743603 6.084947 36,025 292 407 0
2019-08-10 10:55:59 GMT 47.736465 6.115677 36,025 287 400 0
2019-08-10 10:55:51 GMT 47.733902 6.128517 36,025 287 401 64
2019-08-10 10:55:47 GMT 47.731590 6.140090 36,000 287 401 64
2019-08-10 10:55:43 GMT 47.729828 6.148773 36,000 287 401 0
2019-08-10 10:55:40 GMT 47.728054 6.157696 36,000 287 400 0
2019-08-10 10:55:37 GMT 47.726192 6.166781 36,000 287 401 0
2019-08-10 10:55:34 GMT 47.724655 6.174598 36,000 287 401 0
2019-08-10 10:55:31 GMT 47.723400 6.180796 36,000 287 401 0
2019-08-10 10:55:27 GMT 47.719440 6.200303 36,000 287 401 0
2019-08-10 10:55:24 GMT 47.719440 6.200303 36,000 287 401 64
2019-08-10 10:55:21 GMT 47.716232 6.216202 36,000 287 401 64
2019-08-10 10:55:18 GMT 47.716232 6.216202 36,000 287 401 64
2019-08-10 10:55:15 GMT 47.714539 6.224579 36,000 287 401 0
2019-08-10 10:55:11 GMT 47.713158 6.231361 36,000 287 401 0
2019-08-10 10:55:08 GMT 47.711250 6.240939 36,000 287 401 0
2019-08-10 10:55:05 GMT 47.707806 6.257770 35,975 287 401 0
2019-08-10 10:54:57 GMT 47.705570 6.268968 35,975 287 401 0
2019-08-10 10:54:54 GMT 47.703964 6.276833 35,975 287 400 0
2019-08-10 10:54:51 GMT 47.702591 6.283562 35,975 287 401 0
2019-08-10 10:54:47 GMT 47.700119 6.295853 35,975 287 400 64
2019-08-10 10:54:44 GMT 47.697048 6.311012 35,975 287 400 0
2019-08-10 10:54:41 GMT 47.695095 6.320590 35,975 287 400 0
2019-08-10 10:54:38 GMT 47.694077 6.325653 35,975 287 400 0
2019-08-10 10:54:35 GMT 47.692257 6.334604 35,975 287 400 0
2019-08-10 10:54:32 GMT 47.692257 6.334604 35,975 287 400 0
2019-08-10 10:54:29 GMT 47.690689 6.342476 35,975 287 400 0
2019-08-10 10:54:25 GMT 47.688858 6.351471 35,975 287 400 0
2019-08-10 10:54:22 GMT 47.686577 6.362633 35,975 287 400 0
2019-08-10 10:54:16 GMT 47.683178 6.379465 35,975 287 400 0
2019-08-10 10:54:13 GMT 47.682404 6.383331 35,975 287 400 0
2019-08-10 10:54:10 GMT 47.680340 6.393409 35,975 287 400 0
2019-08-10 10:54:07 GMT 47.678787 6.401253 35,975 287 400 0
2019-08-10 10:54:04 GMT 47.676891 6.410663 35,975 287 400 -64
2019-08-10 10:54:01 GMT 47.675449 6.417565 35,975 287 400 -64
2019-08-10 10:53:57 GMT 47.673660 6.426453 35,975 287 400 -64
2019-08-10 10:53:54 GMT 47.671967 6.434898 35,975 287 400 -128
2019-08-10 10:53:50 GMT 47.667164 6.458341 36,025 288 403 0
2019-08-10 10:53:45 GMT 47.667164 6.458341 36,000 287 400 -64
2019-08-10 10:53:42 GMT 47.665558 6.466209 36,000 287 400 -64
2019-08-10 10:53:39 GMT 47.663765 6.475173 36,000 287 400 -64
2019-08-10 10:53:35 GMT 47.661118 6.488045 36,000 287 400 -64
2019-08-10 10:53:31 GMT 47.659653 6.495255 36,000 287 400 -64
2019-08-10 10:53:28 GMT 47.657959 6.503632 36,000 287 400 -64
2019-08-10 10:53:24 GMT 47.656219 6.512009 36,025 287 400 -64
2019-08-10 10:53:20 GMT 47.653839 6.523750 36,025 287 401 -64
2019-08-10 10:53:17 GMT 47.652328 6.531029 36,025 287 401 -64
2019-08-10 10:53:14 GMT 47.648544 6.549471 36,025 287 401 -64
2019-08-10 10:53:11 GMT 47.648544 6.549471 36,025 287 401 -64
2019-08-10 10:53:06 GMT 47.646030 6.561866 36,025 287 401 0
2019-08-10 10:53:03 GMT 47.644547 6.569069 36,025 287 401 -64
2019-08-10 10:53:00 GMT 47.642670 6.578133 36,025 287 401 0
2019-08-10 10:52:54 GMT 47.639832 6.592072 36,025 287 402 0
2019-08-10 10:52:51 GMT 47.637882 6.601445 36,025 287 402 0
2019-08-10 10:52:48 GMT 47.636581 6.607727 36,025 287 402 0
2019-08-10 10:52:43 GMT 47.633835 6.621254 36,025 287 402 0
2019-08-10 10:52:39 GMT 47.631409 6.632996 36,025 288 402 0
2019-08-10 10:52:34 GMT 47.629318 6.643137 36,025 288 402 0
2019-08-10 10:52:31 GMT 47.627472 6.652084 36,025 287 403 0
2019-08-10 10:52:28 GMT 47.625504 6.661629 36,025 288 402 0
2019-08-10 10:52:23 GMT 47.623398 6.671722 36,025 288 402 0
2019-08-10 10:52:19 GMT 47.620518 6.685603 36,025 288 402 0
2019-08-10 10:52:16 GMT 47.619587 6.690251 36,025 288 402 0
2019-08-10 10:52:12 GMT 47.616653 6.704266 36,025 287 403 0
2019-08-10 10:52:09 GMT 47.614700 6.713882 36,025 287 403 0
2019-08-10 10:52:01 GMT 47.610947 6.731873 36,025 287 403 0
2019-08-10 10:51:58 GMT 47.609665 6.738052 36,025 287 403 0
2019-08-10 10:51:55 GMT 47.607811 6.747014 36,000 287 403 0
2019-08-10 10:51:52 GMT 47.605499 6.758240 36,000 287 403 0
2019-08-10 10:51:48 GMT 47.603302 6.768951 36,000 287 403 0
2019-08-10 10:51:45 GMT 47.602478 6.772865 36,000 288 403 0
2019-08-10 10:51:42 GMT 47.600639 6.781804 36,000 287 403 0
2019-08-10 10:51:39 GMT 47.596870 6.799903 36,000 288 403 0
2019-08-10 10:51:36 GMT 47.596870 6.799903 36,000 287 403 0
2019-08-10 10:51:33 GMT 47.595707 6.805467 36,000 288 403 0
2019-08-10 10:51:29 GMT 47.593613 6.815608 36,000 288 403 0
2019-08-10 10:51:26 GMT 47.591537 6.825737 36,000 288 403 0
2019-08-10 10:51:22 GMT 47.590118 6.832440 36,000 288 403 0
2019-08-10 10:51:19 GMT 47.587654 6.844271 36,000 288 403 0
2019-08-10 10:51:16 GMT 47.585449 6.854851 36,000 287 400 0
2019-08-10 10:51:13 GMT 47.584579 6.858920 36,000 288 403 0
2019-08-10 10:51:08 GMT 47.581554 6.873427 36,000 288 403 0
2019-08-10 10:51:05 GMT 47.580112 6.880399 36,000 288 403 0
2019-08-10 10:51:02 GMT 47.578575 6.887653 36,000 288 404 0
2019-08-10 10:50:57 GMT 47.574371 6.907860 36,000 288 404 -64
2019-08-10 10:50:51 GMT 47.572708 6.915823 36,000 288 404 -64
2019-08-10 10:50:48 GMT 47.570709 6.925260 36,000 288 404 -64
2019-08-10 10:50:45 GMT 47.568939 6.933711 36,000 288 404 -64
2019-08-10 10:50:41 GMT 47.566818 6.943840 36,000 288 403 0
2019-08-10 10:50:37 GMT 47.565033 6.952286 36,000 288 404 0
2019-08-10 10:50:34 GMT 47.563122 6.961318 36,000 288 404 0
2019-08-10 10:50:30 GMT 47.560410 6.974258 36,000 288 404 0
2019-08-10 10:50:26 GMT 47.558651 6.982586 36,000 288 404 0
2019-08-10 10:50:23 GMT 47.556881 6.990967 36,000 288 403 0
2019-08-10 10:50:19 GMT 47.554871 7.000557 36,000 288 403 0
2019-08-10 10:50:16 GMT 47.552856 7.010101 36,000 288 403 0
2019-08-10 10:50:13 GMT 47.549713 7.025264 36,000 288 403 0
2019-08-10 10:50:10 GMT 47.549713 7.025264 36,000 288 403 0
2019-08-10 10:50:07 GMT 47.548267 7.032025 36,000 288 403 0
2019-08-10 10:50:04 GMT 47.547012 7.038152 36,000 288 403 0
2019-08-10 10:50:01 GMT 47.544891 7.048210 36,000 288 403 0
2019-08-10 10:49:57 GMT 47.542740 7.058441 36,000 288 403 0
2019-08-10 10:49:54 GMT 47.541008 7.066744 36,000 288 403 0
2019-08-10 10:49:51 GMT 47.539471 7.074139 35,975 288 403 0
2019-08-10 10:49:48 GMT 47.537292 7.084602 36,000 288 403 0
2019-08-10 10:49:45 GMT 47.535828 7.091537 36,000 288 404 -64
2019-08-10 10:49:42 GMT 47.534546 7.097717 36,000 288 404 -64
2019-08-10 10:49:39 GMT 47.532349 7.108154 36,000 288 404 -64
2019-08-10 10:49:36 GMT 47.530975 7.114609 36,000 288 404 0
2019-08-10 10:49:33 GMT 47.528137 7.128067 36,000 288 404 0
2019-08-10 10:49:27 GMT 47.526169 7.137543 36,000 288 404 0
2019-08-10 10:49:24 GMT 47.523689 7.149212 36,000 288 404 0
2019-08-10 10:49:21 GMT 47.522827 7.153336 36,000 288 404 0
2019-08-10 10:49:18 GMT 47.521362 7.160058 36,000 288 404 0
2019-08-10 10:49:15 GMT 47.519592 7.168438 36,000 288 404 0
2019-08-10 10:49:12 GMT 47.517929 7.176338 36,000 288 404 0
2019-08-10 10:49:09 GMT 47.516281 7.184166 35,975 288 404 64
2019-08-10 10:49:06 GMT 47.514378 7.193087 35,975 288 404 0
2019-08-10 10:49:03 GMT 47.512711 7.200989 35,975 288 404 0
2019-08-10 10:49:00 GMT 47.510700 7.210341 35,975 288 404 0
2019-08-10 10:48:57 GMT 47.509552 7.215752 35,975 288 405 0
2019-08-10 10:48:54 GMT 47.507442 7.225764 35,975 288 405 0
2019-08-10 10:48:51 GMT 47.505524 7.234703 35,975 288 405 -64
2019-08-10 10:48:47 GMT 47.504196 7.240952 35,975 288 404 0
2019-08-10 10:48:44 GMT 47.501633 7.253036 35,975 288 405 -64
2019-08-10 10:48:41 GMT 47.499901 7.261188 35,975 288 404 0
2019-08-10 10:48:35 GMT 47.495224 7.283043 35,975 288 404 0
2019-08-10 10:48:32 GMT 47.495224 7.283043 35,975 288 404 0
2019-08-10 10:48:29 GMT 47.493801 7.289781 35,975 288 404 0
2019-08-10 10:48:26 GMT 47.492500 7.295908 35,975 288 404 0
2019-08-10 10:48:23 GMT 47.490372 7.305977 35,975 288 404 0
2019-08-10 10:48:19 GMT 47.487659 7.318726 35,975 288 404 0
2019-08-10 10:48:16 GMT 47.486633 7.323444 35,975 288 404 0
2019-08-10 10:48:13 GMT 47.483917 7.336189 35,975 288 404 0
2019-08-10 10:48:10 GMT 47.482910 7.340790 35,975 288 404 0
2019-08-10 10:48:07 GMT 47.481400 7.348068 35,975 288 404 0
2019-08-10 10:48:04 GMT 47.479698 7.355981 35,975 288 404 0
2019-08-10 10:48:01 GMT 47.477783 7.364891 35,975 288 404 0
2019-08-10 10:47:57 GMT 47.475769 7.374504 35,975 288 404 0
2019-08-10 10:47:54 GMT 47.474297 7.381193 35,975 288 404 0
2019-08-10 10:47:51 GMT 47.471924 7.392494 35,975 288 404 0
2019-08-10 10:47:48 GMT 47.471180 7.395841 35,975 288 404 0
2019-08-10 10:47:45 GMT 47.468666 7.407602 35,975 288 404 0
2019-08-10 10:47:42 GMT 47.467361 7.413729 35,975 288 404 0
2019-08-10 10:47:39 GMT 47.465195 7.423805 35,975 288 404 0
2019-08-10 10:47:35 GMT 47.460983 7.443449 35,975 288 404 0
2019-08-10 10:47:32 GMT 47.460983 7.443449 35,975 288 404 0
2019-08-10 10:47:29 GMT 47.460148 7.447392 35,975 288 404 0
2019-08-10 10:47:26 GMT 47.458702 7.454083 35,975 288 405 0
2019-08-10 10:47:23 GMT 47.457119 7.461477 35,975 288 405 0
2019-08-10 10:47:20 GMT 47.455070 7.470914 35,975 288 406 0
2019-08-10 10:47:17 GMT 47.453117 7.479999 35,975 288 406 -64
2019-08-10 10:47:14 GMT 47.451187 7.488968 35,975 288 407 -64
2019-08-10 10:47:11 GMT 47.449402 7.497345 35,975 288 406 -64
2019-08-10 10:47:08 GMT 47.447617 7.505585 35,975 288 406 -64
2019-08-10 10:47:05 GMT 47.446507 7.510845 35,975 288 407 -64
2019-08-10 10:47:02 GMT 47.444046 7.522133 35,975 288 407 -64
2019-08-10 10:46:59 GMT 47.442551 7.529226 35,975 288 407 -64
2019-08-10 10:46:56 GMT 47.441757 7.532818 35,975 288 407 -64
2019-08-10 10:46:53 GMT 47.439709 7.542396 35,975 288 407 -64
2019-08-10 10:46:50 GMT 47.438126 7.549720 35,975 288 407 -64
2019-08-10 10:46:47 GMT 47.436447 7.557632 35,975 288 407 -64
2019-08-10 10:46:43 GMT 47.433655 7.570541 35,975 288 407 -64
2019-08-10 10:46:40 GMT 47.431980 7.578454 36,000 288 407 -64
2019-08-10 10:46:37 GMT 47.429672 7.589012 36,000 288 407 -64
2019-08-10 10:46:34 GMT 47.429050 7.591975 36,000 288 407 -64
2019-08-10 10:46:30 GMT 47.426208 7.605004 36,000 288 408 0
2019-08-10 10:46:27 GMT 47.424347 7.613807 36,000 288 408 0
2019-08-10 10:46:23 GMT 47.422943 7.620255 36,000 288 408 0
2019-08-10 10:46:19 GMT 47.420113 7.633244 36,000 288 408 0
2019-08-10 10:46:16 GMT 47.418530 7.640569 36,000 288 408 -64
2019-08-10 10:46:13 GMT 47.416672 7.649025 36,000 288 409 0
2019-08-10 10:46:10 GMT 47.414989 7.656907 36,000 288 409 0
2019-08-10 10:46:06 GMT 47.412643 7.667702 36,000 288 410 0
2019-08-10 10:46:03 GMT 47.411407 7.673332 36,000 288 409 -64
2019-08-10 10:46:00 GMT 47.409210 7.683563 36,000 288 410 -64
2019-08-10 10:45:57 GMT 47.405727 7.699374 36,000 288 411 -64
2019-08-10 10:45:54 GMT 47.405727 7.699374 36,000 288 411 -64
2019-08-10 10:45:51 GMT 47.403992 7.707390 36,000 288 412 -64
2019-08-10 10:45:48 GMT 47.402283 7.715360 36,000 288 411 -64
2019-08-10 10:45:45 GMT 47.400787 7.722221 36,025 288 412 -64
2019-08-10 10:45:42 GMT 47.399071 7.730149 36,025 288 412 -64
2019-08-10 10:45:39 GMT 47.397034 7.739319 36,025 288 412 -64
2019-08-10 10:45:36 GMT 47.395298 7.747192 36,025 288 412 -64
2019-08-10 10:45:33 GMT 47.393948 7.753531 36,025 288 412 -64
2019-08-10 10:45:30 GMT 47.391953 7.762596 36,025 288 412 -64
2019-08-10 10:45:27 GMT 47.388474 7.778664 36,025 288 412 0
2019-08-10 10:45:21 GMT 47.386368 7.788277 36,025 288 413 0
2019-08-10 10:45:18 GMT 47.384720 7.795761 36,025 288 413 -64
2019-08-10 10:45:12 GMT 47.381607 7.810043 36,025 288 414 -64
2019-08-10 10:45:09 GMT 47.378860 7.822609 36,025 288 414 -64
2019-08-10 10:45:04 GMT 47.376984 7.831192 36,025 288 414 -64
2019-08-10 10:45:01 GMT 47.375004 7.840435 36,050 288 414 -64
2019-08-10 10:44:57 GMT 47.371975 7.854168 36,050 288 414 -64
2019-08-10 10:44:51 GMT 47.368652 7.869438 36,050 288 415 -64
2019-08-10 10:44:48 GMT 47.366867 7.877609 36,050 288 415 0
2019-08-10 10:44:45 GMT 47.365723 7.882759 36,050 288 415 0
2019-08-10 10:44:41 GMT 47.363342 7.893745 36,050 288 416 0
2019-08-10 10:44:37 GMT 47.360458 7.906929 36,050 288 417 0
2019-08-10 10:44:34 GMT 47.358940 7.913818 36,050 288 417 0
2019-08-10 10:44:31 GMT 47.356659 7.924164 36,050 288 417 0
2019-08-10 10:44:27 GMT 47.354893 7.932270 36,000 288 417 0
2019-08-10 10:44:24 GMT 47.352493 7.943184 36,050 288 417 64
2019-08-10 10:44:20 GMT 47.349632 7.956214 36,050 288 417 0
2019-08-10 10:44:17 GMT 47.348419 7.961586 36,050 288 417 64
2019-08-10 10:44:14 GMT 47.347183 7.967354 36,025 289 417 64
2019-08-10 10:44:11 GMT 47.345394 7.975440 36,025 289 418 64
2019-08-10 10:44:07 GMT 47.343201 7.985275 36,025 289 418 64
2019-08-10 10:44:03 GMT 47.339901 8.000160 36,025 289 418 64
2019-08-10 10:44:00 GMT 47.336105 8.017410 36,025 289 419 0
2019-08-10 10:43:54 GMT 47.334686 8.023893 36,000 289 419 0
2019-08-10 10:43:51 GMT 47.333755 8.027907 36,000 289 419 0
2019-08-10 10:43:48 GMT 47.331711 8.037254 36,000 289 419 0
2019-08-10 10:43:45 GMT 47.329926 8.045219 36,000 289 419 0
2019-08-10 10:43:42 GMT 47.328003 8.053940 36,000 289 419 0
2019-08-10 10:43:39 GMT 47.326031 8.062697 36,000 289 419 0
2019-08-10 10:43:35 GMT 47.320675 8.086853 36,000 289 419 0
2019-08-10 10:43:31 GMT 47.320675 8.086853 36,000 289 419 0
2019-08-10 10:43:28 GMT 47.317703 8.100220 36,000 289 419 0
2019-08-10 10:43:22 GMT 47.315506 8.110039 36,000 289 419 0
2019-08-10 10:43:19 GMT 47.314316 8.115257 36,000 289 419 0
2019-08-10 10:43:16 GMT 47.311295 8.128922 36,000 289 419 0
2019-08-10 10:43:13 GMT 47.310471 8.132561 36,000 288 418 0
2019-08-10 10:43:10 GMT 47.308548 8.141281 36,000 288 418 0
2019-08-10 10:43:07 GMT 47.305389 8.155632 36,025 288 416 64
2019-08-10 10:43:00 GMT 47.302597 8.168335 36,025 288 419 -64
2019-08-10 10:42:57 GMT 47.297836 8.190376 36,025 288 418 -64
2019-08-10 10:42:52 GMT 47.296692 8.195526 36,025 288 418 0
2019-08-10 10:42:46 GMT 47.293957 8.208196 36,025 288 418 -64
2019-08-10 10:42:43 GMT 47.292233 8.216083 36,025 288 417 0
2019-08-10 10:42:40 GMT 47.290417 8.224464 36,025 288 417 0
2019-08-10 10:42:37 GMT 47.289299 8.229605 36,025 288 418 0
2019-08-10 10:42:34 GMT 47.287537 8.237617 36,025 288 418 0
2019-08-10 10:42:31 GMT 47.284927 8.249771 36,025 288 418 0
2019-08-10 10:42:28 GMT 47.283897 8.254395 36,025 288 418 0
2019-08-10 10:42:25 GMT 47.281906 8.263573 36,025 288 418 0
2019-08-10 10:42:22 GMT 47.280128 8.271649 36,025 288 418 0
2019-08-10 10:42:16 GMT 47.276184 8.289528 36,025 288 418 -64
2019-08-10 10:42:13 GMT 47.274902 8.295296 36,025 289 417 0
2019-08-10 10:42:10 GMT 47.272865 8.304467 36,025 289 417 0
2019-08-10 10:42:07 GMT 47.271835 8.309097 36,025 289 417 0
2019-08-10 10:42:04 GMT 47.269329 8.320594 36,025 289 417 0
2019-08-10 10:42:01 GMT 47.267654 8.328130 36,025 288 417 0
2019-08-10 10:41:58 GMT 47.265556 8.337778 36,025 288 417 0
2019-08-10 10:41:55 GMT 47.263882 8.345313 36,025 288 417 0
2019-08-10 10:41:52 GMT 47.262253 8.352779 36,025 288 416 0
2019-08-10 10:41:49 GMT 47.259109 8.367119 36,025 288 416 0
2019-08-10 10:41:46 GMT 47.259109 8.367119 36,025 288 416 0
2019-08-10 10:41:43 GMT 47.257233 8.375702 36,000 288 416 64
2019-08-10 10:41:40 GMT 47.254387 8.388766 36,025 288 416 64
2019-08-10 10:41:37 GMT 47.253479 8.392937 36,000 288 416 64
2019-08-10 10:41:34 GMT 47.252106 8.399259 36,000 288 416 64
2019-08-10 10:41:28 GMT 47.248241 8.417006 36,000 288 415 0
2019-08-10 10:41:25 GMT 47.246750 8.423908 36,000 288 415 0
2019-08-10 10:41:22 GMT 47.244469 8.434331 36,000 288 415 0
2019-08-10 10:41:18 GMT 47.240341 8.453156 36,000 288 414 0
2019-08-10 10:41:15 GMT 47.240341 8.453156 36,000 288 415 0
2019-08-10 10:41:12 GMT 47.238693 8.460640 36,000 288 416 0
2019-08-10 10:41:07 GMT 47.235764 8.474167 36,000 288 414 0
2019-08-10 10:41:04 GMT 47.233810 8.482995 36,000 288 415 0
2019-08-10 10:41:01 GMT 47.233063 8.486389 36,000 288 414 0
2019-08-10 10:40:58 GMT 47.229080 8.504654 36,000 288 414 0
2019-08-10 10:40:55 GMT 47.227291 8.512644 36,000 288 413 0
2019-08-10 10:40:52 GMT 47.227291 8.512644 36,000 288 413 0
2019-08-10 10:40:48 GMT 47.225052 8.522919 36,000 288 413 0
2019-08-10 10:40:44 GMT 47.222076 8.536377 36,000 288 413 0
2019-08-10 10:40:41 GMT 47.220402 8.543983 36,000 288 413 0
2019-08-10 10:40:37 GMT 47.218773 8.551448 36,000 288 413 0
2019-08-10 10:40:34 GMT 47.216766 8.560478 36,000 288 413 0
2019-08-10 10:40:31 GMT 47.214386 8.571259 36,000 288 412 0
2019-08-10 10:40:27 GMT 47.212906 8.578069 36,000 288 413 0
2019-08-10 10:40:24 GMT 47.210266 8.590004 36,000 288 413 0
2019-08-10 10:40:21 GMT 47.208717 8.596943 36,000 288 413 0
2019-08-10 10:40:17 GMT 47.206512 8.607033 35,975 288 412 0
2019-08-10 10:40:14 GMT 47.204636 8.615547 35,975 288 412 0
2019-08-10 10:40:11 GMT 47.203224 8.621803 35,975 288 412 0
2019-08-10 10:40:07 GMT 47.201111 8.631477 35,975 288 412 0
2019-08-10 10:40:03 GMT 47.198383 8.643916 35,975 288 411 0
2019-08-10 10:40:00 GMT 47.196121 8.654137 35,975 288 412 0
2019-08-10 10:39:57 GMT 47.195126 8.658705 35,975 289 410 0
2019-08-10 10:39:53 GMT 47.192471 8.670537 35,975 288 411 0
2019-08-10 10:39:50 GMT 47.190376 8.680115 35,975 288 411 0
2019-08-10 10:39:47 GMT 47.189392 8.684624 35,975 288 411 0
2019-08-10 10:39:44 GMT 47.187630 8.692580 35,975 289 408 0
2019-08-10 10:39:41 GMT 47.184769 8.705429 35,975 289 409 0
2019-08-10 10:39:38 GMT 47.183861 8.709552 35,975 289 410 0
2019-08-10 10:39:35 GMT 47.180466 8.724724 35,975 289 410 -64
2019-08-10 10:39:32 GMT 47.178738 8.732652 35,975 289 410 0
2019-08-10 10:39:29 GMT 47.178738 8.732652 35,975 289 409 0
2019-08-10 10:39:26 GMT 47.176968 8.740469 35,975 289 409 0
2019-08-10 10:39:23 GMT 47.174973 8.749443 35,975 289 409 0
2019-08-10 10:39:20 GMT 47.170963 8.767442 35,975 289 409 0
2019-08-10 10:39:17 GMT 47.170963 8.767442 35,975 289 409 0
2019-08-10 10:39:14 GMT 47.169846 8.772514 35,975 289 409 0
2019-08-10 10:39:11 GMT 47.167694 8.782059 35,975 289 408 0
2019-08-10 10:39:08 GMT 47.165703 8.791034 35,975 289 408 0
2019-08-10 10:39:05 GMT 47.163189 8.802232 35,975 289 408 0
2019-08-10 10:38:59 GMT 47.160583 8.814063 35,975 289 408 0
2019-08-10 10:38:56 GMT 47.159187 8.820120 35,975 289 408 0
2019-08-10 10:38:53 GMT 47.157440 8.827995 35,975 289 408 0
2019-08-10 10:38:50 GMT 47.155838 8.835274 35,975 289 408 0
2019-08-10 10:38:47 GMT 47.153458 8.845985 35,975 289 408 0
2019-08-10 10:38:41 GMT 47.150063 8.861107 36,000 289 408 0
2019-08-10 10:38:38 GMT 47.148712 8.867305 35,975 289 408 0
2019-08-10 10:38:34 GMT 47.146336 8.877939 35,975 289 408 0
2019-08-10 10:38:31 GMT 47.144707 8.885193 35,975 289 408 0
2019-08-10 10:38:28 GMT 47.141098 8.901466 36,000 289 408 0
2019-08-10 10:38:25 GMT 47.141098 8.901466 36,000 289 407 0
2019-08-10 10:38:22 GMT 47.139587 8.908195 36,000 289 408 0
2019-08-10 10:38:19 GMT 47.137344 8.918221 36,000 289 407 0
2019-08-10 10:38:16 GMT 47.135071 8.928293 36,000 289 407 0
2019-08-10 10:38:13 GMT 47.134094 8.932730 36,000 289 408 0
2019-08-10 10:38:09 GMT 47.131210 8.945618 36,000 289 408 0
2019-08-10 10:38:06 GMT 47.129719 8.952378 36,000 289 408 -64
2019-08-10 10:38:03 GMT 47.125950 8.969140 36,000 289 408 -64
2019-08-10 10:38:00 GMT 47.125950 8.969140 36,000 289 408 -64
2019-08-10 10:37:56 GMT 47.124344 8.976379 36,000 289 408 -64
2019-08-10 10:37:52 GMT 47.122223 8.985971 36,000 289 408 -64
2019-08-10 10:37:48 GMT 47.118824 9.001113 36,000 289 408 -64
2019-08-10 10:37:45 GMT 47.117569 9.006660 36,000 289 408 -64
2019-08-10 10:37:42 GMT 47.115799 9.014564 36,025 288 407 -64
2019-08-10 10:37:38 GMT 47.113194 9.026325 36,025 289 408 -64
2019-08-10 10:37:34 GMT 47.111206 9.035225 36,025 288 407 -64
2019-08-10 10:37:30 GMT 47.108963 9.045319 36,025 288 407 -64
2019-08-10 10:37:26 GMT 47.106125 9.058228 36,025 288 408 0
2019-08-10 10:37:23 GMT 47.104393 9.066115 36,025 288 408 0
2019-08-10 10:37:20 GMT 47.103195 9.071686 36,025 288 408 0
2019-08-10 10:37:16 GMT 47.100761 9.082947 36,025 288 407 0
2019-08-10 10:37:13 GMT 47.097366 9.098652 36,025 288 408 0
2019-08-10 10:37:10 GMT 47.097366 9.098652 36,025 288 408 0
2019-08-10 10:37:06 GMT 47.094852 9.110483 36,025 288 408 0
2019-08-10 10:37:03 GMT 47.093269 9.117737 36,000 288 409 0
2019-08-10 10:37:00 GMT 47.091732 9.125131 36,000 288 409 0
2019-08-10 10:36:56 GMT 47.089554 9.135269 36,000 288 409 0
2019-08-10 10:36:52 GMT 47.086716 9.148865 36,000 288 409 0
2019-08-10 10:36:48 GMT 47.085030 9.156682 36,000 288 409 0
2019-08-10 10:36:44 GMT 47.082516 9.168513 36,000 288 409 0
2019-08-10 10:36:41 GMT 47.080700 9.176964 36,000 288 410 0
2019-08-10 10:36:38 GMT 47.078979 9.184914 36,000 288 410 0
2019-08-10 10:36:35 GMT 47.077240 9.192673 36,000 289 412 0
2019-08-10 10:36:32 GMT 47.076092 9.197951 36,000 289 411 0
2019-08-10 10:36:29 GMT 47.073017 9.211261 36,000 289 411 0
2019-08-10 10:36:26 GMT 47.072067 9.215332 36,000 292 413 0
2019-08-10 10:36:23 GMT 47.070053 9.223778 36,000 292 413 0
2019-08-10 10:36:19 GMT 47.067432 9.234220 36,000 291 413 0
2019-08-10 10:36:16 GMT 47.065247 9.242729 36,000 292 413 0
2019-08-10 10:36:12 GMT 47.062729 9.252205 36,000 292 413 0
2019-08-10 10:36:09 GMT 47.060589 9.259925 36,000 292 413 0
2019-08-10 10:36:06 GMT 47.058746 9.266624 36,000 293 413 0
2019-08-10 10:36:02 GMT 47.055237 9.279363 36,000 293 413 0
2019-08-10 10:35:59 GMT 47.053745 9.284785 36,000 293 413 0
2019-08-10 10:35:56 GMT 47.051044 9.294574 36,000 293 413 0
2019-08-10 10:35:53 GMT 47.048859 9.302392 36,000 293 413 0
2019-08-10 10:35:49 GMT 47.045784 9.313519 36,000 293 413 0
2019-08-10 10:35:46 GMT 47.043968 9.320068 36,000 293 413 0
2019-08-10 10:35:43 GMT 47.042450 9.325607 36,000 293 413 0
2019-08-10 10:35:40 GMT 47.037827 9.342155 36,000 293 413 0
2019-08-10 10:35:37 GMT 47.037827 9.342155 36,000 293 413 0
2019-08-10 10:35:34 GMT 47.035683 9.349858 36,000 293 413 0
2019-08-10 10:35:30 GMT 47.032799 9.360352 36,000 293 413 64
2019-08-10 10:35:27 GMT 47.030960 9.366943 36,000 293 413 64
2019-08-10 10:35:24 GMT 47.028049 9.377324 36,000 293 414 0
2019-08-10 10:35:21 GMT 47.025906 9.385141 36,000 293 413 64
2019-08-10 10:35:18 GMT 47.023407 9.394066 35,975 293 414 0
2019-08-10 10:35:15 GMT 47.021622 9.400520 35,975 293 414 0
2019-08-10 10:35:12 GMT 47.019901 9.406691 35,975 293 414 0
2019-08-10 10:35:09 GMT 47.018227 9.412818 36,025 293 416 0
2019-08-10 10:35:06 GMT 47.015617 9.422255 35,975 293 414 0
2019-08-10 10:35:03 GMT 47.013474 9.429909 36,000 292 414 -64
2019-08-10 10:35:00 GMT 47.010265 9.441411 36,000 292 414 -64
2019-08-10 10:34:57 GMT 47.009007 9.445989 36,000 292 414 -64
2019-08-10 10:34:54 GMT 47.007339 9.452087 36,000 292 414 -64
2019-08-10 10:34:51 GMT 47.004726 9.461553 36,000 293 413 -64
2019-08-10 10:34:47 GMT 47.002441 9.469734 36,000 293 413 -64
2019-08-10 10:34:44 GMT 47.000118 9.478102 36,000 293 413 0
2019-08-10 10:34:41 GMT 46.997681 9.486900 36,000 293 413 64
2019-08-10 10:34:37 GMT 46.994797 9.497337 36,000 293 413 64
2019-08-10 10:34:34 GMT 46.992508 9.505577 36,000 293 413 64
2019-08-10 10:34:31 GMT 46.990341 9.513315 36,000 293 413 64
2019-08-10 10:34:28 GMT 46.988205 9.521027 36,000 293 413 0
2019-08-10 10:34:25 GMT 46.983406 9.538175 35,975 293 414 -64
2019-08-10 10:34:22 GMT 46.983406 9.538175 35,975 293 414 -64
2019-08-10 10:34:18 GMT 46.980797 9.547542 36,000 293 415 -64
2019-08-10 10:34:15 GMT 46.978638 9.555290 36,000 293 414 -128
2019-08-10 10:34:11 GMT 46.972466 9.577472 36,000 293 414 0
2019-08-10 10:34:06 GMT 46.972466 9.577472 36,000 293 413 0
2019-08-10 10:34:03 GMT 46.970215 9.585640 36,000 293 413 0
2019-08-10 10:33:59 GMT 46.966827 9.597862 36,000 293 413 0
2019-08-10 10:33:55 GMT 46.964039 9.607755 36,000 293 413 -64
2019-08-10 10:33:52 GMT 46.960686 9.619868 36,025 293 413 -64
2019-08-10 10:33:49 GMT 46.960686 9.619868 36,025 293 415 -64
2019-08-10 10:33:46 GMT 46.957581 9.630959 36,025 293 414 -64
2019-08-10 10:33:43 GMT 46.955887 9.636932 36,025 293 414 -64
2019-08-10 10:33:39 GMT 46.952957 9.647507 36,025 293 414 0
2019-08-10 10:33:36 GMT 46.950817 9.655151 36,025 293 415 -64
2019-08-10 10:33:33 GMT 46.948814 9.662405 36,025 293 414 0
2019-08-10 10:33:30 GMT 46.944489 9.677899 36,025 293 415 -64
2019-08-10 10:33:24 GMT 46.941090 9.689941 36,025 293 416 -64
2019-08-10 10:33:21 GMT 46.939957 9.693993 36,050 293 416 -64
2019-08-10 10:33:17 GMT 46.935829 9.708745 36,025 293 416 -64
2019-08-10 10:33:13 GMT 46.934692 9.712807 36,025 293 416 -64
2019-08-10 10:33:10 GMT 46.931122 9.725578 36,025 293 417 -64
2019-08-10 10:33:06 GMT 46.928940 9.733253 36,025 293 416 -64
2019-08-10 10:33:03 GMT 46.927368 9.738899 36,050 293 416 -64
2019-08-10 10:33:00 GMT 46.924438 9.749405 36,000 293 416 0
2019-08-10 10:32:57 GMT 46.919254 9.767620 36,050 293 416 64
2019-08-10 10:32:52 GMT 46.919254 9.767620 36,025 293 416 64
2019-08-10 10:32:49 GMT 46.916611 9.777077 36,025 293 416 64
2019-08-10 10:32:45 GMT 46.913761 9.787058 36,025 293 417 0
2019-08-10 10:32:42 GMT 46.911621 9.794724 36,025 293 417 0
2019-08-10 10:32:39 GMT 46.906906 9.811340 36,025 293 416 64
2019-08-10 10:32:36 GMT 46.906906 9.811340 36,025 293 416 64
2019-08-10 10:32:32 GMT 46.904404 9.820228 36,025 293 417 64
2019-08-10 10:32:29 GMT 46.901100 9.831919 36,025 293 417 0
2019-08-10 10:32:26 GMT 46.899216 9.838531 36,025 293 417 0
2019-08-10 10:32:22 GMT 46.896606 9.847939 36,000 293 417 0
2019-08-10 10:32:19 GMT 46.894535 9.855229 36,025 293 417 0
2019-08-10 10:32:15 GMT 46.892021 9.864032 36,000 293 416 0
2019-08-10 10:32:11 GMT 46.886391 9.883963 36,000 293 417 64
2019-08-10 10:32:08 GMT 46.886391 9.883963 36,000 293 416 64
2019-08-10 10:32:05 GMT 46.884388 9.891146 36,000 293 416 128
2019-08-10 10:32:02 GMT 46.879360 9.908893 35,975 293 416 0
2019-08-10 10:31:59 GMT 46.879360 9.908893 35,975 293 417 64
2019-08-10 10:31:55 GMT 46.876877 9.917770 35,975 293 417 64
2019-08-10 10:31:52 GMT 46.875309 9.923330 35,975 293 417 64
2019-08-10 10:31:49 GMT 46.873123 9.931023 35,975 293 417 64
2019-08-10 10:31:46 GMT 46.870934 9.938824 35,975 293 417 64
2019-08-10 10:31:41 GMT 46.865906 9.956635 35,975 293 417 0
2019-08-10 10:31:38 GMT 46.862778 9.967614 35,975 293 417 0
2019-08-10 10:31:34 GMT 46.861809 9.970985 35,975 293 417 0
2019-08-10 10:31:31 GMT 46.858738 9.981834 35,975 293 416 0
2019-08-10 10:31:28 GMT 46.857433 9.986504 35,975 293 415 -64
2019-08-10 10:31:25 GMT 46.855225 9.994209 35,975 293 415 -64
2019-08-10 10:31:20 GMT 46.850510 10.010823 35,975 293 416 0
2019-08-10 10:31:17 GMT 46.848591 10.017540 35,975 293 416 0
2019-08-10 10:31:14 GMT 46.846447 10.025230 35,975 293 415 0
2019-08-10 10:31:11 GMT 46.844238 10.032996 35,975 293 415 0
2019-08-10 10:31:06 GMT 46.841125 10.043916 35,975 293 415 -64
2019-08-10 10:31:02 GMT 46.837322 10.057159 35,975 293 415 -64
2019-08-10 10:30:58 GMT 46.834534 10.067094 35,975 293 415 -64
2019-08-10 10:30:54 GMT 46.831833 10.076523 35,975 293 415 -64
2019-08-10 10:30:50 GMT 46.829636 10.084243 36,000 293 415 -64
2019-08-10 10:30:47 GMT 46.827129 10.093071 36,000 293 415 -64
2019-08-10 10:30:44 GMT 46.825268 10.099663 36,000 293 414 0
2019-08-10 10:30:38 GMT 46.820389 10.116666 36,000 293 414 0
2019-08-10 10:30:35 GMT 46.818516 10.123283 36,000 293 415 0
2019-08-10 10:30:32 GMT 46.815350 10.134270 36,000 293 415 0
2019-08-10 10:30:26 GMT 46.811394 10.148003 36,000 293 415 -64
2019-08-10 10:30:23 GMT 46.809174 10.155722 36,000 293 415 -64
2019-08-10 10:30:19 GMT 46.806015 10.166775 36,000 293 415 -64
2019-08-10 10:30:16 GMT 46.803806 10.174438 36,000 304 424 0
2019-08-10 10:30:11 GMT 46.800018 10.187542 36,000 293 415 -64
2019-08-10 10:30:06 GMT 46.796356 10.200188 36,025 293 414 0
2019-08-10 10:30:03 GMT 46.794449 10.206779 36,025 293 414 0
2019-08-10 10:29:57 GMT 46.789810 10.222711 36,025 293 414 0
2019-08-10 10:29:53 GMT 46.786926 10.232626 36,025 293 414 0
2019-08-10 10:29:50 GMT 46.784672 10.240356 36,025 293 415 -64
2019-08-10 10:29:46 GMT 46.781368 10.251755 36,025 293 415 0
2019-08-10 10:29:43 GMT 46.776154 10.269814 36,025 293 416 0
2019-08-10 10:29:40 GMT 46.776154 10.269814 36,025 293 416 -64
2019-08-10 10:29:36 GMT 46.773468 10.279318 36,025 293 416 -64
2019-08-10 10:29:31 GMT 46.770615 10.289246 36,025 294 417 -64
2019-08-10 10:29:28 GMT 46.768845 10.295288 36,025 293 416 0
2019-08-10 10:29:24 GMT 46.764038 10.311607 36,025 295 418 -64
2019-08-10 10:29:21 GMT 46.762466 10.316711 36,025 295 418 -64
2019-08-10 10:29:16 GMT 46.758369 10.329552 36,050 297 419 -64
2019-08-10 10:29:12 GMT 46.755440 10.338341 36,050 299 420 0
2019-08-10 10:29:09 GMT 46.753391 10.344315 36,025 298 419 0
2019-08-10 10:29:06 GMT 46.749985 10.353944 36,050 299 420 0
2019-08-10 10:29:02 GMT 46.746460 10.363524 36,050 301 421 64
2019-08-10 10:28:58 GMT 46.743660 10.370888 36,025 301 421 64
2019-08-10 10:28:55 GMT 46.739796 10.380844 36,025 308 428 0
2019-08-10 10:28:50 GMT 46.731949 10.400033 36,025 309 427 0
2019-08-10 10:28:47 GMT 46.731949 10.400033 36,025 303 422 64
2019-08-10 10:28:42 GMT 46.726810 10.411880 36,025 304 424 0
2019-08-10 10:28:39 GMT 46.723663 10.418991 36,025 304 424 0
2019-08-10 10:28:35 GMT 46.714424 10.438591 36,025 306 425 0
2019-08-10 10:28:31 GMT 46.714424 10.438591 36,025 306 425 0
2019-08-10 10:28:28 GMT 46.710983 10.445519 36,025 308 427 0
2019-08-10 10:28:25 GMT 46.707954 10.451431 36,000 310 429 0
2019-08-10 10:28:22 GMT 46.704372 10.458298 36,025 309 427 0
2019-08-10 10:28:19 GMT 46.698898 10.468430 36,025 311 429 0
2019-08-10 10:28:16 GMT 46.690842 10.482632 37,050 311 428 64
2019-08-10 10:28:09 GMT 46.686218 10.490537 36,000 311 429 0
2019-08-10 10:28:06 GMT 46.684540 10.493317 36,000 311 429 64
2019-08-10 10:28:01 GMT 46.672348 10.513782 36,000 311 429 0
2019-08-10 10:27:58 GMT 46.670433 10.517006 36,000 311 429 0
2019-08-10 10:27:52 GMT 46.664612 10.526778 36,000 311 429 0
2019-08-10 10:27:49 GMT 46.661819 10.531534 36,000 311 429 0
2019-08-10 10:27:45 GMT 46.657398 10.538910 36,000 311 429 0
2019-08-10 10:27:37 GMT 46.645203 10.559402 36,000 311 428 0
2019-08-10 10:27:34 GMT 46.641586 10.565364 36,000 311 428 0
2019-08-10 10:27:29 GMT 46.634949 10.576551 36,000 311 428 0
2019-08-10 10:27:25 GMT 46.631882 10.581643 36,000 311 428 0
2019-08-10 10:27:22 GMT 46.627716 10.588610 36,000 311 428 0
2019-08-10 10:27:17 GMT 46.619694 10.602081 35,975 311 428 64
2019-08-10 10:27:14 GMT 46.616432 10.607574 35,975 311 428 64
2019-08-10 10:27:11 GMT 46.613361 10.612724 35,975 311 428 64
2019-08-10 10:27:08 GMT 46.603134 10.629808 35,975 311 428 64
2019-08-10 10:27:04 GMT 46.603134 10.629808 35,975 311 428 64
2019-08-10 10:27:01 GMT 46.599518 10.635904 35,975 311 428 64
2019-08-10 10:26:57 GMT 46.594894 10.643675 35,950 311 427 0
2019-08-10 10:26:54 GMT 46.590729 10.650642 35,975 311 427 64
2019-08-10 10:26:50 GMT 46.585785 10.658949 35,975 311 427 0
2019-08-10 10:26:47 GMT 46.581619 10.665916 35,975 311 427 0
2019-08-10 10:26:43 GMT 46.575851 10.675562 35,975 311 427 0
2019-08-10 10:26:40 GMT 46.572784 10.680721 35,975 311 426 0
2019-08-10 10:26:35 GMT 46.567017 10.690367 35,975 311 426 0
2019-08-10 10:26:32 GMT 46.560974 10.700483 35,975 311 426 0
2019-08-10 10:26:27 GMT 46.555710 10.709325 35,975 312 426 0
2019-08-10 10:26:24 GMT 46.550491 10.718034 35,975 312 426 0
2019-08-10 10:26:21 GMT 46.546604 10.724442 35,975 312 426 0
2019-08-10 10:26:17 GMT 46.542461 10.731377 35,975 311 426 0
2019-08-10 10:26:14 GMT 46.539993 10.735497 35,975 311 426 0
2019-08-10 10:26:10 GMT 46.532825 10.747444 35,975 311 426 0
2019-08-10 10:26:04 GMT 46.525497 10.759702 35,975 311 426 0
2019-08-10 10:25:59 GMT 46.518299 10.771751 35,975 311 426 0
2019-08-10 10:25:56 GMT 46.514717 10.777657 35,975 311 426 0
2019-08-10 10:25:49 GMT 46.506989 10.790565 35,975 311 426 0
2019-08-10 10:25:46 GMT 46.502609 10.797953 35,975 311 426 0
2019-08-10 10:25:43 GMT 46.499355 10.803406 35,975 311 426 0
2019-08-10 10:25:39 GMT 46.493584 10.813087 35,975 311 426 0
2019-08-10 10:25:36 GMT 46.491116 10.817207 35,975 311 426 0
2019-08-10 10:25:33 GMT 46.486130 10.825486 35,975 311 426 0
2019-08-10 10:25:27 GMT 46.470448 10.851608 35,975 312 425 0
2019-08-10 10:25:22 GMT 46.470448 10.851608 35,975 312 425 0
2019-08-10 10:25:18 GMT 46.466904 10.857507 35,975 312 425 0
2019-08-10 10:25:15 GMT 46.461914 10.865813 35,975 312 425 0
2019-08-10 10:25:11 GMT 46.457794 10.872646 35,975 312 426 0
2019-08-10 10:25:08 GMT 46.454132 10.878676 35,975 312 426 0
2019-08-10 10:25:03 GMT 46.447495 10.889648 35,975 312 426 0
2019-08-10 10:25:00 GMT 46.442608 10.897751 35,975 312 426 0
2019-08-10 10:24:57 GMT 46.438698 10.904274 35,975 312 426 0
2019-08-10 10:24:54 GMT 46.434769 10.910697 35,975 312 427 0
2019-08-10 10:24:51 GMT 46.422588 10.930847 35,975 312 427 -64
2019-08-10 10:24:45 GMT 46.422588 10.930847 35,975 312 427 -64
2019-08-10 10:24:41 GMT 46.418152 10.938162 35,975 312 427 -64
2019-08-10 10:24:38 GMT 46.415375 10.942726 36,000 312 428 -64
2019-08-10 10:24:33 GMT 46.408401 10.954307 36,000 312 428 -64
2019-08-10 10:24:29 GMT 46.402897 10.963394 36,000 312 428 -64
2019-08-10 10:24:23 GMT 46.394566 10.977127 36,000 312 427 -64
2019-08-10 10:24:20 GMT 46.392105 10.981304 36,000 312 427 -64
2019-08-10 10:24:16 GMT 46.386520 10.990481 36,000 312 427 -64
2019-08-10 10:24:13 GMT 46.382648 10.996971 36,000 312 427 -64
2019-08-10 10:24:09 GMT 46.377136 11.006090 36,000 312 428 -64
2019-08-10 10:24:04 GMT 46.371277 11.015737 36,025 312 428 -64
2019-08-10 10:24:01 GMT 46.367661 11.021766 36,025 312 428 -64
2019-08-10 10:23:57 GMT 46.362671 11.030005 36,025 312 428 -64
2019-08-10 10:23:52 GMT 46.354904 11.042839 36,025 312 428 -64
2019-08-10 10:23:48 GMT 46.348480 11.053452 36,025 312 430 -64
2019-08-10 10:23:43 GMT 46.344009 11.060829 36,025 312 430 -64
2019-08-10 10:23:39 GMT 46.338142 11.070511 36,025 312 430 0
2019-08-10 10:23:36 GMT 46.334515 11.076485 36,025 312 430 0
2019-08-10 10:23:33 GMT 46.330322 11.083351 36,025 312 430 0
2019-08-10 10:23:27 GMT 46.321106 11.098603 36,025 312 432 0
2019-08-10 10:23:22 GMT 46.314331 11.109656 36,025 312 432 0
2019-08-10 10:23:18 GMT 46.310398 11.116173 36,025 312 433 -64
2019-08-10 10:23:15 GMT 46.305092 11.124893 36,025 312 433 -64
2019-08-10 10:23:11 GMT 46.301697 11.130490 36,025 312 433 -64
2019-08-10 10:23:08 GMT 46.287682 11.153664 36,025 312 433 -64
2019-08-10 10:23:02 GMT 46.287682 11.153664 36,025 312 433 0
2019-08-10 10:22:56 GMT 46.282333 11.162444 36,025 312 432 0
2019-08-10 10:22:51 GMT 46.275021 11.174469 36,025 312 432 0
2019-08-10 10:22:48 GMT 46.264893 11.191116 36,025 312 432 0
2019-08-10 10:22:44 GMT 46.264893 11.191116 36,025 312 432 0
2019-08-10 10:22:38 GMT 46.256470 11.204983 36,025 312 432 0
2019-08-10 10:22:35 GMT 46.254490 11.208183 36,025 312 432 0
2019-08-10 10:22:32 GMT 46.249371 11.216560 36,025 312 432 0
2019-08-10 10:22:28 GMT 46.244621 11.224388 36,025 312 432 0
2019-08-10 10:22:25 GMT 46.241268 11.229950 36,025 312 432 0
2019-08-10 10:22:21 GMT 46.231354 11.246155 36,025 312 433 0
2019-08-10 10:22:15 GMT 46.228233 11.251236 36,025 312 433 0
2019-08-10 10:22:11 GMT 46.221497 11.262259 36,025 312 433 0
2019-08-10 10:22:08 GMT 46.218643 11.266891 36,025 312 433 0
2019-08-10 10:22:04 GMT 46.211700 11.278270 36,025 312 434 0
2019-08-10 10:22:00 GMT 46.208496 11.283508 36,025 312 434 0
2019-08-10 10:21:57 GMT 46.198334 11.300175 36,025 312 433 0
2019-08-10 10:21:54 GMT 46.198334 11.300175 36,025 312 432 -64
2019-08-10 10:21:50 GMT 46.194672 11.306168 36,025 312 434 0
2019-08-10 10:21:46 GMT 46.189316 11.314913 36,000 312 434 0
2019-08-10 10:21:43 GMT 46.185608 11.320942 36,025 312 434 0
2019-08-10 10:21:39 GMT 46.180847 11.328780 36,025 312 433 0
2019-08-10 10:21:36 GMT 46.175995 11.336618 36,025 312 433 0
2019-08-10 10:21:33 GMT 46.169312 11.347537 36,025 312 432 -64
2019-08-10 10:21:29 GMT 46.166931 11.351423 36,025 312 433 0
2019-08-10 10:21:26 GMT 46.162720 11.358323 36,025 312 433 0
2019-08-10 10:21:22 GMT 46.156498 11.368446 36,000 312 433 0
2019-08-10 10:21:18 GMT 46.152557 11.374936 36,000 312 433 -64
2019-08-10 10:21:15 GMT 46.148300 11.381836 36,000 312 433 -64
2019-08-10 10:21:12 GMT 46.142952 11.390625 36,000 312 433 0
2019-08-10 10:21:08 GMT 46.138714 11.397491 36,025 312 433 0
2019-08-10 10:21:05 GMT 46.133873 11.405388 36,000 312 433 -64
2019-08-10 10:21:00 GMT 46.126518 11.417336 36,025 312 433 -64
2019-08-10 10:20:55 GMT 46.122025 11.424709 36,025 312 432 -64
2019-08-10 10:20:52 GMT 46.116669 11.433351 36,025 312 432 -64
2019-08-10 10:20:47 GMT 46.111313 11.442060 36,025 312 432 -64
2019-08-10 10:20:44 GMT 46.105774 11.451103 36,025 312 432 -64
2019-08-10 10:20:41 GMT 46.103104 11.455444 36,025 312 432 -64
2019-08-10 10:20:37 GMT 46.096893 11.465439 36,025 312 432 -64
2019-08-10 10:20:34 GMT 46.094376 11.469593 36,025 312 432 -64
2019-08-10 10:20:31 GMT 46.088974 11.478368 36,025 312 432 -64
2019-08-10 10:20:23 GMT 46.079636 11.493441 36,025 312 429 64
2019-08-10 10:20:20 GMT 46.075378 11.500341 36,050 312 432 64
2019-08-10 10:20:17 GMT 46.070889 11.507629 36,050 312 432 64
2019-08-10 10:20:13 GMT 46.066360 11.514945 36,050 312 432 0
2019-08-10 10:20:10 GMT 46.061298 11.523148 36,050 312 432 0
2019-08-10 10:20:06 GMT 46.055340 11.532761 36,050 312 432 64
2019-08-10 10:20:03 GMT 46.052219 11.537773 36,025 312 432 64
2019-08-10 10:19:59 GMT 46.046867 11.546425 36,025 312 432 64
2019-08-10 10:19:53 GMT 46.039261 11.558756 36,025 312 432 64
2019-08-10 10:19:50 GMT 46.034718 11.566132 36,025 312 431 0
2019-08-10 10:19:47 GMT 46.032158 11.570251 36,025 312 431 0
2019-08-10 10:19:44 GMT 46.026245 11.579865 36,000 312 429 0
2019-08-10 10:19:41 GMT 46.023685 11.583916 36,025 312 429 0
2019-08-10 10:19:38 GMT 46.012161 11.602567 36,025 312 430 0
2019-08-10 10:19:33 GMT 46.012161 11.602567 36,025 312 430 0
2019-08-10 10:19:30 GMT 46.008183 11.608978 36,025 312 430 64
2019-08-10 10:19:27 GMT 46.001991 11.618935 36,025 312 429 64
2019-08-10 10:19:21 GMT 45.996078 11.628479 36,025 312 429 64
2019-08-10 10:19:17 GMT 45.991890 11.635277 36,000 312 429 0
2019-08-10 10:19:14 GMT 45.982590 11.650331 36,000 312 428 0
2019-08-10 10:19:11 GMT 45.982590 11.650331 36,000 312 429 0
2019-08-10 10:19:08 GMT 45.980904 11.653061 36,000 312 429 0
2019-08-10 10:19:05 GMT 45.976959 11.659442 36,000 312 429 0
2019-08-10 10:19:02 GMT 45.971870 11.667549 36,000 312 428 0
2019-08-10 10:18:59 GMT 45.967941 11.673911 36,000 312 428 0
2019-08-10 10:18:55 GMT 45.962887 11.682106 36,000 312 428 0
2019-08-10 10:18:52 GMT 45.957581 11.690620 36,000 312 427 64
2019-08-10 10:18:48 GMT 45.953613 11.697023 36,000 312 427 0
2019-08-10 10:18:44 GMT 45.948898 11.704593 36,000 312 427 64
2019-08-10 10:18:38 GMT 45.940449 11.718224 36,000 312 419 0
2019-08-10 10:18:32 GMT 45.931274 11.732996 36,000 312 426 0
2019-08-10 10:18:28 GMT 45.927322 11.739304 36,000 312 426 64
2019-08-10 10:18:22 GMT 45.919498 11.751938 35,975 312 425 0
2019-08-10 10:18:19 GMT 45.915588 11.758186 35,975 312 424 0
2019-08-10 10:18:16 GMT 45.911682 11.764482 35,975 312 425 64
2019-08-10 10:18:13 GMT 45.907257 11.771645 35,975 312 424 0
2019-08-10 10:18:10 GMT 45.902229 11.779678 35,975 312 424 0
2019-08-10 10:18:05 GMT 45.897766 11.786856 35,975 312 424 0
2019-08-10 10:18:02 GMT 45.893848 11.793137 35,975 312 424 0
2019-08-10 10:17:59 GMT 45.889435 11.800254 35,975 312 423 0
2019-08-10 10:17:56 GMT 45.884399 11.808243 35,975 312 423 0
2019-08-10 10:17:53 GMT 45.881840 11.812363 35,975 312 423 0
2019-08-10 10:17:48 GMT 45.874203 11.824654 35,975 312 423 0
2019-08-10 10:17:44 GMT 45.868851 11.833237 35,975 312 423 0
2019-08-10 10:17:40 GMT 45.864395 11.840314 35,975 312 422 0
2019-08-10 10:17:37 GMT 45.861031 11.845734 35,975 312 422 0
2019-08-10 10:17:34 GMT 45.855770 11.854179 35,975 312 422 0
2019-08-10 10:17:31 GMT 45.852695 11.859055 35,975 312 422 0
2019-08-10 10:17:28 GMT 45.849438 11.864342 35,975 312 422 0
2019-08-10 10:17:25 GMT 45.844410 11.872375 35,975 312 419 0
2019-08-10 10:17:21 GMT 45.840317 11.878967 35,950 312 421 0
2019-08-10 10:17:18 GMT 45.836151 11.885599 35,975 312 420 0
2019-08-10 10:17:13 GMT 45.828724 11.897575 35,950 312 420 0
2019-08-10 10:17:10 GMT 45.823975 11.905128 35,950 312 419 0
2019-08-10 10:17:07 GMT 45.822578 11.907326 35,950 312 419 0
2019-08-10 10:17:02 GMT 45.814896 11.919685 35,975 312 419 -64
2019-08-10 10:16:59 GMT 45.811340 11.925391 35,975 312 418 -64
2019-08-10 10:16:56 GMT 45.806610 11.932869 35,975 312 418 -64
2019-08-10 10:16:52 GMT 45.803055 11.938588 35,975 312 418 -64
2019-08-10 10:16:49 GMT 45.799210 11.944748 35,975 312 418 -64
2019-08-10 10:16:46 GMT 45.795624 11.950447 35,975 312 418 -64
2019-08-10 10:16:39 GMT 45.785751 11.966255 35,975 312 417 -64
2019-08-10 10:16:33 GMT 45.778015 11.978581 35,975 312 417 -64
2019-08-10 10:16:30 GMT 45.773094 11.986427 36,000 312 417 -64
2019-08-10 10:16:26 GMT 45.769272 11.992515 36,000 312 417 -64
2019-08-10 10:16:22 GMT 45.764008 12.000889 36,025 312 417 -64
2019-08-10 10:16:18 GMT 45.759083 12.008743 36,000 312 417 -64
2019-08-10 10:16:15 GMT 45.755310 12.014823 36,025 312 417 -64
2019-08-10 10:16:08 GMT 45.744598 12.031905 36,025 312 417 -64
2019-08-10 10:15:59 GMT 45.733894 12.048912 36,025 312 417 -64
2019-08-10 10:15:56 GMT 45.729195 12.056396 36,025 312 417 -64
2019-08-10 10:15:51 GMT 45.724258 12.064224 36,025 312 417 0
2019-08-10 10:15:48 GMT 45.714951 12.079056 36,025 312 417 0
2019-08-10 10:15:44 GMT 45.714951 12.079056 36,025 312 419 64
2019-08-10 10:15:41 GMT 45.708710 12.088980 36,025 312 417 0
2019-08-10 10:15:37 GMT 45.704727 12.095277 36,025 312 418 0
2019-08-10 10:15:34 GMT 45.700607 12.101842 36,025 312 418 0
2019-08-10 10:15:31 GMT 45.698090 12.105795 36,025 312 418 0
2019-08-10 10:15:26 GMT 45.688507 12.121078 36,025 312 419 0
2019-08-10 10:15:23 GMT 45.679916 12.134667 36,025 312 419 0
2019-08-10 10:15:18 GMT 45.679916 12.134667 36,025 312 418 0
2019-08-10 10:15:15 GMT 45.676346 12.140362 36,025 313 419 64
2019-08-10 10:15:12 GMT 45.674122 12.143875 36,025 312 419 0
2019-08-10 10:15:09 GMT 45.670807 12.149137 36,025 312 419 0
2019-08-10 10:15:05 GMT 45.658493 12.168698 36,025 312 418 64
2019-08-10 10:15:02 GMT 45.658493 12.168698 36,025 313 419 64
2019-08-10 10:14:59 GMT 45.655361 12.173607 36,025 313 419 64
2019-08-10 10:14:52 GMT 45.647076 12.186722 36,025 313 419 0
2019-08-10 10:14:48 GMT 45.642887 12.193314 36,025 313 419 64
2019-08-10 10:14:43 GMT 45.637348 12.202103 36,000 313 419 0
2019-08-10 10:14:40 GMT 45.632355 12.209964 36,000 313 419 64
2019-08-10 10:14:37 GMT 45.628456 12.216179 36,000 313 419 64
2019-08-10 10:14:33 GMT 45.623196 12.224419 36,000 313 419 64
2019-08-10 10:14:29 GMT 45.617374 12.233620 36,000 313 419 64
2019-08-10 10:14:21 GMT 45.602432 12.257309 36,000 313 419 64
2019-08-10 10:14:18 GMT 45.602432 12.257309 35,975 313 419 64
2019-08-10 10:14:10 GMT 45.594101 12.270424 35,975 313 419 0
2019-08-10 10:14:07 GMT 45.589397 12.277840 35,975 313 419 0
2019-08-10 10:14:02 GMT 45.582458 12.288744 35,975 313 419 0
2019-08-10 10:13:57 GMT 45.574966 12.300568 36,000 313 419 0
2019-08-10 10:13:51 GMT 45.568359 12.311052 36,000 313 419 0
2019-08-10 10:13:45 GMT 45.560860 12.322815 36,000 313 419 64
2019-08-10 10:13:40 GMT 45.554489 12.332823 35,975 313 418 0
2019-08-10 10:13:37 GMT 45.550644 12.338852 35,975 313 418 0
2019-08-10 10:13:34 GMT 45.546478 12.345417 35,975 313 418 0
2019-08-10 10:13:27 GMT 45.537323 12.359750 35,975 313 418 0
2019-08-10 10:13:23 GMT 45.532372 12.367591 35,975 313 417 0
2019-08-10 10:13:19 GMT 45.527065 12.375898 36,000 313 417 0
2019-08-10 10:13:14 GMT 45.521011 12.385410 36,000 313 416 0
2019-08-10 10:13:11 GMT 45.516869 12.391975 35,975 313 417 0
2019-08-10 10:13:07 GMT 45.502205 12.415020 36,000 313 417 0
2019-08-10 10:13:00 GMT 45.502205 12.415020 36,000 313 417 0
2019-08-10 10:12:56 GMT 45.496990 12.423259 36,000 313 417 0
2019-08-10 10:12:51 GMT 45.489532 12.434954 36,000 313 417 0
2019-08-10 10:12:47 GMT 45.485123 12.441883 36,000 313 417 0
2019-08-10 10:12:39 GMT 45.475437 12.457089 36,000 313 417 0
2019-08-10 10:12:36 GMT 45.470737 12.464458 36,000 313 417 0
2019-08-10 10:12:28 GMT 45.460327 12.480796 36,000 313 417 0
2019-08-10 10:12:25 GMT 45.458038 12.484392 36,000 313 416 0
2019-08-10 10:12:19 GMT 45.448654 12.499106 36,000 313 417 0
2019-08-10 10:12:15 GMT 45.443687 12.506863 36,000 313 417 0
2019-08-10 10:12:12 GMT 45.439545 12.513361 36,000 313 417 0
2019-08-10 10:12:05 GMT 45.429565 12.528926 36,000 313 417 0
2019-08-10 10:11:59 GMT 45.422043 12.540693 36,000 313 418 0
2019-08-10 10:11:56 GMT 45.419250 12.544980 36,000 313 417 0
2019-08-10 10:11:53 GMT 45.415421 12.551030 36,000 313 417 0
2019-08-10 10:11:45 GMT 45.405376 12.566685 36,000 313 418 0
2019-08-10 10:11:42 GMT 45.393784 12.584772 36,000 313 418 0
2019-08-10 10:11:36 GMT 45.393784 12.584772 36,000 313 418 0
2019-08-10 10:11:31 GMT 45.387955 12.593798 36,000 313 418 0
2019-08-10 10:11:24 GMT 45.376514 12.611568 36,000 313 419 0
2019-08-10 10:11:21 GMT 45.373169 12.616752 36,000 313 419 0
2019-08-10 10:11:13 GMT 45.362366 12.633689 36,000 313 419 0
2019-08-10 10:11:10 GMT 45.354820 12.645331 36,000 313 419 0
2019-08-10 10:11:02 GMT 45.347580 12.656642 36,000 313 419 0
2019-08-10 10:10:59 GMT 45.345657 12.659651 36,000 313 419 0
2019-08-10 10:10:56 GMT 45.333965 12.677888 36,025 313 419 0
2019-08-10 10:10:51 GMT 45.333965 12.677888 36,000 313 419 0
2019-08-10 10:10:48 GMT 45.331219 12.682175 36,000 313 419 0
2019-08-10 10:10:41 GMT 45.321991 12.696468 36,025 313 420 0
2019-08-10 10:10:38 GMT 45.317764 12.703076 36,025 313 420 0
2019-08-10 10:10:34 GMT 45.313065 12.710378 36,025 313 420 0
2019-08-10 10:10:29 GMT 45.305195 12.722570 36,025 313 420 0
2019-08-10 10:10:26 GMT 45.302448 12.726924 36,025 313 420 0
2019-08-10 10:10:19 GMT 45.292694 12.742048 36,025 313 420 0
2019-08-10 10:10:16 GMT 45.288765 12.748093 36,025 313 420 0
2019-08-10 10:10:07 GMT 45.277313 12.765912 36,025 313 421 0
2019-08-10 10:10:03 GMT 45.272610 12.773214 36,025 313 421 0
2019-08-10 10:09:57 GMT 45.262878 12.788287 36,025 313 421 64
2019-08-10 10:09:54 GMT 45.260834 12.791421 36,025 313 421 0
2019-08-10 10:09:50 GMT 45.255478 12.799726 36,025 313 421 0
2019-08-10 10:09:46 GMT 45.248749 12.810124 36,000 313 421 0
2019-08-10 10:09:43 GMT 45.245728 12.814832 36,000 313 421 0
2019-08-10 10:09:35 GMT 45.233925 12.833170 36,000 313 421 0
2019-08-10 10:09:32 GMT 45.230389 12.838596 36,000 313 421 0
2019-08-10 10:09:26 GMT 45.223572 12.849230 36,000 313 421 0
2019-08-10 10:09:22 GMT 45.217400 12.858693 36,000 313 421 0
2019-08-10 10:09:18 GMT 45.212082 12.866952 36,000 313 421 0
2019-08-10 10:09:14 GMT 45.208420 12.872641 36,000 313 421 0
2019-08-10 10:09:11 GMT 45.204208 12.879116 36,000 313 421 0
2019-08-10 10:09:05 GMT 45.188553 12.903246 36,000 313 421 0
2019-08-10 10:09:00 GMT 45.188553 12.903246 36,000 313 421 0
2019-08-10 10:08:54 GMT 45.181786 12.913692 36,000 313 421 0
2019-08-10 10:08:51 GMT 45.176743 12.921491 36,000 313 421 0
2019-08-10 10:08:43 GMT 45.167130 12.936271 36,000 313 421 0
2019-08-10 10:08:39 GMT 45.161545 12.944903 36,000 313 421 0
2019-08-10 10:08:32 GMT 45.152527 12.958766 36,000 313 421 0
2019-08-10 10:08:29 GMT 45.146175 12.968556 36,000 313 421 -64
2019-08-10 10:08:20 GMT 45.137100 12.982505 36,000 313 421 -64
2019-08-10 10:08:17 GMT 45.133392 12.988194 36,000 313 421 0
2019-08-10 10:08:14 GMT 45.127808 12.996761 36,000 313 421 0
2019-08-10 10:08:10 GMT 45.123596 13.003235 36,000 313 421 0
2019-08-10 10:08:05 GMT 45.117691 13.012325 36,000 313 421 0
2019-08-10 10:07:59 GMT 45.109268 13.025273 36,000 313 421 0
2019-08-10 10:07:55 GMT 45.103363 13.034297 36,000 313 421 64
2019-08-10 10:07:51 GMT 45.098282 13.042079 36,000 313 421 64
2019-08-10 10:07:48 GMT 45.094620 13.047769 36,000 313 421 0
2019-08-10 10:07:44 GMT 45.089054 13.056313 36,000 313 421 64
2019-08-10 10:07:40 GMT 45.083652 13.064620 36,000 313 421 64
2019-08-10 10:07:36 GMT 45.078346 13.072793 35,975 313 421 0
2019-08-10 10:07:33 GMT 45.075531 13.077066 35,975 313 421 0
2019-08-10 10:07:29 GMT 45.069595 13.086191 35,975 313 421 0
2019-08-10 10:07:25 GMT 45.065094 13.093087 35,975 313 421 0
2019-08-10 10:07:22 GMT 45.060612 13.099923 35,975 313 421 0
2019-08-10 10:07:15 GMT 45.050766 13.115060 36,000 313 421 0
2019-08-10 10:07:12 GMT 45.046509 13.121469 36,000 313 421 0
2019-08-10 10:07:08 GMT 45.040421 13.130755 35,975 313 421 0
2019-08-10 10:07:01 GMT 45.032135 13.143441 36,000 313 421 -64
2019-08-10 10:06:56 GMT 45.026550 13.151943 36,000 313 421 0
2019-08-10 10:06:53 GMT 45.022579 13.158004 36,000 313 421 -64
2019-08-10 10:06:49 GMT 45.016060 13.167918 36,000 313 421 -64
2019-08-10 10:06:46 GMT 45.013546 13.171804 36,000 313 421 -64
2019-08-10 10:06:40 GMT 45.003113 13.187648 36,000 313 421 -64
2019-08-10 10:06:35 GMT 44.998901 13.194122 36,000 313 421 0
2019-08-10 10:06:29 GMT 44.989288 13.208705 36,000 313 421 -64
2019-08-10 10:06:25 GMT 44.985336 13.214744 36,000 313 421 -64
2019-08-10 10:06:21 GMT 44.975468 13.229817 36,000 313 421 -64
2019-08-10 10:06:18 GMT 44.975468 13.229817 36,025 313 422 64
2019-08-10 10:06:15 GMT 44.971573 13.235779 36,025 313 421 0
2019-08-10 10:06:08 GMT 44.963364 13.248239 36,025 313 421 0
2019-08-10 10:06:04 GMT 44.956844 13.258153 36,025 313 422 0
2019-08-10 10:05:59 GMT 44.950928 13.267234 36,025 313 422 0
2019-08-10 10:05:56 GMT 44.946930 13.273226 36,025 313 422 0
2019-08-10 10:05:53 GMT 44.942696 13.279724 36,025 313 422 0
2019-08-10 10:05:47 GMT 44.934547 13.292117 36,000 313 423 0
2019-08-10 10:05:44 GMT 44.929428 13.299888 36,000 313 423 0
2019-08-10 10:05:41 GMT 44.925331 13.306185 36,000 313 423 64
2019-08-10 10:05:35 GMT 44.917557 13.317975 36,000 313 423 0
2019-08-10 10:05:32 GMT 44.913437 13.324323 36,000 313 423 0
2019-08-10 10:05:24 GMT 44.900299 13.344269 36,000 313 423 0
2019-08-10 10:05:14 GMT 44.890961 13.358459 36,000 313 423 0
2019-08-10 10:05:11 GMT 44.886971 13.364533 36,000 313 423 0
2019-08-10 10:05:03 GMT 44.875305 13.382198 36,000 313 423 0
2019-08-10 10:05:00 GMT 44.871887 13.387377 36,000 313 423 0
2019-08-10 10:04:52 GMT 44.862251 13.401981 36,000 313 424 64
2019-08-10 10:04:49 GMT 44.857727 13.408879 36,000 313 424 64
2019-08-10 10:04:44 GMT 44.849823 13.420805 36,000 313 424 0
2019-08-10 10:04:38 GMT 44.843723 13.430049 36,000 313 424 0
2019-08-10 10:04:33 GMT 44.836323 13.441237 36,000 313 424 0
2019-08-10 10:04:28 GMT 44.828201 13.453544 36,000 313 425 0
2019-08-10 10:04:22 GMT 44.821796 13.463142 36,000 313 425 0
2019-08-10 10:04:17 GMT 44.814972 13.473489 36,000 313 425 0
2019-08-10 10:04:09 GMT 44.802944 13.491546 36,000 313 425 0
2019-08-10 10:04:05 GMT 44.797623 13.499647 36,000 313 425 0
2019-08-10 10:04:00 GMT 44.792084 13.507952 36,000 313 425 -64
2019-08-10 10:03:56 GMT 44.785858 13.517303 36,000 313 425 -64
2019-08-10 10:03:53 GMT 44.782928 13.521685 36,000 313 425 -64
2019-08-10 10:03:50 GMT 44.778625 13.528159 36,000 313 425 -64
2019-08-10 10:03:45 GMT 44.767822 13.544442 36,000 313 424 0
2019-08-10 10:03:39 GMT 44.763840 13.550497 36,000 313 425 -64
2019-08-10 10:03:34 GMT 44.757557 13.559942 36,000 313 425 -64
2019-08-10 10:03:28 GMT 44.749878 13.571581 36,025 313 425 -64
2019-08-10 10:03:24 GMT 44.743546 13.581111 36,025 313 425 -64
2019-08-10 10:03:18 GMT 44.735825 13.592704 36,025 313 425 0
2019-08-10 10:03:14 GMT 44.731255 13.599600 36,025 314 425 0
2019-08-10 10:03:11 GMT 44.726074 13.607352 36,025 314 425 0
2019-08-10 10:03:06 GMT 44.720352 13.615984 36,025 314 426 0
2019-08-10 10:03:03 GMT 44.715500 13.623243 36,025 314 426 0
2019-08-10 10:02:56 GMT 44.706299 13.637041 36,025 314 426 0
2019-08-10 10:02:53 GMT 44.701996 13.643515 36,025 314 426 0
2019-08-10 10:02:49 GMT 44.696854 13.651250 36,025 314 426 0
2019-08-10 10:02:42 GMT 44.687347 13.665488 36,025 314 426 0
2019-08-10 10:02:34 GMT 44.677021 13.680926 36,000 314 427 0
2019-08-10 10:02:30 GMT 44.671574 13.689099 36,000 314 427 0
2019-08-10 10:02:23 GMT 44.662582 13.702502 36,000 314 427 0
2019-08-10 10:02:20 GMT 44.658585 13.708526 36,000 314 427 64
2019-08-10 10:02:13 GMT 44.646900 13.726077 36,000 314 428 0
2019-08-10 10:02:08 GMT 44.640152 13.736193 36,000 314 427 64
2019-08-10 10:01:59 GMT 44.630081 13.751221 36,000 314 427 64
2019-08-10 10:01:55 GMT 44.623440 13.761113 36,000 314 427 64
2019-08-10 10:01:49 GMT 44.615944 13.772367 36,000 314 427 0
2019-08-10 10:01:43 GMT 44.603851 13.790458 36,000 314 427 -64
2019-08-10 10:01:40 GMT 44.603851 13.790458 35,975 314 427 0
2019-08-10 10:01:36 GMT 44.597809 13.799547 36,000 314 427 -64
2019-08-10 10:01:26 GMT 44.583115 13.821455 36,000 314 426 0
2019-08-10 10:01:20 GMT 44.576561 13.831251 36,000 314 426 0
2019-08-10 10:01:16 GMT 44.571022 13.839491 36,000 314 426 0
2019-08-10 10:01:08 GMT 44.560406 13.855301 36,000 314 426 0
2019-08-10 10:01:04 GMT 44.555832 13.862130 36,000 314 426 0
2019-08-10 10:01:01 GMT 44.552032 13.867754 36,000 314 426 0
2019-08-10 10:00:58 GMT 44.547729 13.874163 36,000 314 426 -64
2019-08-10 10:00:55 GMT 44.543648 13.880221 36,000 314 425 0
2019-08-10 10:00:47 GMT 44.531891 13.897705 36,000 314 425 -64
2019-08-10 10:00:39 GMT 44.522049 13.912309 36,000 314 425 -64
2019-08-10 10:00:33 GMT 44.513443 13.925040 36,000 314 426 0
2019-08-10 10:00:30 GMT 44.509384 13.931066 36,000 314 425 0
2019-08-10 10:00:24 GMT 44.501331 13.942990 36,025 314 426 0
2019-08-10 10:00:12 GMT 44.486069 13.965716 36,000 314 426 0
2019-08-10 10:00:07 GMT 44.478336 13.977289 36,000 314 425 0
2019-08-10 10:00:02 GMT 44.471680 13.987203 36,000 313 427 0
2019-08-10 09:59:53 GMT 44.458271 14.007300 36,000 313 426 0
2019-08-10 09:59:41 GMT 44.428852 14.051916 36,000 313 426 0
2019-08-10 09:59:30 GMT 44.428852 14.051916 36,000 313 426 0
2019-08-10 09:59:20 GMT 44.415585 14.072281 36,000 313 426 0
2019-08-10 09:59:09 GMT 44.400921 14.094990 36,000 313 426 0
2019-08-10 09:58:58 GMT 44.386490 14.117164 36,000 314 427 -64
2019-08-10 09:58:51 GMT 44.376160 14.132669 36,000 314 428 0
2019-08-10 09:58:47 GMT 44.372105 14.138667 36,000 314 427 -64
2019-08-10 09:58:44 GMT 44.367680 14.145031 36,000 315 427 -64
2019-08-10 09:58:37 GMT 44.357533 14.159166 36,000 318 428 0
2019-08-10 09:58:29 GMT 44.345196 14.175177 36,000 319 429 0
2019-08-10 09:58:26 GMT 44.341415 14.179884 36,000 319 429 0
2019-08-10 09:58:23 GMT 44.337936 14.184265 36,000 319 429 0
2019-08-10 09:58:19 GMT 44.329460 14.194872 36,000 319 429 0
2019-08-10 09:58:15 GMT 44.325668 14.199633 36,000 319 429 0
2019-08-10 09:58:07 GMT 44.313126 14.215328 36,000 319 429 0
2019-08-10 09:58:04 GMT 44.310001 14.219256 36,000 319 429 0
2019-08-10 09:57:56 GMT 44.295853 14.236941 36,000 319 429 0
2019-08-10 09:57:53 GMT 44.293579 14.239785 36,000 319 429 -64
2019-08-10 09:57:47 GMT 44.284790 14.250772 36,000 319 429 0
2019-08-10 09:57:43 GMT 44.272854 14.265747 36,000 319 429 -64
2019-08-10 09:57:33 GMT 44.263092 14.277911 36,025 319 429 -64
2019-08-10 09:57:28 GMT 44.255859 14.287000 36,025 319 429 0
2019-08-10 09:57:24 GMT 44.248043 14.296763 36,025 319 429 0
2019-08-10 09:57:19 GMT 44.243042 14.303022 36,025 319 429 0
2019-08-10 09:57:13 GMT 44.233891 14.314449 36,000 319 429 0
2019-08-10 09:57:07 GMT 44.224487 14.326306 36,000 319 429 0
2019-08-10 09:56:58 GMT 44.209396 14.345136 36,000 319 429 0
2019-08-10 09:56:53 GMT 44.203445 14.352591 36,000 319 429 0
2019-08-10 09:56:48 GMT 44.197128 14.360504 36,000 319 429 0
2019-08-10 09:56:42 GMT 44.188889 14.370756 36,000 319 429 0
2019-08-10 09:56:38 GMT 44.175659 14.387235 36,000 319 429 0
2019-08-10 09:56:34 GMT 44.175659 14.387235 36,000 319 429 0
2019-08-10 09:56:29 GMT 44.169044 14.395425 36,000 319 429 0
2019-08-10 09:56:26 GMT 44.165550 14.399806 36,000 319 428 0
2019-08-10 09:56:23 GMT 44.158985 14.407981 36,000 319 429 0
2019-08-10 09:56:18 GMT 44.141647 14.429584 36,000 319 429 0
2019-08-10 09:56:10 GMT 44.141647 14.429584 36,000 319 429 0
2019-08-10 09:56:07 GMT 44.136337 14.436227 36,000 319 429 0
2019-08-10 09:56:01 GMT 44.127823 14.446766 36,000 319 429 0
2019-08-10 09:55:58 GMT 44.123051 14.452776 36,000 319 429 0
2019-08-10 09:55:54 GMT 44.117741 14.459381 36,000 319 429 0
2019-08-10 09:55:48 GMT 44.108917 14.470335 36,000 319 429 0
2019-08-10 09:55:41 GMT 44.099075 14.482535 36,000 319 429 0
2019-08-10 09:55:35 GMT 44.083008 14.502464 36,000 319 429 0
2019-08-10 09:55:32 GMT 44.083008 14.502464 36,000 319 429 0
2019-08-10 09:55:27 GMT 44.077698 14.509107 36,000 319 429 0
2019-08-10 09:55:23 GMT 44.068817 14.520093 36,000 319 429 0
2019-08-10 09:55:17 GMT 44.061089 14.529681 36,000 319 429 0
2019-08-10 09:55:10 GMT 44.047852 14.546090 36,000 319 429 0
2019-08-10 09:55:03 GMT 44.040138 14.555642 36,000 319 429 0
2019-08-10 09:54:58 GMT 44.031342 14.566563 36,000 319 429 0
2019-08-10 09:54:54 GMT 44.019981 14.580623 36,000 319 429 0
2019-08-10 09:54:48 GMT 44.019981 14.580623 36,000 319 429 0
2019-08-10 09:54:43 GMT 44.012054 14.590419 36,000 319 429 0
2019-08-10 09:54:37 GMT 44.003906 14.600511 36,000 319 429 0
2019-08-10 09:54:31 GMT 43.994099 14.612667 36,000 319 428 0
2019-08-10 09:54:27 GMT 43.987198 14.621206 36,000 319 428 0
2019-08-10 09:54:21 GMT 43.977432 14.633266 36,000 319 428 0
2019-08-10 09:54:09 GMT 43.957836 14.657397 36,000 319 428 0
2019-08-10 09:53:59 GMT 43.947144 14.670580 36,000 319 428 0
2019-08-10 09:53:55 GMT 43.938560 14.681200 36,000 319 428 -64
2019-08-10 09:53:50 GMT 43.934189 14.686563 36,000 319 428 0
2019-08-10 09:53:43 GMT 43.918716 14.705583 36,000 319 428 0
2019-08-10 09:53:39 GMT 43.918716 14.705583 36,000 319 428 0
2019-08-10 09:53:36 GMT 43.911438 14.714590 36,000 319 428 0
2019-08-10 09:53:28 GMT 43.900993 14.727369 36,000 319 429 0
2019-08-10 09:53:22 GMT 43.893406 14.736720 36,000 319 429 0
2019-08-10 09:53:18 GMT 43.886425 14.745287 36,000 319 429 0
2019-08-10 09:53:15 GMT 43.881676 14.751107 36,000 319 429 0
2019-08-10 09:53:11 GMT 43.875111 14.759216 36,000 319 429 0
2019-08-10 09:53:07 GMT 43.865295 14.771246 36,000 319 429 0
2019-08-10 09:53:03 GMT 43.865295 14.771246 36,000 319 429 0
2019-08-10 09:53:00 GMT 43.858475 14.779613 36,025 319 429 0
2019-08-10 09:52:57 GMT 43.855179 14.783637 36,000 319 429 0
2019-08-10 09:52:53 GMT 43.848221 14.792260 36,000 319 429 0
2019-08-10 09:52:42 GMT 43.828629 14.816277 36,000 319 429 0
2019-08-10 09:52:29 GMT 43.808990 14.840358 36,000 319 430 0
2019-08-10 09:52:24 GMT 43.806122 14.843837 36,000 319 430 0
2019-08-10 09:52:21 GMT 43.801373 14.849657 36,000 319 429 0
2019-08-10 09:52:18 GMT 43.797276 14.854627 36,000 319 430 0
2019-08-10 09:52:14 GMT 43.787128 14.867118 36,000 319 430 0
2019-08-10 09:52:11 GMT 43.787128 14.867118 36,000 319 430 0
2019-08-10 09:52:07 GMT 43.781403 14.874050 36,000 319 430 0
2019-08-10 09:52:01 GMT 43.772186 14.885325 36,000 319 430 0
2019-08-10 09:51:57 GMT 43.763443 14.895992 36,000 319 430 0
2019-08-10 09:51:49 GMT 43.754105 14.907425 36,000 319 430 0
2019-08-10 09:51:45 GMT 43.749046 14.913548 36,000 319 429 0
2019-08-10 09:51:38 GMT 43.735748 14.929845 36,000 319 429 0
2019-08-10 09:51:30 GMT 43.725307 14.942583 36,000 319 429 0
2019-08-10 09:51:24 GMT 43.716415 14.953439 36,000 319 430 0
2019-08-10 09:51:14 GMT 43.697708 14.976218 36,000 319 429 0
2019-08-10 09:51:08 GMT 43.691975 14.983194 36,000 319 429 0
2019-08-10 09:51:00 GMT 43.680588 14.997104 36,000 319 429 0
2019-08-10 09:50:57 GMT 43.677731 15.000589 36,000 319 430 0
2019-08-10 09:50:51 GMT 43.668186 15.012163 36,000 319 429 0
2019-08-10 09:50:47 GMT 43.662186 15.019524 36,000 319 429 0
2019-08-10 09:50:42 GMT 43.654549 15.028774 36,000 319 429 -64
2019-08-10 09:50:36 GMT 43.643421 15.042310 36,000 319 429 -64
2019-08-10 09:50:32 GMT 43.638382 15.048459 36,000 319 429 -64
2019-08-10 09:50:24 GMT 43.624054 15.065769 36,000 319 429 0
2019-08-10 09:50:12 GMT 43.605972 15.087742 36,000 319 429 0
2019-08-10 09:50:03 GMT 43.596729 15.098942 36,000 319 429 64
2019-08-10 09:49:58 GMT 43.586861 15.110910 36,025 319 428 0
2019-08-10 09:49:51 GMT 43.578598 15.120828 36,000 319 428 0
2019-08-10 09:49:46 GMT 43.567841 15.133859 36,025 319 429 0
2019-08-10 09:49:42 GMT 43.565552 15.136605 36,000 319 429 64
2019-08-10 09:49:33 GMT 43.553146 15.151552 36,000 319 429 64
2019-08-10 09:49:30 GMT 43.548080 15.157667 36,000 319 429 0
2019-08-10 09:49:22 GMT 43.536346 15.171928 36,000 319 429 64
2019-08-10 09:49:16 GMT 43.527786 15.182321 36,000 319 429 0
2019-08-10 09:49:13 GMT 43.521732 15.189645 36,000 319 429 0
2019-08-10 09:49:05 GMT 43.505814 15.208936 36,000 319 429 64
2019-08-10 09:49:02 GMT 43.505814 15.208936 36,000 319 429 64
2019-08-10 09:48:55 GMT 43.496315 15.220446 35,975 319 429 64
2019-08-10 09:48:52 GMT 43.490021 15.228073 35,975 319 429 64
2019-08-10 09:48:45 GMT 43.477936 15.242700 35,975 319 429 64
2019-08-10 09:48:38 GMT 43.467590 15.255283 35,975 319 428 0
2019-08-10 09:48:30 GMT 43.457630 15.267269 35,975 319 429 0
2019-08-10 09:48:23 GMT 43.448730 15.277894 35,975 319 428 0
2019-08-10 09:48:19 GMT 43.441383 15.286756 35,975 319 428 0
2019-08-10 09:48:11 GMT 43.429932 15.300489 35,975 319 428 0
2019-08-10 09:48:08 GMT 43.424812 15.306636 35,975 319 428 0
2019-08-10 09:47:58 GMT 43.407356 15.327563 35,975 319 428 0
2019-08-10 09:47:46 GMT 43.387390 15.351605 35,950 319 428 0
2019-08-10 09:47:38 GMT 43.380432 15.359909 35,975 319 428 0
2019-08-10 09:47:35 GMT 43.375931 15.365295 35,975 319 428 0
2019-08-10 09:47:32 GMT 43.369675 15.372875 35,975 319 427 0
2019-08-10 09:47:27 GMT 43.364529 15.378963 35,950 319 428 0
2019-08-10 09:47:20 GMT 43.350933 15.395312 35,950 319 428 0
2019-08-10 09:47:16 GMT 43.340179 15.408260 35,950 319 428 0
2019-08-10 09:47:11 GMT 43.340179 15.408260 35,950 319 428 0
2019-08-10 09:47:05 GMT 43.331894 15.418134 35,950 319 428 0
2019-08-10 09:46:58 GMT 43.322395 15.429579 35,950 319 428 -64
2019-08-10 09:46:52 GMT 43.311676 15.442434 35,975 319 428 -128
2019-08-10 09:46:44 GMT 43.300186 15.456167 35,975 319 428 -128
2019-08-10 09:46:38 GMT 43.291580 15.466527 36,000 319 428 -128
2019-08-10 09:46:33 GMT 43.284027 15.475585 36,000 319 428 -64
2019-08-10 09:46:30 GMT 43.280220 15.480129 36,000 319 428 -64
2019-08-10 09:46:23 GMT 43.269421 15.493142 36,000 319 428 -128
2019-08-10 09:46:13 GMT 43.239624 15.528664 36,050 320 429 -64
2019-08-10 09:46:00 GMT 43.235046 15.534157 36,050 320 428 -64
2019-08-10 09:45:56 GMT 43.229279 15.540991 36,050 319 431 0
2019-08-10 09:45:52 GMT 43.223236 15.548145 36,050 320 430 -64
2019-08-10 09:45:42 GMT 43.206253 15.568330 36,050 319 430 0
2019-08-10 09:45:35 GMT 43.198563 15.577464 36,050 319 431 0
2019-08-10 09:45:29 GMT 43.189304 15.588553 36,050 319 431 0
2019-08-10 09:45:20 GMT 43.174175 15.606537 36,050 319 432 0
2019-08-10 09:45:10 GMT 43.159378 15.624092 36,050 319 433 0
2019-08-10 09:44:59 GMT 43.141342 15.645617 36,050 319 433 0
2019-08-10 09:44:48 GMT 43.126507 15.663300 36,050 319 433 0
2019-08-10 09:44:37 GMT 43.110992 15.681706 36,050 320 434 0
2019-08-10 09:44:31 GMT 43.099274 15.695605 36,050 320 433 0
2019-08-10 09:44:28 GMT 43.095062 15.700549 36,050 320 435 0
2019-08-10 09:44:20 GMT 43.082794 15.715092 36,050 320 435 0
2019-08-10 09:44:16 GMT 43.077950 15.720847 36,050 320 435 0
2019-08-10 09:44:11 GMT 43.068829 15.731637 36,050 320 435 64
2019-08-10 09:44:07 GMT 43.062683 15.738896 36,050 320 435 64
2019-08-10 09:43:57 GMT 43.050018 15.753806 36,050 320 435 64
2019-08-10 09:43:54 GMT 43.045486 15.759249 36,025 320 435 64
2019-08-10 09:43:49 GMT 43.035587 15.770939 36,000 320 433 0
2019-08-10 09:43:45 GMT 43.031212 15.776106 36,025 320 434 128
2019-08-10 09:43:42 GMT 43.026398 15.781796 36,000 320 434 0
2019-08-10 09:43:38 GMT 43.020878 15.788334 36,025 320 434 64
2019-08-10 09:43:35 GMT 43.014778 15.795593 36,000 320 434 0
2019-08-10 09:43:29 GMT 43.005657 15.806318 36,000 320 433 0
2019-08-10 09:43:24 GMT 42.998859 15.814362 36,000 320 433 0
2019-08-10 09:43:18 GMT 42.990479 15.824236 36,000 320 433 0
2019-08-10 09:43:14 GMT 42.983032 15.833064 36,000 320 433 0
2019-08-10 09:43:07 GMT 42.973999 15.843658 36,000 320 431 64
2019-08-10 09:43:02 GMT 42.966877 15.852029 36,000 320 432 64
2019-08-10 09:42:58 GMT 42.959522 15.860726 36,000 320 431 64
2019-08-10 09:42:52 GMT 42.950180 15.871731 36,000 320 431 0
2019-08-10 09:42:45 GMT 42.939880 15.883867 36,000 320 431 0
2019-08-10 09:42:42 GMT 42.935410 15.889108 36,000 320 430 0
2019-08-10 09:42:36 GMT 42.927727 15.898198 36,000 320 429 -64
2019-08-10 09:42:31 GMT 42.918697 15.908792 36,000 320 428 0
2019-08-10 09:42:24 GMT 42.909760 15.919255 36,000 320 428 0
2019-08-10 09:42:20 GMT 42.903706 15.926383 36,000 320 428 0
2019-08-10 09:42:16 GMT 42.897949 15.933114 36,000 320 428 0
2019-08-10 09:42:10 GMT 42.887054 15.945953 36,000 320 428 0
2019-08-10 09:42:05 GMT 42.881596 15.952345 36,000 320 428 0
2019-08-10 09:41:59 GMT 42.871399 15.964312 36,000 320 428 -64
2019-08-10 09:41:56 GMT 42.867210 15.969216 36,000 320 428 0
2019-08-10 09:41:49 GMT 42.854507 15.984149 36,000 320 429 0
2019-08-10 09:41:45 GMT 42.850571 15.988748 36,000 320 429 0
2019-08-10 09:41:38 GMT 42.839417 16.001848 36,000 320 429 64
2019-08-10 09:41:35 GMT 42.835602 16.006376 36,000 320 429 0
2019-08-10 09:41:30 GMT 42.827225 16.016214 36,000 320 429 0
2019-08-10 09:41:24 GMT 42.818848 16.025988 36,000 320 428 64
2019-08-10 09:41:18 GMT 42.808926 16.037613 36,000 320 425 -64
2019-08-10 09:41:15 GMT 42.805061 16.042147 36,025 320 426 -64
2019-08-10 09:41:05 GMT 42.790306 16.059458 36,000 320 428 0
2019-08-10 09:40:57 GMT 42.776245 16.075872 36,000 320 427 0
2019-08-10 09:40:53 GMT 42.770615 16.082451 36,000 320 427 0
2019-08-10 09:40:49 GMT 42.765976 16.087854 36,000 320 425 -64
2019-08-10 09:40:46 GMT 42.761490 16.093054 36,025 320 425 -64
2019-08-10 09:40:43 GMT 42.755859 16.099714 36,025 320 425 -64
2019-08-10 09:40:34 GMT 42.743774 16.113823 36,000 320 422 64
2019-08-10 09:40:24 GMT 42.718460 16.143286 36,000 320 422 64
2019-08-10 09:40:17 GMT 42.718460 16.143286 36,000 320 422 -64
2019-08-10 09:40:14 GMT 42.714378 16.148050 36,025 320 422 -64
2019-08-10 09:40:08 GMT 42.703674 16.160515 36,025 320 422 0
2019-08-10 09:40:02 GMT 42.695431 16.170088 36,000 320 422 64
2019-08-10 09:39:52 GMT 42.682114 16.185545 36,000 320 424 64
2019-08-10 09:39:42 GMT 42.666847 16.203300 35,975 320 425 320
2019-08-10 09:39:35 GMT 42.656933 16.214798 35,925 320 424 1088
2019-08-10 09:39:32 GMT 42.652184 16.220354 35,900 320 424 1024
2019-08-10 09:39:22 GMT 42.635056 16.240227 35,675 320 426 1216
2019-08-10 09:39:10 GMT 42.619740 16.258041 35,475 320 427 1280
2019-08-10 09:39:00 GMT 42.603653 16.276682 35,250 320 429 1216
2019-08-10 09:38:52 GMT 42.590549 16.291830 35,100 320 431 896
2019-08-10 09:38:49 GMT 42.586548 16.296429 35,050 320 430 1152
2019-08-10 09:38:43 GMT 42.577835 16.306581 34,925 320 431 1088
2019-08-10 09:38:38 GMT 42.571060 16.314384 34,850 320 431 1024
2019-08-10 09:38:26 GMT 42.552608 16.335775 34,675 320 431 960
2019-08-10 09:38:18 GMT 42.539387 16.351042 34,525 320 431 896
2019-08-10 09:38:11 GMT 42.528030 16.364136 34,425 320 431 1024
2019-08-10 09:38:06 GMT 42.522861 16.370140 34,375 320 431 1024
2019-08-10 09:37:56 GMT 42.506336 16.389174 34,075 320 432 1152
2019-08-10 09:37:50 GMT 42.498562 16.398182 34,075 320 432 1152
2019-08-10 09:37:46 GMT 42.490788 16.407124 34,000 320 432 1024
2019-08-10 09:37:38 GMT 42.480057 16.419504 33,875 320 432 896
2019-08-10 09:37:33 GMT 42.471889 16.428904 33,800 320 432 832
2019-08-10 09:37:28 GMT 42.464767 16.437107 33,750 320 432 704
2019-08-10 09:37:23 GMT 42.456711 16.446405 33,675 320 431 704
2019-08-10 09:37:19 GMT 42.451492 16.452400 33,650 320 431 960
2019-08-10 09:37:13 GMT 42.441788 16.463573 33,375 320 430 1344
2019-08-10 09:37:09 GMT 42.434143 16.472376 33,475 320 430 1152
2019-08-10 09:37:03 GMT 42.425995 16.481802 33,350 320 431 1472
2019-08-10 09:36:57 GMT 42.417236 16.491884 33,225 320 431 1408
2019-08-10 09:36:48 GMT 42.403656 16.507582 33,025 320 432 1472
2019-08-10 09:36:38 GMT 42.388367 16.525185 32,775 320 434 1344
2019-08-10 09:36:31 GMT 42.376968 16.538256 32,625 320 434 1344
2019-08-10 09:36:26 GMT 42.370731 16.545410 32,550 320 435 1472
2019-08-10 09:36:20 GMT 42.361267 16.556273 32,400 320 437 1536
2019-08-10 09:36:16 GMT 42.355362 16.563013 32,300 320 437 1536
2019-08-10 09:36:07 GMT 42.340485 16.580055 32,050 320 438 1536
2019-08-10 09:35:57 GMT 42.322502 16.600725 31,825 320 439 1280
2019-08-10 09:35:49 GMT 42.311329 16.613564 31,675 320 440 1152
2019-08-10 09:35:43 GMT 42.303955 16.622065 31,575 320 440 1088
2019-08-10 09:35:38 GMT 42.296356 16.630804 31,500 320 439 1216
2019-08-10 09:35:28 GMT 42.280838 16.648630 31,300 320 439 1152
2019-08-10 09:35:18 GMT 42.262161 16.670130 31,100 320 439 1216
2019-08-10 09:35:14 GMT 42.258774 16.674063 31,025 320 439 1280
2019-08-10 09:35:04 GMT 42.242943 16.692257 30,825 320 439 1408
2019-08-10 09:34:54 GMT 42.228142 16.709375 30,600 320 441 1216
2019-08-10 09:34:43 GMT 42.195099 16.747410 30,225 320 439 640
2019-08-10 09:34:33 GMT 42.195099 16.747410 30,275 320 439 640
2019-08-10 09:34:29 GMT 42.188782 16.754587 30,225 320 439 704
2019-08-10 09:34:23 GMT 42.179489 16.765137 30,125 320 437 1088
2019-08-10 09:34:17 GMT 42.170929 16.774813 30,025 321 438 1152
2019-08-10 09:34:12 GMT 42.162968 16.783724 29,925 321 438 1344
2019-08-10 09:34:02 GMT 42.147400 16.801342 29,725 320 438 1472
2019-08-10 09:33:52 GMT 42.131592 16.819239 29,475 320 438 1280
2019-08-10 09:33:42 GMT 42.114040 16.839167 29,250 320 439 1216
2019-08-10 09:33:31 GMT 42.098831 16.856461 29,075 320 438 896
2019-08-10 09:33:21 GMT 42.083969 16.873466 28,950 320 437 832
2019-08-10 09:33:11 GMT 42.066330 16.893539 28,775 320 435 1088
2019-08-10 09:32:59 GMT 42.049984 16.912239 28,575 320 434 1152
2019-08-10 09:32:49 GMT 42.034298 16.929996 28,400 320 432 1088
2019-08-10 09:32:39 GMT 42.019306 16.946922 28,225 321 431 1088
2019-08-10 09:32:28 GMT 42.001740 16.966574 28,050 321 430 1024
2019-08-10 09:32:16 GMT 41.983463 16.987036 27,850 321 428 1088
2019-08-10 09:32:08 GMT 41.972763 16.999033 27,725 321 427 1088
2019-08-10 09:32:05 GMT 41.968552 17.003716 27,675 321 426 1280
2019-08-10 09:31:58 GMT 41.956924 17.016699 27,525 321 425 1344
2019-08-10 09:31:54 GMT 41.951153 17.023188 27,425 321 425 1280
2019-08-10 09:31:48 GMT 41.941471 17.034046 27,300 321 425 1216
2019-08-10 09:31:37 GMT 41.926300 17.050968 27,125 321 423 1152
2019-08-10 09:31:27 GMT 41.910645 17.068571 26,925 320 423 1408
2019-08-10 09:31:17 GMT 41.893803 17.087444 26,700 320 422 1088
2019-08-10 09:31:06 GMT 41.879650 17.103350 26,550 321 420 1024
2019-08-10 09:30:56 GMT 41.863869 17.121107 26,350 320 418 1216
2019-08-10 09:30:48 GMT 41.852142 17.134302 26,200 320 417 1472
2019-08-10 09:30:45 GMT 41.848068 17.138859 26,150 320 417 1664
2019-08-10 09:30:42 GMT 41.843666 17.143847 26,050 321 417 1856
2019-08-10 09:30:34 GMT 41.832001 17.156898 25,825 321 418 1984
2019-08-10 09:30:24 GMT 41.817398 17.173191 25,550 321 418 1344
2019-08-10 09:30:14 GMT 41.800838 17.191561 25,325 321 417 1280
2019-08-10 09:30:03 GMT 41.785938 17.208038 25,150 321 416 1216
2019-08-10 09:29:53 GMT 41.770798 17.224752 24,950 321 414 1152
2019-08-10 09:29:43 GMT 41.755600 17.241358 24,750 321 411 1216
2019-08-10 09:29:32 GMT 41.738708 17.259708 24,550 322 410 1280
2019-08-10 09:29:22 GMT 41.724792 17.274691 24,350 322 408 1152
2019-08-10 09:29:11 GMT 41.708771 17.291794 24,175 322 405 1088
2019-08-10 09:29:01 GMT 41.694397 17.307150 24,000 322 403 1216
2019-08-10 09:28:49 GMT 41.676819 17.326000 23,725 321 401 1664
2019-08-10 09:28:37 GMT 41.659698 17.344852 23,450 321 401 1408
2019-08-10 09:28:29 GMT 41.648006 17.357441 23,225 324 400 1920
2019-08-10 09:28:20 GMT 41.633247 17.370535 22,925 330 399 1984
2019-08-10 09:28:09 GMT 41.615326 17.382544 22,625 340 397 1536
2019-08-10 09:27:58 GMT 41.597534 17.390608 22,375 343 395 1536
2019-08-10 09:27:48 GMT 41.579315 17.398350 22,125 343 394 1728
2019-08-10 09:27:37 GMT 41.560776 17.406277 21,825 343 394 1600
2019-08-10 09:27:28 GMT 41.543777 17.413523 21,625 343 391 896
2019-08-10 09:27:24 GMT 41.535690 17.416950 21,575 343 389 704
2019-08-10 09:27:12 GMT 41.518204 17.424440 21,425 343 386 1088
2019-08-10 09:27:05 GMT 41.505203 17.429996 21,225 343 384 1984
2019-08-10 09:26:55 GMT 41.489311 17.436771 20,925 343 384 1984
2019-08-10 09:26:46 GMT 41.472702 17.443855 20,625 343 385 1984
2019-08-10 09:26:35 GMT 41.454895 17.451469 20,300 343 385 1920
2019-08-10 09:26:25 GMT 41.437172 17.459000 20,000 343 385 1920
2019-08-10 09:26:15 GMT 41.419479 17.466537 19,700 343 384 1664
2019-08-10 09:26:03 GMT 41.400009 17.474754 19,425 343 382 1344
2019-08-10 09:25:53 GMT 41.383484 17.481689 19,225 343 377 1280
2019-08-10 09:25:42 GMT 41.365108 17.489485 18,975 343 374 1792
2019-08-10 09:25:38 GMT 41.359104 17.491982 18,850 343 374 1920
2019-08-10 09:25:32 GMT 41.349979 17.495852 18,700 343 373 1920
2019-08-10 09:25:21 GMT 41.331360 17.503717 18,375 343 372 1728
2019-08-10 09:25:12 GMT 41.314228 17.510960 18,075 343 371 2176
2019-08-10 09:25:01 GMT 41.297791 17.517883 17,750 343 370 1792
2019-08-10 09:24:57 GMT 41.291508 17.520573 17,625 343 369 1792
2019-08-10 09:24:50 GMT 41.280762 17.525085 17,450 343 369 1792
2019-08-10 09:24:39 GMT 41.263138 17.532532 17,125 343 367 2112
2019-08-10 09:24:30 GMT 41.247192 17.539297 16,825 343 367 1856
2019-08-10 09:24:19 GMT 41.230316 17.546387 16,525 343 365 1792
2019-08-10 09:24:09 GMT 41.214203 17.553223 16,225 343 363 2112
2019-08-10 09:23:58 GMT 41.196808 17.560547 15,850 343 362 2240
2019-08-10 09:23:49 GMT 41.180832 17.567383 15,525 343 361 1856
2019-08-10 09:23:37 GMT 41.163208 17.574951 15,200 343 358 1856
2019-08-10 09:23:28 GMT 41.148056 17.581360 14,925 343 355 1920
2019-08-10 09:23:14 GMT 41.127087 17.590361 14,500 343 353 2368
2019-08-10 09:23:07 GMT 41.115463 17.595276 14,200 343 353 2368
2019-08-10 09:22:57 GMT 41.100128 17.601746 13,875 343 352 1792
2019-08-10 09:22:45 GMT 41.079742 17.610397 13,550 343 346 1536
2019-08-10 09:22:32 GMT 41.062286 17.617826 13,250 343 340 1856
2019-08-10 09:22:25 GMT 41.051743 17.622314 13,025 343 339 2368
2019-08-10 09:22:14 GMT 41.035519 17.629187 12,550 343 339 3136

Making use of Plane Finder data

You are free to use the raw flight data, aircraft information and images provided in this report for your own purposes provided the data is correctly attributed to Plane Finder. We ask that you please credit Plane Finder and link to planefinder.net in close proximity to the content.

Optionally one of the following logos (no smaller then 150x24px) can be used and must link to planefinder.net

Embedding the Plane Finder map

You are welcome to embed the Plane Finder playback map on your website to offer visitors a more interactive experience. We suggest using the following HTML code:

<iframe src="//planefinder.net/data/report/U28374-G-EZWP-7700-squawk-2019-08-10/map" width="800" height="600" seamless="seamless"></iframe>

Where our data comes from

Plane Finder has a global network of data feeds and antenna radars that receive data broadcast directly from aircraft. The primary technologies used are ADS-B and MLAT. We also show feeds from the FAA and a FLARM glider feed.

Click here to find out more about the Plane Finder network.

How we collect our data